<?xml version="1.0" encoding="UTF-8" standalone="no" ?>
<gpx xmlns="http://www.topografix.com/GPX/1/1" xmlns:xsi="http://www.w3.org/2001/XMLSchema-instance" xsi:schemaLocation="http://www.topografix.com/GPX/1/1 http://www.topografix.com/GPX/1/1/gpx.xsd" version="1.1" creator="VisuGPX - https://www.visugpx.com">
  <metadata>
    <name>Chasseron</name>
  </metadata>
  <trk>
    <name><![CDATA[Chasseron_1]]></name>
    <trkseg>
      <trkpt lat="46.86324" lon="6.60531">
        <ele>1201.09</ele>
        <time>2020-10-31T09:45:00.000Z</time>
      </trkpt>
      <trkpt lat="46.86334" lon="6.60532">
        <ele>1201.17</ele>
        <time>2020-10-31T09:45:09.573Z</time>
      </trkpt>
      <trkpt lat="46.86341" lon="6.6052">
        <ele>1201.24</ele>
        <time>2020-10-31T09:45:19.723Z</time>
      </trkpt>
      <trkpt lat="46.86344" lon="6.6051">
        <ele>1201.41</ele>
        <time>2020-10-31T09:45:28.074Z</time>
      </trkpt>
      <trkpt lat="46.86347" lon="6.60496">
        <ele>1201.13</ele>
        <time>2020-10-31T09:45:30.762Z</time>
      </trkpt>
      <trkpt lat="46.8635" lon="6.60469">
        <ele>1200.59</ele>
        <time>2020-10-31T09:45:35.722Z</time>
      </trkpt>
      <trkpt lat="46.86352" lon="6.60444">
        <ele>1199.75</ele>
        <time>2020-10-31T09:45:39.488Z</time>
      </trkpt>
      <trkpt lat="46.86353" lon="6.60409">
        <ele>1198.66</ele>
        <time>2020-10-31T09:45:44.886Z</time>
      </trkpt>
      <trkpt lat="46.86355" lon="6.60371">
        <ele>1197.86</ele>
        <time>2020-10-31T09:45:51.665Z</time>
      </trkpt>
      <trkpt lat="46.86356" lon="6.6033">
        <ele>1197.25</ele>
        <time>2020-10-31T09:45:59.713Z</time>
      </trkpt>
      <trkpt lat="46.86354" lon="6.60205">
        <ele>1197.3</ele>
        <time>2020-10-31T09:47:15.798Z</time>
      </trkpt>
      <trkpt lat="46.86354" lon="6.60204">
        <ele>1197.3</ele>
        <time>2020-10-31T09:47:16.404Z</time>
      </trkpt>
      <trkpt lat="46.86353" lon="6.60101">
        <ele>1197.34</ele>
        <time>2020-10-31T09:48:19.077Z</time>
      </trkpt>
      <trkpt lat="46.86353" lon="6.6005">
        <ele>1197.8</ele>
        <time>2020-10-31T09:48:54.187Z</time>
      </trkpt>
      <trkpt lat="46.86352" lon="6.60004">
        <ele>1197.8</ele>
        <time>2020-10-31T09:49:22.043Z</time>
      </trkpt>
      <trkpt lat="46.86351" lon="6.59899">
        <ele>1199.69</ele>
        <time>2020-10-31T09:50:45.795Z</time>
      </trkpt>
      <trkpt lat="46.86349" lon="6.59819">
        <ele>1200.09</ele>
        <time>2020-10-31T09:51:37.724Z</time>
      </trkpt>
      <trkpt lat="46.8635" lon="6.5976">
        <ele>1199.31</ele>
        <time>2020-10-31T09:51:49.632Z</time>
      </trkpt>
      <trkpt lat="46.86349" lon="6.5974">
        <ele>1199.28</ele>
        <time>2020-10-31T09:52:01.376Z</time>
      </trkpt>
      <trkpt lat="46.86348" lon="6.59723">
        <ele>1199.32</ele>
        <time>2020-10-31T09:52:12.038Z</time>
      </trkpt>
      <trkpt lat="46.86346" lon="6.597">
        <ele>1199.8</ele>
        <time>2020-10-31T09:52:31.457Z</time>
      </trkpt>
      <trkpt lat="46.86345" lon="6.59699">
        <ele>1200.04</ele>
        <time>2020-10-31T09:52:35.593Z</time>
      </trkpt>
      <trkpt lat="46.86345" lon="6.59698">
        <ele>1200.04</ele>
        <time>2020-10-31T09:52:36.198Z</time>
      </trkpt>
      <trkpt lat="46.86344" lon="6.59683">
        <ele>1200.28</ele>
        <time>2020-10-31T09:52:47.794Z</time>
      </trkpt>
      <trkpt lat="46.86343" lon="6.59659">
        <ele>1200.67</ele>
        <time>2020-10-31T09:53:06.387Z</time>
      </trkpt>
      <trkpt lat="46.86342" lon="6.59616">
        <ele>1200.95</ele>
        <time>2020-10-31T09:53:34.915Z</time>
      </trkpt>
      <trkpt lat="46.86342" lon="6.59594">
        <ele>1200.56</ele>
        <time>2020-10-31T09:53:39.033Z</time>
      </trkpt>
      <trkpt lat="46.86342" lon="6.59579">
        <ele>1200.23</ele>
        <time>2020-10-31T09:53:41.660Z</time>
      </trkpt>
      <trkpt lat="46.86342" lon="6.59559">
        <ele>1200.01</ele>
        <time>2020-10-31T09:53:45.857Z</time>
      </trkpt>
      <trkpt lat="46.86341" lon="6.59545">
        <ele>1199.98</ele>
        <time>2020-10-31T09:53:53.988Z</time>
      </trkpt>
      <trkpt lat="46.86339" lon="6.59521">
        <ele>1199.93</ele>
        <time>2020-10-31T09:54:07.974Z</time>
      </trkpt>
      <trkpt lat="46.86336" lon="6.59499">
        <ele>1200.07</ele>
        <time>2020-10-31T09:54:22.790Z</time>
      </trkpt>
      <trkpt lat="46.86332" lon="6.59477">
        <ele>1200.24</ele>
        <time>2020-10-31T09:54:38.100Z</time>
      </trkpt>
      <trkpt lat="46.86326" lon="6.59449">
        <ele>1200.38</ele>
        <time>2020-10-31T09:54:57.073Z</time>
      </trkpt>
      <trkpt lat="46.86322" lon="6.59424">
        <ele>1200.32</ele>
        <time>2020-10-31T09:55:11.840Z</time>
      </trkpt>
      <trkpt lat="46.86319" lon="6.59405">
        <ele>1200.28</ele>
        <time>2020-10-31T09:55:23.124Z</time>
      </trkpt>
      <trkpt lat="46.86315" lon="6.59359">
        <ele>1200.19</ele>
        <time>2020-10-31T09:55:50.020Z</time>
      </trkpt>
      <trkpt lat="46.86312" lon="6.59345">
        <ele>1200.32</ele>
        <time>2020-10-31T09:56:00.096Z</time>
      </trkpt>
      <trkpt lat="46.86307" lon="6.59324">
        <ele>1200.69</ele>
        <time>2020-10-31T09:56:17.416Z</time>
      </trkpt>
      <trkpt lat="46.86297" lon="6.59289">
        <ele>1201.71</ele>
        <time>2020-10-31T09:56:53.302Z</time>
      </trkpt>
      <trkpt lat="46.86288" lon="6.59263">
        <ele>1202.64</ele>
        <time>2020-10-31T09:57:23.486Z</time>
      </trkpt>
      <trkpt lat="46.8628" lon="6.59246">
        <ele>1203.19</ele>
        <time>2020-10-31T09:57:42.913Z</time>
      </trkpt>
      <trkpt lat="46.86271" lon="6.59229">
        <ele>1203.92</ele>
        <time>2020-10-31T09:58:05.616Z</time>
      </trkpt>
      <trkpt lat="46.86264" lon="6.59218">
        <ele>1204.72</ele>
        <time>2020-10-31T09:58:25.072Z</time>
      </trkpt>
      <trkpt lat="46.86249" lon="6.59201">
        <ele>1206.64</ele>
        <time>2020-10-31T09:59:09.263Z</time>
      </trkpt>
      <trkpt lat="46.86238" lon="6.59186">
        <ele>1207.63</ele>
        <time>2020-10-31T09:59:35.235Z</time>
      </trkpt>
      <trkpt lat="46.86237" lon="6.59183">
        <ele>1207.81</ele>
        <time>2020-10-31T09:59:39.591Z</time>
      </trkpt>
      <trkpt lat="46.86236" lon="6.59183">
        <ele>1207.81</ele>
        <time>2020-10-31T09:59:40.477Z</time>
      </trkpt>
      <trkpt lat="46.86232" lon="6.59175">
        <ele>1207.99</ele>
        <time>2020-10-31T09:59:48.404Z</time>
      </trkpt>
      <trkpt lat="46.86223" lon="6.59151">
        <ele>1208.7</ele>
        <time>2020-10-31T10:00:13.794Z</time>
      </trkpt>
      <trkpt lat="46.86218" lon="6.59142">
        <ele>1208.98</ele>
        <time>2020-10-31T10:00:24.169Z</time>
      </trkpt>
      <trkpt lat="46.86212" lon="6.59133">
        <ele>1209.27</ele>
        <time>2020-10-31T10:00:35.180Z</time>
      </trkpt>
      <trkpt lat="46.86205" lon="6.59097">
        <ele>1210.74</ele>
        <time>2020-10-31T10:01:16.822Z</time>
      </trkpt>
      <trkpt lat="46.862" lon="6.59074">
        <ele>1211.9</ele>
        <time>2020-10-31T10:01:46.282Z</time>
      </trkpt>
      <trkpt lat="46.86197" lon="6.59053">
        <ele>1213.83</ele>
        <time>2020-10-31T10:02:35.054Z</time>
      </trkpt>
      <trkpt lat="46.86192" lon="6.59036">
        <ele>1215.81</ele>
        <time>2020-10-31T10:03:18.258Z</time>
      </trkpt>
      <trkpt lat="46.86182" lon="6.59008">
        <ele>1218.53</ele>
        <time>2020-10-31T10:04:24.790Z</time>
      </trkpt>
      <trkpt lat="46.86178" lon="6.59006">
        <ele>1218.33</ele>
        <time>2020-10-31T10:04:25.728Z</time>
      </trkpt>
      <trkpt lat="46.86174" lon="6.59005">
        <ele>1217.68</ele>
        <time>2020-10-31T10:04:26.566Z</time>
      </trkpt>
      <trkpt lat="46.86169" lon="6.59002">
        <ele>1216.99</ele>
        <time>2020-10-31T10:04:27.682Z</time>
      </trkpt>
      <trkpt lat="46.86165" lon="6.59">
        <ele>1216.79</ele>
        <time>2020-10-31T10:04:28.620Z</time>
      </trkpt>
      <trkpt lat="46.86162" lon="6.58998">
        <ele>1216.31</ele>
        <time>2020-10-31T10:04:29.301Z</time>
      </trkpt>
      <trkpt lat="46.86158" lon="6.58994">
        <ele>1216.05</ele>
        <time>2020-10-31T10:04:30.318Z</time>
      </trkpt>
      <trkpt lat="46.86153" lon="6.5899">
        <ele>1215.43</ele>
        <time>2020-10-31T10:04:31.495Z</time>
      </trkpt>
      <trkpt lat="46.86149" lon="6.58988">
        <ele>1215.14</ele>
        <time>2020-10-31T10:04:32.368Z</time>
      </trkpt>
      <trkpt lat="46.86142" lon="6.58982">
        <ele>1214.36</ele>
        <time>2020-10-31T10:04:34.044Z</time>
      </trkpt>
      <trkpt lat="46.8614" lon="6.58979">
        <ele>1214.03</ele>
        <time>2020-10-31T10:04:34.636Z</time>
      </trkpt>
      <trkpt lat="46.86138" lon="6.58976">
        <ele>1213.85</ele>
        <time>2020-10-31T10:04:35.194Z</time>
      </trkpt>
      <trkpt lat="46.86132" lon="6.58974">
        <ele>1212.86</ele>
        <time>2020-10-31T10:04:36.465Z</time>
      </trkpt>
      <trkpt lat="46.86126" lon="6.58969">
        <ele>1212.24</ele>
        <time>2020-10-31T10:04:37.892Z</time>
      </trkpt>
      <trkpt lat="46.8612" lon="6.58965">
        <ele>1211.62</ele>
        <time>2020-10-31T10:04:39.254Z</time>
      </trkpt>
      <trkpt lat="46.86115" lon="6.58961">
        <ele>1211.11</ele>
        <time>2020-10-31T10:04:40.431Z</time>
      </trkpt>
      <trkpt lat="46.8611" lon="6.58956">
        <ele>1210.74</ele>
        <time>2020-10-31T10:04:41.628Z</time>
      </trkpt>
      <trkpt lat="46.86106" lon="6.58951">
        <ele>1210.58</ele>
        <time>2020-10-31T10:04:43.001Z</time>
      </trkpt>
      <trkpt lat="46.86099" lon="6.5894">
        <ele>1210.16</ele>
        <time>2020-10-31T10:04:45.417Z</time>
      </trkpt>
      <trkpt lat="46.86091" lon="6.58931">
        <ele>1209.86</ele>
        <time>2020-10-31T10:04:48.070Z</time>
      </trkpt>
      <trkpt lat="46.86088" lon="6.58926">
        <ele>1209.67</ele>
        <time>2020-10-31T10:04:49.131Z</time>
      </trkpt>
      <trkpt lat="46.86084" lon="6.5892">
        <ele>1209.5</ele>
        <time>2020-10-31T10:04:50.638Z</time>
      </trkpt>
      <trkpt lat="46.86079" lon="6.58916">
        <ele>1209.27</ele>
        <time>2020-10-31T10:04:51.985Z</time>
      </trkpt>
      <trkpt lat="46.86074" lon="6.58909">
        <ele>1208.84</ele>
        <time>2020-10-31T10:04:53.341Z</time>
      </trkpt>
      <trkpt lat="46.8607" lon="6.58904">
        <ele>1208.57</ele>
        <time>2020-10-31T10:04:54.468Z</time>
      </trkpt>
      <trkpt lat="46.86068" lon="6.589">
        <ele>1208.32</ele>
        <time>2020-10-31T10:04:55.168Z</time>
      </trkpt>
      <trkpt lat="46.86065" lon="6.58894">
        <ele>1208.35</ele>
        <time>2020-10-31T10:04:59.924Z</time>
      </trkpt>
      <trkpt lat="46.86059" lon="6.58884">
        <ele>1207.53</ele>
        <time>2020-10-31T10:05:01.803Z</time>
      </trkpt>
      <trkpt lat="46.86055" lon="6.58875">
        <ele>1207.15</ele>
        <time>2020-10-31T10:05:03.369Z</time>
      </trkpt>
      <trkpt lat="46.86049" lon="6.58866">
        <ele>1206.53</ele>
        <time>2020-10-31T10:05:05.144Z</time>
      </trkpt>
      <trkpt lat="46.86042" lon="6.58854">
        <ele>1205.3</ele>
        <time>2020-10-31T10:05:07.372Z</time>
      </trkpt>
      <trkpt lat="46.8604" lon="6.58851">
        <ele>1204.92</ele>
        <time>2020-10-31T10:05:07.963Z</time>
      </trkpt>
      <trkpt lat="46.86036" lon="6.58849">
        <ele>1204.36</ele>
        <time>2020-10-31T10:05:08.837Z</time>
      </trkpt>
      <trkpt lat="46.86031" lon="6.58845">
        <ele>1203.68</ele>
        <time>2020-10-31T10:05:10.014Z</time>
      </trkpt>
      <trkpt lat="46.86025" lon="6.58839">
        <ele>1202.64</ele>
        <time>2020-10-31T10:05:11.515Z</time>
      </trkpt>
      <trkpt lat="46.86017" lon="6.58833">
        <ele>1201.73</ele>
        <time>2020-10-31T10:05:13.372Z</time>
      </trkpt>
      <trkpt lat="46.86014" lon="6.58828">
        <ele>1201.69</ele>
        <time>2020-10-31T10:05:14.905Z</time>
      </trkpt>
      <trkpt lat="46.86014" lon="6.58823">
        <ele>1201.8</ele>
        <time>2020-10-31T10:05:19.196Z</time>
      </trkpt>
      <trkpt lat="46.86013" lon="6.58817">
        <ele>1201.87</ele>
        <time>2020-10-31T10:05:23.604Z</time>
      </trkpt>
      <trkpt lat="46.8601" lon="6.5881">
        <ele>1201.76</ele>
        <time>2020-10-31T10:05:25.268Z</time>
      </trkpt>
      <trkpt lat="46.85999" lon="6.58797">
        <ele>1200.59</ele>
        <time>2020-10-31T10:05:28.189Z</time>
      </trkpt>
      <trkpt lat="46.85994" lon="6.58789">
        <ele>1200.01</ele>
        <time>2020-10-31T10:05:29.720Z</time>
      </trkpt>
      <trkpt lat="46.85991" lon="6.58781">
        <ele>1199.78</ele>
        <time>2020-10-31T10:05:31.245Z</time>
      </trkpt>
      <trkpt lat="46.85991" lon="6.58776">
        <ele>1199.95</ele>
        <time>2020-10-31T10:05:36.527Z</time>
      </trkpt>
      <trkpt lat="46.85988" lon="6.58764">
        <ele>1200.14</ele>
        <time>2020-10-31T10:05:46.185Z</time>
      </trkpt>
      <trkpt lat="46.85985" lon="6.58754">
        <ele>1200.22</ele>
        <time>2020-10-31T10:05:53.514Z</time>
      </trkpt>
      <trkpt lat="46.85981" lon="6.58743">
        <ele>1199.67</ele>
        <time>2020-10-31T10:05:55.152Z</time>
      </trkpt>
      <trkpt lat="46.85979" lon="6.58739">
        <ele>1199.51</ele>
        <time>2020-10-31T10:05:55.904Z</time>
      </trkpt>
      <trkpt lat="46.85961" lon="6.58689">
        <ele>1198.04</ele>
        <time>2020-10-31T10:06:05.241Z</time>
      </trkpt>
      <trkpt lat="46.85956" lon="6.58675">
        <ele>1197.85</ele>
        <time>2020-10-31T10:06:08.495Z</time>
      </trkpt>
      <trkpt lat="46.85952" lon="6.58664">
        <ele>1197.6</ele>
        <time>2020-10-31T10:06:10.743Z</time>
      </trkpt>
      <trkpt lat="46.85952" lon="6.58662">
        <ele>1197.37</ele>
        <time>2020-10-31T10:06:11.025Z</time>
      </trkpt>
      <trkpt lat="46.85952" lon="6.58661">
        <ele>1197.37</ele>
        <time>2020-10-31T10:06:11.631Z</time>
      </trkpt>
      <trkpt lat="46.85947" lon="6.58648">
        <ele>1197.14</ele>
        <time>2020-10-31T10:06:14.530Z</time>
      </trkpt>
      <trkpt lat="46.85943" lon="6.58635">
        <ele>1196.76</ele>
        <time>2020-10-31T10:06:16.864Z</time>
      </trkpt>
      <trkpt lat="46.85939" lon="6.58621">
        <ele>1196.47</ele>
        <time>2020-10-31T10:06:19.643Z</time>
      </trkpt>
      <trkpt lat="46.85933" lon="6.58605">
        <ele>1196.61</ele>
        <time>2020-10-31T10:06:31.954Z</time>
      </trkpt>
      <trkpt lat="46.85927" lon="6.58584">
        <ele>1196.96</ele>
        <time>2020-10-31T10:06:49.304Z</time>
      </trkpt>
      <trkpt lat="46.85919" lon="6.58557">
        <ele>1197.99</ele>
        <time>2020-10-31T10:07:20.693Z</time>
      </trkpt>
      <trkpt lat="46.85919" lon="6.58553">
        <ele>1198.28</ele>
        <time>2020-10-31T10:07:27.382Z</time>
      </trkpt>
      <trkpt lat="46.85913" lon="6.58531">
        <ele>1200.39</ele>
        <time>2020-10-31T10:08:20.271Z</time>
      </trkpt>
      <trkpt lat="46.8591" lon="6.58519">
        <ele>1201.26</ele>
        <time>2020-10-31T10:08:40.300Z</time>
      </trkpt>
      <trkpt lat="46.85907" lon="6.58507">
        <ele>1202.27</ele>
        <time>2020-10-31T10:09:04.019Z</time>
      </trkpt>
      <trkpt lat="46.85905" lon="6.58497">
        <ele>1203.24</ele>
        <time>2020-10-31T10:09:28.344Z</time>
      </trkpt>
      <trkpt lat="46.85903" lon="6.58482">
        <ele>1204.61</ele>
        <time>2020-10-31T10:10:02.860Z</time>
      </trkpt>
      <trkpt lat="46.85898" lon="6.58462">
        <ele>1206.25</ele>
        <time>2020-10-31T10:10:41.084Z</time>
      </trkpt>
      <trkpt lat="46.85895" lon="6.5845">
        <ele>1206.87</ele>
        <time>2020-10-31T10:10:56.760Z</time>
      </trkpt>
      <trkpt lat="46.85893" lon="6.58441">
        <ele>1207.43</ele>
        <time>2020-10-31T10:11:09.929Z</time>
      </trkpt>
      <trkpt lat="46.85888" lon="6.58426">
        <ele>1209.07</ele>
        <time>2020-10-31T10:11:48.890Z</time>
      </trkpt>
      <trkpt lat="46.85884" lon="6.58418">
        <ele>1209.73</ele>
        <time>2020-10-31T10:12:04.103Z</time>
      </trkpt>
      <trkpt lat="46.85869" lon="6.58395">
        <ele>1212.43</ele>
        <time>2020-10-31T10:13:09.599Z</time>
      </trkpt>
      <trkpt lat="46.85861" lon="6.58381">
        <ele>1214.22</ele>
        <time>2020-10-31T10:13:52.196Z</time>
      </trkpt>
      <trkpt lat="46.85854" lon="6.58358">
        <ele>1216.29</ele>
        <time>2020-10-31T10:14:41.564Z</time>
      </trkpt>
      <trkpt lat="46.85851" lon="6.58352">
        <ele>1217.03</ele>
        <time>2020-10-31T10:14:58.918Z</time>
      </trkpt>
      <trkpt lat="46.85849" lon="6.58345">
        <ele>1217.76</ele>
        <time>2020-10-31T10:15:16.631Z</time>
      </trkpt>
      <trkpt lat="46.85846" lon="6.58335">
        <ele>1218.89</ele>
        <time>2020-10-31T10:15:42.127Z</time>
      </trkpt>
      <trkpt lat="46.85845" lon="6.58322">
        <ele>1219.97</ele>
        <time>2020-10-31T10:16:07.932Z</time>
      </trkpt>
      <trkpt lat="46.85843" lon="6.58309">
        <ele>1221.11</ele>
        <time>2020-10-31T10:16:35.704Z</time>
      </trkpt>
      <trkpt lat="46.85841" lon="6.583">
        <ele>1221.85</ele>
        <time>2020-10-31T10:16:53.023Z</time>
      </trkpt>
      <trkpt lat="46.85839" lon="6.58288">
        <ele>1222.75</ele>
        <time>2020-10-31T10:17:13.793Z</time>
      </trkpt>
      <trkpt lat="46.85836" lon="6.58276">
        <ele>1223.57</ele>
        <time>2020-10-31T10:17:32.769Z</time>
      </trkpt>
      <trkpt lat="46.85835" lon="6.58272">
        <ele>1223.48</ele>
        <time>2020-10-31T10:17:33.525Z</time>
      </trkpt>
      <trkpt lat="46.85836" lon="6.58257">
        <ele>1225.34</ele>
        <time>2020-10-31T10:18:08.713Z</time>
      </trkpt>
      <trkpt lat="46.85835" lon="6.58246">
        <ele>1226.19</ele>
        <time>2020-10-31T10:18:28.497Z</time>
      </trkpt>
      <trkpt lat="46.85835" lon="6.58237">
        <ele>1227.16</ele>
        <time>2020-10-31T10:18:49.510Z</time>
      </trkpt>
      <trkpt lat="46.85834" lon="6.58233">
        <ele>1227.34</ele>
        <time>2020-10-31T10:18:54.396Z</time>
      </trkpt>
      <trkpt lat="46.85831" lon="6.58222">
        <ele>1227.69</ele>
        <time>2020-10-31T10:19:06.262Z</time>
      </trkpt>
      <trkpt lat="46.8583" lon="6.5821">
        <ele>1228.77</ele>
        <time>2020-10-31T10:19:33.395Z</time>
      </trkpt>
      <trkpt lat="46.8583" lon="6.58202">
        <ele>1229.03</ele>
        <time>2020-10-31T10:19:41.727Z</time>
      </trkpt>
      <trkpt lat="46.85829" lon="6.58196">
        <ele>1229.48</ele>
        <time>2020-10-31T10:19:52.112Z</time>
      </trkpt>
      <trkpt lat="46.85829" lon="6.5819">
        <ele>1229.78</ele>
        <time>2020-10-31T10:19:59.597Z</time>
      </trkpt>
      <trkpt lat="46.85831" lon="6.58186">
        <ele>1230.41</ele>
        <time>2020-10-31T10:20:11.166Z</time>
      </trkpt>
      <trkpt lat="46.85832" lon="6.58184">
        <ele>1230.9</ele>
        <time>2020-10-31T10:20:16.951Z</time>
      </trkpt>
      <trkpt lat="46.85839" lon="6.58176">
        <ele>1232.6</ele>
        <time>2020-10-31T10:20:47.284Z</time>
      </trkpt>
      <trkpt lat="46.85842" lon="6.5817">
        <ele>1233.92</ele>
        <time>2020-10-31T10:21:04.639Z</time>
      </trkpt>
      <trkpt lat="46.85847" lon="6.58156">
        <ele>1236.31</ele>
        <time>2020-10-31T10:21:41.515Z</time>
      </trkpt>
      <trkpt lat="46.85849" lon="6.58148">
        <ele>1237.34</ele>
        <time>2020-10-31T10:22:01.402Z</time>
      </trkpt>
      <trkpt lat="46.85851" lon="6.58142">
        <ele>1238.15</ele>
        <time>2020-10-31T10:22:16.987Z</time>
      </trkpt>
      <trkpt lat="46.85853" lon="6.58137">
        <ele>1238.93</ele>
        <time>2020-10-31T10:22:30.511Z</time>
      </trkpt>
      <trkpt lat="46.85857" lon="6.58126">
        <ele>1240.22</ele>
        <time>2020-10-31T10:22:59.599Z</time>
      </trkpt>
      <trkpt lat="46.85861" lon="6.58117">
        <ele>1241.64</ele>
        <time>2020-10-31T10:23:24.661Z</time>
      </trkpt>
      <trkpt lat="46.85866" lon="6.58106">
        <ele>1243.27</ele>
        <time>2020-10-31T10:23:55.500Z</time>
      </trkpt>
      <trkpt lat="46.85871" lon="6.58096">
        <ele>1245.03</ele>
        <time>2020-10-31T10:24:24.423Z</time>
      </trkpt>
      <trkpt lat="46.85877" lon="6.58084">
        <ele>1247.38</ele>
        <time>2020-10-31T10:24:59.131Z</time>
      </trkpt>
      <trkpt lat="46.85881" lon="6.58074">
        <ele>1249.47</ele>
        <time>2020-10-31T10:25:26.180Z</time>
      </trkpt>
      <trkpt lat="46.85882" lon="6.58064">
        <ele>1251.09</ele>
        <time>2020-10-31T10:25:49.776Z</time>
      </trkpt>
      <trkpt lat="46.85881" lon="6.58051">
        <ele>1251.92</ele>
        <time>2020-10-31T10:26:09.015Z</time>
      </trkpt>
      <trkpt lat="46.85878" lon="6.58043">
        <ele>1252.24</ele>
        <time>2020-10-31T10:26:18.755Z</time>
      </trkpt>
      <trkpt lat="46.85897" lon="6.58031">
        <ele>1257.85</ele>
        <time>2020-10-31T10:27:29.420Z</time>
      </trkpt>
      <trkpt lat="46.85902" lon="6.58023">
        <ele>1259.53</ele>
        <time>2020-10-31T10:27:54.724Z</time>
      </trkpt>
      <trkpt lat="46.85919" lon="6.57979">
        <ele>1265.83</ele>
        <time>2020-10-31T10:29:52.717Z</time>
      </trkpt>
      <trkpt lat="46.85931" lon="6.57954">
        <ele>1270.29</ele>
        <time>2020-10-31T10:31:04.031Z</time>
      </trkpt>
      <trkpt lat="46.85933" lon="6.57948">
        <ele>1274.18</ele>
        <time>2020-10-31T10:31:19.615Z</time>
      </trkpt>
      <trkpt lat="46.85933" lon="6.57948">
        <ele>1274.18</ele>
        <time>2020-10-31T10:31:19.615Z</time>
      </trkpt>
      <trkpt lat="46.85949" lon="6.57907">
        <ele>1278.07</ele>
        <time>2020-10-31T10:32:52.482Z</time>
      </trkpt>
      <trkpt lat="46.85952" lon="6.57887">
        <ele>1281.12</ele>
        <time>2020-10-31T10:33:40.287Z</time>
      </trkpt>
      <trkpt lat="46.85953" lon="6.57865">
        <ele>1284.78</ele>
        <time>2020-10-31T10:34:31.765Z</time>
      </trkpt>
      <trkpt lat="46.85953" lon="6.57852">
        <ele>1286.5</ele>
        <time>2020-10-31T10:35:02.116Z</time>
      </trkpt>
      <trkpt lat="46.85952" lon="6.5783">
        <ele>1290.26</ele>
        <time>2020-10-31T10:35:53.593Z</time>
      </trkpt>
      <trkpt lat="46.8595" lon="6.57807">
        <ele>1293.5</ele>
        <time>2020-10-31T10:36:47.725Z</time>
      </trkpt>
      <trkpt lat="46.85947" lon="6.5775">
        <ele>1301.74</ele>
        <time>2020-10-31T10:39:01.198Z</time>
      </trkpt>
      <trkpt lat="46.85945" lon="6.57722">
        <ele>1304.99</ele>
        <time>2020-10-31T10:40:06.926Z</time>
      </trkpt>
      <trkpt lat="46.85945" lon="6.57706">
        <ele>1306.03</ele>
        <time>2020-10-31T10:40:30.954Z</time>
      </trkpt>
      <trkpt lat="46.85946" lon="6.57689">
        <ele>1306.69</ele>
        <time>2020-10-31T10:40:49.825Z</time>
      </trkpt>
      <trkpt lat="46.85949" lon="6.57668">
        <ele>1308.57</ele>
        <time>2020-10-31T10:41:36.363Z</time>
      </trkpt>
      <trkpt lat="46.85953" lon="6.57655">
        <ele>1310.18</ele>
        <time>2020-10-31T10:42:09.646Z</time>
      </trkpt>
      <trkpt lat="46.85957" lon="6.57641">
        <ele>1311.85</ele>
        <time>2020-10-31T10:42:45.071Z</time>
      </trkpt>
      <trkpt lat="46.8596" lon="6.57627">
        <ele>1313.75</ele>
        <time>2020-10-31T10:43:19.324Z</time>
      </trkpt>
      <trkpt lat="46.85968" lon="6.5759">
        <ele>1317.5</ele>
        <time>2020-10-31T10:44:49.924Z</time>
      </trkpt>
      <trkpt lat="46.8597" lon="6.57578">
        <ele>1318.65</ele>
        <time>2020-10-31T10:45:18.761Z</time>
      </trkpt>
      <trkpt lat="46.85972" lon="6.57568">
        <ele>1319.28</ele>
        <time>2020-10-31T10:45:33.500Z</time>
      </trkpt>
      <trkpt lat="46.85974" lon="6.57561">
        <ele>1320.25</ele>
        <time>2020-10-31T10:45:51.212Z</time>
      </trkpt>
      <trkpt lat="46.85976" lon="6.57554">
        <ele>1321.8</ele>
        <time>2020-10-31T10:46:08.924Z</time>
      </trkpt>
      <trkpt lat="46.85978" lon="6.57548">
        <ele>1323.5</ele>
        <time>2020-10-31T10:46:24.509Z</time>
      </trkpt>
      <trkpt lat="46.85978" lon="6.5754">
        <ele>1324.75</ele>
        <time>2020-10-31T10:46:43.186Z</time>
      </trkpt>
      <trkpt lat="46.85979" lon="6.57532">
        <ele>1325.68</ele>
        <time>2020-10-31T10:47:02.173Z</time>
      </trkpt>
      <trkpt lat="46.8598" lon="6.57525">
        <ele>1326.79</ele>
        <time>2020-10-31T10:47:18.869Z</time>
      </trkpt>
      <trkpt lat="46.85983" lon="6.57514">
        <ele>1329.21</ele>
        <time>2020-10-31T10:47:46.519Z</time>
      </trkpt>
      <trkpt lat="46.85986" lon="6.57509">
        <ele>1330.45</ele>
        <time>2020-10-31T10:48:02.049Z</time>
      </trkpt>
      <trkpt lat="46.85989" lon="6.57502">
        <ele>1331.78</ele>
        <time>2020-10-31T10:48:21.337Z</time>
      </trkpt>
      <trkpt lat="46.86" lon="6.57488">
        <ele>1336.27</ele>
        <time>2020-10-31T10:49:11.126Z</time>
      </trkpt>
      <trkpt lat="46.86006" lon="6.57479">
        <ele>1338.12</ele>
        <time>2020-10-31T10:49:40.473Z</time>
      </trkpt>
      <trkpt lat="46.86011" lon="6.57474">
        <ele>1339.3</ele>
        <time>2020-10-31T10:50:01.154Z</time>
      </trkpt>
      <trkpt lat="46.8602" lon="6.57466">
        <ele>1341.02</ele>
        <time>2020-10-31T10:50:37.115Z</time>
      </trkpt>
      <trkpt lat="46.86023" lon="6.57462">
        <ele>1342.08</ele>
        <time>2020-10-31T10:50:50.976Z</time>
      </trkpt>
      <trkpt lat="46.86024" lon="6.5746">
        <ele>1342.61</ele>
        <time>2020-10-31T10:50:56.760Z</time>
      </trkpt>
      <trkpt lat="46.86027" lon="6.57457">
        <ele>1343.86</ele>
        <time>2020-10-31T10:51:09.169Z</time>
      </trkpt>
      <trkpt lat="46.86036" lon="6.5744">
        <ele>1348.67</ele>
        <time>2020-10-31T10:51:59.365Z</time>
      </trkpt>
      <trkpt lat="46.86041" lon="6.57433">
        <ele>1350.88</ele>
        <time>2020-10-31T10:52:22.998Z</time>
      </trkpt>
      <trkpt lat="46.86042" lon="6.57432">
        <ele>1351.22</ele>
        <time>2020-10-31T10:52:27.134Z</time>
      </trkpt>
      <trkpt lat="46.86044" lon="6.57416">
        <ele>1353.12</ele>
        <time>2020-10-31T10:53:05.108Z</time>
      </trkpt>
      <trkpt lat="46.86043" lon="6.57415">
        <ele>1353.18</ele>
        <time>2020-10-31T10:53:06.978Z</time>
      </trkpt>
      <trkpt lat="46.86042" lon="6.57412">
        <ele>1353.19</ele>
        <time>2020-10-31T10:53:09.082Z</time>
      </trkpt>
      <trkpt lat="46.86038" lon="6.57406">
        <ele>1353.14</ele>
        <time>2020-10-31T10:53:11.016Z</time>
      </trkpt>
      <trkpt lat="46.86035" lon="6.57399">
        <ele>1353.54</ele>
        <time>2020-10-31T10:53:21.140Z</time>
      </trkpt>
      <trkpt lat="46.86028" lon="6.57382">
        <ele>1354.73</ele>
        <time>2020-10-31T10:53:49.032Z</time>
      </trkpt>
      <trkpt lat="46.86027" lon="6.57378">
        <ele>1354.82</ele>
        <time>2020-10-31T10:53:52.628Z</time>
      </trkpt>
      <trkpt lat="46.86028" lon="6.57374">
        <ele>1355.2</ele>
        <time>2020-10-31T10:54:02.165Z</time>
      </trkpt>
      <trkpt lat="46.86032" lon="6.57368">
        <ele>1355.92</ele>
        <time>2020-10-31T10:54:19.752Z</time>
      </trkpt>
      <trkpt lat="46.86023" lon="6.57356">
        <ele>1355.53</ele>
        <time>2020-10-31T10:54:22.877Z</time>
      </trkpt>
      <trkpt lat="46.86028" lon="6.57349">
        <ele>1356.16</ele>
        <time>2020-10-31T10:54:37.529Z</time>
      </trkpt>
      <trkpt lat="46.86031" lon="6.57344">
        <ele>1356.39</ele>
        <time>2020-10-31T10:54:44.595Z</time>
      </trkpt>
      <trkpt lat="46.86033" lon="6.57339">
        <ele>1356.87</ele>
        <time>2020-10-31T10:54:56.085Z</time>
      </trkpt>
      <trkpt lat="46.86036" lon="6.57329">
        <ele>1357.84</ele>
        <time>2020-10-31T10:55:20.343Z</time>
      </trkpt>
      <trkpt lat="46.86037" lon="6.57324">
        <ele>1358.37</ele>
        <time>2020-10-31T10:55:32.506Z</time>
      </trkpt>
      <trkpt lat="46.86038" lon="6.57313">
        <ele>1359.29</ele>
        <time>2020-10-31T10:55:54.534Z</time>
      </trkpt>
      <trkpt lat="46.86038" lon="6.57291">
        <ele>1360.39</ele>
        <time>2020-10-31T10:56:21.976Z</time>
      </trkpt>
      <trkpt lat="46.86038" lon="6.57283">
        <ele>1360.96</ele>
        <time>2020-10-31T10:56:35.106Z</time>
      </trkpt>
      <trkpt lat="46.86036" lon="6.57273">
        <ele>1361.71</ele>
        <time>2020-10-31T10:56:52.394Z</time>
      </trkpt>
      <trkpt lat="46.86025" lon="6.57242">
        <ele>1364.69</ele>
        <time>2020-10-31T10:58:04.873Z</time>
      </trkpt>
      <trkpt lat="46.86015" lon="6.57216">
        <ele>1366.56</ele>
        <time>2020-10-31T10:58:48.306Z</time>
      </trkpt>
      <trkpt lat="46.86011" lon="6.57204">
        <ele>1367.75</ele>
        <time>2020-10-31T10:59:18.149Z</time>
      </trkpt>
      <trkpt lat="46.86008" lon="6.57178">
        <ele>1368.67</ele>
        <time>2020-10-31T10:59:46.245Z</time>
      </trkpt>
      <trkpt lat="46.86008" lon="6.57171">
        <ele>1368.71</ele>
        <time>2020-10-31T10:59:50.833Z</time>
      </trkpt>
      <trkpt lat="46.86008" lon="6.57165">
        <ele>1368.88</ele>
        <time>2020-10-31T10:59:56.686Z</time>
      </trkpt>
      <trkpt lat="46.86011" lon="6.57159">
        <ele>1369.25</ele>
        <time>2020-10-31T11:00:05.935Z</time>
      </trkpt>
      <trkpt lat="46.86015" lon="6.57155">
        <ele>1369.74</ele>
        <time>2020-10-31T11:00:17.213Z</time>
      </trkpt>
      <trkpt lat="46.86023" lon="6.57147">
        <ele>1370.82</ele>
        <time>2020-10-31T11:00:42.321Z</time>
      </trkpt>
      <trkpt lat="46.86028" lon="6.57144">
        <ele>1371.64</ele>
        <time>2020-10-31T11:01:00.774Z</time>
      </trkpt>
      <trkpt lat="46.8603" lon="6.57139">
        <ele>1372.14</ele>
        <time>2020-10-31T11:01:13.023Z</time>
      </trkpt>
      <trkpt lat="46.86032" lon="6.57134">
        <ele>1372.74</ele>
        <time>2020-10-31T11:01:26.547Z</time>
      </trkpt>
      <trkpt lat="46.86033" lon="6.57127">
        <ele>1373.66</ele>
        <time>2020-10-31T11:01:43.243Z</time>
      </trkpt>
      <trkpt lat="46.86033" lon="6.57121">
        <ele>1374.31</ele>
        <time>2020-10-31T11:01:57.251Z</time>
      </trkpt>
      <trkpt lat="46.86033" lon="6.57111">
        <ele>1375.19</ele>
        <time>2020-10-31T11:02:19.102Z</time>
      </trkpt>
      <trkpt lat="46.86032" lon="6.57104">
        <ele>1376.03</ele>
        <time>2020-10-31T11:02:35.798Z</time>
      </trkpt>
      <trkpt lat="46.86031" lon="6.57098">
        <ele>1376.53</ele>
        <time>2020-10-31T11:02:47.643Z</time>
      </trkpt>
      <trkpt lat="46.86031" lon="6.57097">
        <ele>1376.53</ele>
        <time>2020-10-31T11:02:48.248Z</time>
      </trkpt>
      <trkpt lat="46.8603" lon="6.57094">
        <ele>1377.03</ele>
        <time>2020-10-31T11:02:56.040Z</time>
      </trkpt>
      <trkpt lat="46.8603" lon="6.57081">
        <ele>1378.66</ele>
        <time>2020-10-31T11:03:26.391Z</time>
      </trkpt>
      <trkpt lat="46.86031" lon="6.57064">
        <ele>1380.84</ele>
        <time>2020-10-31T11:04:06.228Z</time>
      </trkpt>
      <trkpt lat="46.86032" lon="6.57058">
        <ele>1381.59</ele>
        <time>2020-10-31T11:04:20.646Z</time>
      </trkpt>
      <trkpt lat="46.86034" lon="6.57049">
        <ele>1383.11</ele>
        <time>2020-10-31T11:04:42.740Z</time>
      </trkpt>
      <trkpt lat="46.86036" lon="6.5704">
        <ele>1384.35</ele>
        <time>2020-10-31T11:05:04.834Z</time>
      </trkpt>
      <trkpt lat="46.86037" lon="6.57036">
        <ele>1384.77</ele>
        <time>2020-10-31T11:05:14.777Z</time>
      </trkpt>
      <trkpt lat="46.86039" lon="6.57027">
        <ele>1385.8</ele>
        <time>2020-10-31T11:05:36.871Z</time>
      </trkpt>
      <trkpt lat="46.86041" lon="6.57018">
        <ele>1386.78</ele>
        <time>2020-10-31T11:05:58.965Z</time>
      </trkpt>
      <trkpt lat="46.86042" lon="6.57007">
        <ele>1387.84</ele>
        <time>2020-10-31T11:06:24.873Z</time>
      </trkpt>
      <trkpt lat="46.86043" lon="6.56996">
        <ele>1388.88</ele>
        <time>2020-10-31T11:06:50.780Z</time>
      </trkpt>
      <trkpt lat="46.86046" lon="6.56984">
        <ele>1390.14</ele>
        <time>2020-10-31T11:07:20.610Z</time>
      </trkpt>
      <trkpt lat="46.86048" lon="6.56978">
        <ele>1391.03</ele>
        <time>2020-10-31T11:07:36.194Z</time>
      </trkpt>
      <trkpt lat="46.86052" lon="6.56971">
        <ele>1392.13</ele>
        <time>2020-10-31T11:07:57.493Z</time>
      </trkpt>
      <trkpt lat="46.86057" lon="6.56961">
        <ele>1393.88</ele>
        <time>2020-10-31T11:08:26.415Z</time>
      </trkpt>
      <trkpt lat="46.86061" lon="6.56952">
        <ele>1395.01</ele>
        <time>2020-10-31T11:08:51.476Z</time>
      </trkpt>
      <trkpt lat="46.86064" lon="6.56939">
        <ele>1396.73</ele>
        <time>2020-10-31T11:09:23.509Z</time>
      </trkpt>
      <trkpt lat="46.86067" lon="6.56922">
        <ele>1398.94</ele>
        <time>2020-10-31T11:10:04.499Z</time>
      </trkpt>
      <trkpt lat="46.86069" lon="6.56912">
        <ele>1400.16</ele>
        <time>2020-10-31T11:10:28.824Z</time>
      </trkpt>
      <trkpt lat="46.8608" lon="6.56877">
        <ele>1404.92</ele>
        <time>2020-10-31T11:11:58.755Z</time>
      </trkpt>
      <trkpt lat="46.86083" lon="6.56871">
        <ele>1405.76</ele>
        <time>2020-10-31T11:12:16.109Z</time>
      </trkpt>
      <trkpt lat="46.86087" lon="6.56864">
        <ele>1407.26</ele>
        <time>2020-10-31T11:12:37.407Z</time>
      </trkpt>
      <trkpt lat="46.86098" lon="6.5685">
        <ele>1410.1</ele>
        <time>2020-10-31T11:13:27.196Z</time>
      </trkpt>
      <trkpt lat="46.86107" lon="6.56839">
        <ele>1412.4</ele>
        <time>2020-10-31T11:14:07.244Z</time>
      </trkpt>
      <trkpt lat="46.86113" lon="6.5683">
        <ele>1413.87</ele>
        <time>2020-10-31T11:14:36.590Z</time>
      </trkpt>
      <trkpt lat="46.86116" lon="6.56821">
        <ele>1414.63</ele>
        <time>2020-10-31T11:14:54.244Z</time>
      </trkpt>
      <trkpt lat="46.86117" lon="6.56815">
        <ele>1414.97</ele>
        <time>2020-10-31T11:15:02.414Z</time>
      </trkpt>
      <trkpt lat="46.86118" lon="6.56809">
        <ele>1415.21</ele>
        <time>2020-10-31T11:15:09.257Z</time>
      </trkpt>
      <trkpt lat="46.86119" lon="6.56794">
        <ele>1415.38</ele>
        <time>2020-10-31T11:15:20.003Z</time>
      </trkpt>
      <trkpt lat="46.86118" lon="6.56777">
        <ele>1415.49</ele>
        <time>2020-10-31T11:15:31.307Z</time>
      </trkpt>
      <trkpt lat="46.86118" lon="6.56751">
        <ele>1415.33</ele>
        <time>2020-10-31T11:15:37.283Z</time>
      </trkpt>
      <trkpt lat="46.86119" lon="6.56728">
        <ele>1415.08</ele>
        <time>2020-10-31T11:15:42.132Z</time>
      </trkpt>
      <trkpt lat="46.8612" lon="6.56718">
        <ele>1415.11</ele>
        <time>2020-10-31T11:15:48.502Z</time>
      </trkpt>
      <trkpt lat="46.86122" lon="6.56707">
        <ele>1415.23</ele>
        <time>2020-10-31T11:15:56.525Z</time>
      </trkpt>
      <trkpt lat="46.86123" lon="6.56699">
        <ele>1415.47</ele>
        <time>2020-10-31T11:16:04.665Z</time>
      </trkpt>
      <trkpt lat="46.86124" lon="6.56695">
        <ele>1415.54</ele>
        <time>2020-10-31T11:16:07.971Z</time>
      </trkpt>
      <trkpt lat="46.86124" lon="6.56695">
        <ele>1415.54</ele>
        <time>2020-10-31T11:16:07.971Z</time>
      </trkpt>
      <trkpt lat="46.86124" lon="6.56692">
        <ele>1415.6</ele>
        <time>2020-10-31T11:16:10.451Z</time>
      </trkpt>
      <trkpt lat="46.86124" lon="6.56661">
        <ele>1416.34</ele>
        <time>2020-10-31T11:16:38.036Z</time>
      </trkpt>
      <trkpt lat="46.86124" lon="6.56646">
        <ele>1416.52</ele>
        <time>2020-10-31T11:16:48.854Z</time>
      </trkpt>
      <trkpt lat="46.86125" lon="6.56633">
        <ele>1416.68</ele>
        <time>2020-10-31T11:16:58.324Z</time>
      </trkpt>
      <trkpt lat="46.86125" lon="6.56619">
        <ele>1416.8</ele>
        <time>2020-10-31T11:17:07.897Z</time>
      </trkpt>
      <trkpt lat="46.86126" lon="6.56603">
        <ele>1417.03</ele>
        <time>2020-10-31T11:17:19.929Z</time>
      </trkpt>
      <trkpt lat="46.86126" lon="6.56579">
        <ele>1416.94</ele>
        <time>2020-10-31T11:17:33.330Z</time>
      </trkpt>
      <trkpt lat="46.86125" lon="6.56568">
        <ele>1416.89</ele>
        <time>2020-10-31T11:17:39.431Z</time>
      </trkpt>
      <trkpt lat="46.86124" lon="6.56562">
        <ele>1416.71</ele>
        <time>2020-10-31T11:17:40.408Z</time>
      </trkpt>
      <trkpt lat="46.86122" lon="6.56558">
        <ele>1416.68</ele>
        <time>2020-10-31T11:17:41.549Z</time>
      </trkpt>
      <trkpt lat="46.86119" lon="6.56552">
        <ele>1416.71</ele>
        <time>2020-10-31T11:17:46.305Z</time>
      </trkpt>
      <trkpt lat="46.86116" lon="6.56542">
        <ele>1416.81</ele>
        <time>2020-10-31T11:17:53.839Z</time>
      </trkpt>
      <trkpt lat="46.86115" lon="6.56534">
        <ele>1416.93</ele>
        <time>2020-10-31T11:17:59.974Z</time>
      </trkpt>
      <trkpt lat="46.86114" lon="6.56528">
        <ele>1417.03</ele>
        <time>2020-10-31T11:18:04.748Z</time>
      </trkpt>
      <trkpt lat="46.86115" lon="6.56521">
        <ele>1417.12</ele>
        <time>2020-10-31T11:18:09.954Z</time>
      </trkpt>
      <trkpt lat="46.86117" lon="6.5651">
        <ele>1417.25</ele>
        <time>2020-10-31T11:18:18.088Z</time>
      </trkpt>
      <trkpt lat="46.86118" lon="6.56503">
        <ele>1417.33</ele>
        <time>2020-10-31T11:18:23.180Z</time>
      </trkpt>
      <trkpt lat="46.86117" lon="6.56496">
        <ele>1417.39</ele>
        <time>2020-10-31T11:18:28.056Z</time>
      </trkpt>
      <trkpt lat="46.86113" lon="6.56468">
        <ele>1417.83</ele>
        <time>2020-10-31T11:18:49.863Z</time>
      </trkpt>
      <trkpt lat="46.8611" lon="6.56439">
        <ele>1417.77</ele>
        <time>2020-10-31T11:19:06.838Z</time>
      </trkpt>
      <trkpt lat="46.86108" lon="6.56418">
        <ele>1417.6</ele>
        <time>2020-10-31T11:19:11.539Z</time>
      </trkpt>
      <trkpt lat="46.86106" lon="6.56394">
        <ele>1417.59</ele>
        <time>2020-10-31T11:19:26.039Z</time>
      </trkpt>
      <trkpt lat="46.86103" lon="6.56377">
        <ele>1418.04</ele>
        <time>2020-10-31T11:19:42.223Z</time>
      </trkpt>
      <trkpt lat="46.861" lon="6.56359">
        <ele>1418.41</ele>
        <time>2020-10-31T11:19:57.532Z</time>
      </trkpt>
      <trkpt lat="46.86098" lon="6.56331">
        <ele>1419.82</ele>
        <time>2020-10-31T11:20:32.682Z</time>
      </trkpt>
      <trkpt lat="46.86095" lon="6.56317">
        <ele>1420.17</ele>
        <time>2020-10-31T11:20:45.733Z</time>
      </trkpt>
      <trkpt lat="46.86093" lon="6.56308">
        <ele>1420.42</ele>
        <time>2020-10-31T11:20:54.599Z</time>
      </trkpt>
      <trkpt lat="46.86089" lon="6.56296">
        <ele>1420.95</ele>
        <time>2020-10-31T11:21:09.516Z</time>
      </trkpt>
      <trkpt lat="46.86083" lon="6.5628">
        <ele>1421.73</ele>
        <time>2020-10-31T11:21:30.554Z</time>
      </trkpt>
      <trkpt lat="46.86081" lon="6.56267">
        <ele>1422.52</ele>
        <time>2020-10-31T11:21:49.123Z</time>
      </trkpt>
      <trkpt lat="46.86078" lon="6.56255">
        <ele>1423.02</ele>
        <time>2020-10-31T11:22:03.318Z</time>
      </trkpt>
      <trkpt lat="46.86076" lon="6.56238">
        <ele>1423.69</ele>
        <time>2020-10-31T11:22:22.426Z</time>
      </trkpt>
      <trkpt lat="46.86075" lon="6.56223">
        <ele>1424.38</ele>
        <time>2020-10-31T11:22:40.371Z</time>
      </trkpt>
      <trkpt lat="46.86074" lon="6.56206">
        <ele>1424.98</ele>
        <time>2020-10-31T11:22:58.600Z</time>
      </trkpt>
      <trkpt lat="46.86073" lon="6.562">
        <ele>1425.19</ele>
        <time>2020-10-31T11:23:05.125Z</time>
      </trkpt>
      <trkpt lat="46.86071" lon="6.56177">
        <ele>1426.56</ele>
        <time>2020-10-31T11:23:37.354Z</time>
      </trkpt>
      <trkpt lat="46.86067" lon="6.56177">
        <ele>1426.75</ele>
        <time>2020-10-31T11:23:43.445Z</time>
      </trkpt>
      <trkpt lat="46.86064" lon="6.5617">
        <ele>1427.1</ele>
        <time>2020-10-31T11:23:52.932Z</time>
      </trkpt>
      <trkpt lat="46.86063" lon="6.56164">
        <ele>1427.03</ele>
        <time>2020-10-31T11:23:54.220Z</time>
      </trkpt>
      <trkpt lat="46.86062" lon="6.56138">
        <ele>1427.95</ele>
        <time>2020-10-31T11:24:22.086Z</time>
      </trkpt>
      <trkpt lat="46.8606" lon="6.56124">
        <ele>1428.09</ele>
        <time>2020-10-31T11:24:32.049Z</time>
      </trkpt>
      <trkpt lat="46.86059" lon="6.56116">
        <ele>1428.26</ele>
        <time>2020-10-31T11:24:38.886Z</time>
      </trkpt>
      <trkpt lat="46.86056" lon="6.56094">
        <ele>1428.62</ele>
        <time>2020-10-31T11:24:56.183Z</time>
      </trkpt>
      <trkpt lat="46.8604" lon="6.56012">
        <ele>1434.33</ele>
        <time>2020-10-31T11:27:07.752Z</time>
      </trkpt>
      <trkpt lat="46.86038" lon="6.56001">
        <ele>1435.28</ele>
        <time>2020-10-31T11:27:30.575Z</time>
      </trkpt>
      <trkpt lat="46.86037" lon="6.55991">
        <ele>1436.23</ele>
        <time>2020-10-31T11:27:54.170Z</time>
      </trkpt>
      <trkpt lat="46.86036" lon="6.55971">
        <ele>1437.5</ele>
        <time>2020-10-31T11:28:23.617Z</time>
      </trkpt>
      <trkpt lat="46.86034" lon="6.55941">
        <ele>1438.2</ele>
        <time>2020-10-31T11:28:50.101Z</time>
      </trkpt>
      <trkpt lat="46.86032" lon="6.55915">
        <ele>1438.52</ele>
        <time>2020-10-31T11:29:09.041Z</time>
      </trkpt>
      <trkpt lat="46.86029" lon="6.55892">
        <ele>1439.48</ele>
        <time>2020-10-31T11:29:35.553Z</time>
      </trkpt>
      <trkpt lat="46.86021" lon="6.55853">
        <ele>1441.97</ele>
        <time>2020-10-31T11:30:33.661Z</time>
      </trkpt>
      <trkpt lat="46.86014" lon="6.55823">
        <ele>1444.33</ele>
        <time>2020-10-31T11:31:28.284Z</time>
      </trkpt>
      <trkpt lat="46.86008" lon="6.55793">
        <ele>1446.5</ele>
        <time>2020-10-31T11:32:18.229Z</time>
      </trkpt>
      <trkpt lat="46.86004" lon="6.5577">
        <ele>1448.34</ele>
        <time>2020-10-31T11:33:01.189Z</time>
      </trkpt>
      <trkpt lat="46.86002" lon="6.55751">
        <ele>1449.76</ele>
        <time>2020-10-31T11:33:34.016Z</time>
      </trkpt>
      <trkpt lat="46.86001" lon="6.55747">
        <ele>1450.1</ele>
        <time>2020-10-31T11:33:42.028Z</time>
      </trkpt>
      <trkpt lat="46.85999" lon="6.55728">
        <ele>1451.25</ele>
        <time>2020-10-31T11:34:08.998Z</time>
      </trkpt>
      <trkpt lat="46.85995" lon="6.55696">
        <ele>1453.55</ele>
        <time>2020-10-31T11:35:01.958Z</time>
      </trkpt>
      <trkpt lat="46.85991" lon="6.55653">
        <ele>1456.52</ele>
        <time>2020-10-31T11:36:10.326Z</time>
      </trkpt>
      <trkpt lat="46.85988" lon="6.55633">
        <ele>1458.13</ele>
        <time>2020-10-31T11:36:48.070Z</time>
      </trkpt>
      <trkpt lat="46.85985" lon="6.55618">
        <ele>1459.52</ele>
        <time>2020-10-31T11:37:22.866Z</time>
      </trkpt>
      <trkpt lat="46.85981" lon="6.55605">
        <ele>1460.62</ele>
        <time>2020-10-31T11:37:48.517Z</time>
      </trkpt>
      <trkpt lat="46.85962" lon="6.5554">
        <ele>1467.48</ele>
        <time>2020-10-31T11:40:33.558Z</time>
      </trkpt>
      <trkpt lat="46.85949" lon="6.55502">
        <ele>1471.83</ele>
        <time>2020-10-31T11:42:12.762Z</time>
      </trkpt>
      <trkpt lat="46.85943" lon="6.55483">
        <ele>1474.01</ele>
        <time>2020-10-31T11:43:01.624Z</time>
      </trkpt>
      <trkpt lat="46.85939" lon="6.55468">
        <ele>1475.74</ele>
        <time>2020-10-31T11:43:39.213Z</time>
      </trkpt>
      <trkpt lat="46.85936" lon="6.55453">
        <ele>1477.13</ele>
        <time>2020-10-31T11:44:14.010Z</time>
      </trkpt>
      <trkpt lat="46.85935" lon="6.55441">
        <ele>1477.78</ele>
        <time>2020-10-31T11:44:29.759Z</time>
      </trkpt>
      <trkpt lat="46.85934" lon="6.55425">
        <ele>1478.15</ele>
        <time>2020-10-31T11:44:43.823Z</time>
      </trkpt>
      <trkpt lat="46.85932" lon="6.55407">
        <ele>1478.57</ele>
        <time>2020-10-31T11:44:59.786Z</time>
      </trkpt>
      <trkpt lat="46.8593" lon="6.55398">
        <ele>1478.68</ele>
        <time>2020-10-31T11:45:06.571Z</time>
      </trkpt>
      <trkpt lat="46.85929" lon="6.55389">
        <ele>1478.85</ele>
        <time>2020-10-31T11:45:13.927Z</time>
      </trkpt>
      <trkpt lat="46.85927" lon="6.55382">
        <ele>1479.15</ele>
        <time>2020-10-31T11:45:22.391Z</time>
      </trkpt>
      <trkpt lat="46.85925" lon="6.55376">
        <ele>1479.29</ele>
        <time>2020-10-31T11:45:28.010Z</time>
      </trkpt>
      <trkpt lat="46.85924" lon="6.55376">
        <ele>1479.29</ele>
        <time>2020-10-31T11:45:28.895Z</time>
      </trkpt>
      <trkpt lat="46.85924" lon="6.55375">
        <ele>1479.43</ele>
        <time>2020-10-31T11:45:31.230Z</time>
      </trkpt>
      <trkpt lat="46.85921" lon="6.55366">
        <ele>1479.75</ele>
        <time>2020-10-31T11:45:41.605Z</time>
      </trkpt>
      <trkpt lat="46.85914" lon="6.5535">
        <ele>1480.11</ele>
        <time>2020-10-31T11:45:57.015Z</time>
      </trkpt>
      <trkpt lat="46.85908" lon="6.55336">
        <ele>1481.73</ele>
        <time>2020-10-31T11:46:35.591Z</time>
      </trkpt>
      <trkpt lat="46.85892" lon="6.55304">
        <ele>1483.8</ele>
        <time>2020-10-31T11:47:26.310Z</time>
      </trkpt>
      <trkpt lat="46.85887" lon="6.55293">
        <ele>1484.75</ele>
        <time>2020-10-31T11:47:48.207Z</time>
      </trkpt>
      <trkpt lat="46.85885" lon="6.55288">
        <ele>1484.88</ele>
        <time>2020-10-31T11:47:53.220Z</time>
      </trkpt>
      <trkpt lat="46.85884" lon="6.55283">
        <ele>1485.15</ele>
        <time>2020-10-31T11:47:59.856Z</time>
      </trkpt>
      <trkpt lat="46.85884" lon="6.55276">
        <ele>1485.39</ele>
        <time>2020-10-31T11:48:07.271Z</time>
      </trkpt>
      <trkpt lat="46.85885" lon="6.55271">
        <ele>1485.51</ele>
        <time>2020-10-31T11:48:11.832Z</time>
      </trkpt>
      <trkpt lat="46.85887" lon="6.55267">
        <ele>1485.8</ele>
        <time>2020-10-31T11:48:18.671Z</time>
      </trkpt>
      <trkpt lat="46.85886" lon="6.55263">
        <ele>1485.79</ele>
        <time>2020-10-31T11:48:21.120Z</time>
      </trkpt>
      <trkpt lat="46.85884" lon="6.5526">
        <ele>1486.39</ele>
        <time>2020-10-31T11:48:30.903Z</time>
      </trkpt>
      <trkpt lat="46.85878" lon="6.55256">
        <ele>1487.14</ele>
        <time>2020-10-31T11:48:48.428Z</time>
      </trkpt>
      <trkpt lat="46.8586" lon="6.5523">
        <ele>1490.29</ele>
        <time>2020-10-31T11:50:04.940Z</time>
      </trkpt>
      <trkpt lat="46.85852" lon="6.5522">
        <ele>1491.34</ele>
        <time>2020-10-31T11:50:29.112Z</time>
      </trkpt>
      <trkpt lat="46.85846" lon="6.55216">
        <ele>1491.78</ele>
        <time>2020-10-31T11:50:40.575Z</time>
      </trkpt>
      <trkpt lat="46.85839" lon="6.55214">
        <ele>1492.83</ele>
        <time>2020-10-31T11:51:04.928Z</time>
      </trkpt>
      <trkpt lat="46.85833" lon="6.5521">
        <ele>1494.03</ele>
        <time>2020-10-31T11:51:27.442Z</time>
      </trkpt>
      <trkpt lat="46.85822" lon="6.55203">
        <ele>1495.53</ele>
        <time>2020-10-31T11:52:03.970Z</time>
      </trkpt>
      <trkpt lat="46.85814" lon="6.55195">
        <ele>1496.28</ele>
        <time>2020-10-31T11:52:22.252Z</time>
      </trkpt>
      <trkpt lat="46.85807" lon="6.55186">
        <ele>1497.03</ele>
        <time>2020-10-31T11:52:40.277Z</time>
      </trkpt>
      <trkpt lat="46.85804" lon="6.5518">
        <ele>1498.08</ele>
        <time>2020-10-31T11:52:57.631Z</time>
      </trkpt>
      <trkpt lat="46.85794" lon="6.55165">
        <ele>1498.83</ele>
        <time>2020-10-31T11:53:20.152Z</time>
      </trkpt>
      <trkpt lat="46.85786" lon="6.55153">
        <ele>1499.88</ele>
        <time>2020-10-31T11:53:44.541Z</time>
      </trkpt>
      <trkpt lat="46.85781" lon="6.55143">
        <ele>1501.68</ele>
        <time>2020-10-31T11:54:13.465Z</time>
      </trkpt>
      <trkpt lat="46.85782" lon="6.55135">
        <ele>1502.42</ele>
        <time>2020-10-31T11:54:32.353Z</time>
      </trkpt>
      <trkpt lat="46.85782" lon="6.55131">
        <ele>1503.17</ele>
        <time>2020-10-31T11:54:41.692Z</time>
      </trkpt>
      <trkpt lat="46.85781" lon="6.55127">
        <ele>1504.22</ele>
        <time>2020-10-31T11:54:51.636Z</time>
      </trkpt>
      <trkpt lat="46.85779" lon="6.55125">
        <ele>1505.27</ele>
        <time>2020-10-31T11:54:59.908Z</time>
      </trkpt>
      <trkpt lat="46.8577" lon="6.55125">
        <ele>1508.87</ele>
        <time>2020-10-31T11:55:30.638Z</time>
      </trkpt>
      <trkpt lat="46.85768" lon="6.55122">
        <ele>1509.62</ele>
        <time>2020-10-31T11:55:40.420Z</time>
      </trkpt>
      <trkpt lat="46.85767" lon="6.55116">
        <ele>1510.82</ele>
        <time>2020-10-31T11:55:54.839Z</time>
      </trkpt>
      <trkpt lat="46.85767" lon="6.55113">
        <ele>1511.87</ele>
        <time>2020-10-31T11:56:01.844Z</time>
      </trkpt>
      <trkpt lat="46.85765" lon="6.5511">
        <ele>1512.77</ele>
        <time>2020-10-31T11:56:11.626Z</time>
      </trkpt>
      <trkpt lat="46.85761" lon="6.55106">
        <ele>1514.11</ele>
        <time>2020-10-31T11:56:28.171Z</time>
      </trkpt>
      <trkpt lat="46.85757" lon="6.55102">
        <ele>1515.31</ele>
        <time>2020-10-31T11:56:44.717Z</time>
      </trkpt>
      <trkpt lat="46.85752" lon="6.55096">
        <ele>1516.36</ele>
        <time>2020-10-31T11:57:06.801Z</time>
      </trkpt>
      <trkpt lat="46.85747" lon="6.55089">
        <ele>1517.86</ele>
        <time>2020-10-31T11:57:30.435Z</time>
      </trkpt>
      <trkpt lat="46.85743" lon="6.55084">
        <ele>1518.61</ele>
        <time>2020-10-31T11:57:48.402Z</time>
      </trkpt>
      <trkpt lat="46.85735" lon="6.55077">
        <ele>1521.01</ele>
        <time>2020-10-31T11:58:20.233Z</time>
      </trkpt>
      <trkpt lat="46.85728" lon="6.55069">
        <ele>1522.95</ele>
        <time>2020-10-31T11:58:50.567Z</time>
      </trkpt>
      <trkpt lat="46.85715" lon="6.55055">
        <ele>1525.35</ele>
        <time>2020-10-31T11:59:45.691Z</time>
      </trkpt>
      <trkpt lat="46.85708" lon="6.55044">
        <ele>1526.55</ele>
        <time>2020-10-31T12:00:13.970Z</time>
      </trkpt>
      <trkpt lat="46.85699" lon="6.55036">
        <ele>1528.35</ele>
        <time>2020-10-31T12:00:49.931Z</time>
      </trkpt>
      <trkpt lat="46.85692" lon="6.55028">
        <ele>1529.85</ele>
        <time>2020-10-31T12:01:20.265Z</time>
      </trkpt>
      <trkpt lat="46.85687" lon="6.5502">
        <ele>1531.75</ele>
        <time>2020-10-31T12:01:45.570Z</time>
      </trkpt>
      <trkpt lat="46.85677" lon="6.55002">
        <ele>1535.99</ele>
        <time>2020-10-31T12:02:39.719Z</time>
      </trkpt>
      <trkpt lat="46.85667" lon="6.54986">
        <ele>1537.64</ele>
        <time>2020-10-31T12:03:18.070Z</time>
      </trkpt>
      <trkpt lat="46.85662" lon="6.54977">
        <ele>1537.79</ele>
        <time>2020-10-31T12:03:26.560Z</time>
      </trkpt>
      <trkpt lat="46.85655" lon="6.54968">
        <ele>1537.81</ele>
        <time>2020-10-31T12:03:34.976Z</time>
      </trkpt>
      <trkpt lat="46.85652" lon="6.54963">
        <ele>1537.77</ele>
        <time>2020-10-31T12:03:36.510Z</time>
      </trkpt>
      <trkpt lat="46.85647" lon="6.54956">
        <ele>1537.28</ele>
        <time>2020-10-31T12:03:37.939Z</time>
      </trkpt>
      <trkpt lat="46.85646" lon="6.54949">
        <ele>1537.11</ele>
        <time>2020-10-31T12:03:39.160Z</time>
      </trkpt>
      <trkpt lat="46.85646" lon="6.54942">
        <ele>1536.82</ele>
        <time>2020-10-31T12:03:40.109Z</time>
      </trkpt>
      <trkpt lat="46.85645" lon="6.54933">
        <ele>1536.16</ele>
        <time>2020-10-31T12:03:41.397Z</time>
      </trkpt>
      <trkpt lat="46.85643" lon="6.54928">
        <ele>1535.72</ele>
        <time>2020-10-31T12:03:42.215Z</time>
      </trkpt>
      <trkpt lat="46.85635" lon="6.54898">
        <ele>1534.41</ele>
        <time>2020-10-31T12:03:46.622Z</time>
      </trkpt>
      <trkpt lat="46.8563" lon="6.54875">
        <ele>1533.72</ele>
        <time>2020-10-31T12:03:50.469Z</time>
      </trkpt>
      <trkpt lat="46.85625" lon="6.5486">
        <ele>1533.42</ele>
        <time>2020-10-31T12:03:53.581Z</time>
      </trkpt>
      <trkpt lat="46.85619" lon="6.5483">
        <ele>1533.45</ele>
        <time>2020-10-31T12:04:12.748Z</time>
      </trkpt>
      <trkpt lat="46.85617" lon="6.54822">
        <ele>1534.14</ele>
        <time>2020-10-31T12:04:29.098Z</time>
      </trkpt>
      <trkpt lat="46.85616" lon="6.54816">
        <ele>1534.24</ele>
        <time>2020-10-31T12:04:33.871Z</time>
      </trkpt>
      <trkpt lat="46.85616" lon="6.5481">
        <ele>1534.63</ele>
        <time>2020-10-31T12:04:42.882Z</time>
      </trkpt>
      <trkpt lat="46.85617" lon="6.548">
        <ele>1535.22</ele>
        <time>2020-10-31T12:04:56.806Z</time>
      </trkpt>
      <trkpt lat="46.85619" lon="6.54792">
        <ele>1535.62</ele>
        <time>2020-10-31T12:05:07.079Z</time>
      </trkpt>
      <trkpt lat="46.85621" lon="6.54786">
        <ele>1536.11</ele>
        <time>2020-10-31T12:05:18.397Z</time>
      </trkpt>
      <trkpt lat="46.85622" lon="6.54779">
        <ele>1536.31</ele>
        <time>2020-10-31T12:05:25.319Z</time>
      </trkpt>
      <trkpt lat="46.85619" lon="6.54771">
        <ele>1536.6</ele>
        <time>2020-10-31T12:05:34.759Z</time>
      </trkpt>
      <trkpt lat="46.85611" lon="6.54758">
        <ele>1537.2</ele>
        <time>2020-10-31T12:05:53.291Z</time>
      </trkpt>
      <trkpt lat="46.85603" lon="6.54738">
        <ele>1537.89</ele>
        <time>2020-10-31T12:06:16.624Z</time>
      </trkpt>
      <trkpt lat="46.856" lon="6.54734">
        <ele>1538.18</ele>
        <time>2020-10-31T12:06:23.934Z</time>
      </trkpt>
      <trkpt lat="46.85598" lon="6.54734">
        <ele>1538.38</ele>
        <time>2020-10-31T12:06:28.538Z</time>
      </trkpt>
      <trkpt lat="46.85594" lon="6.54723">
        <ele>1538.97</ele>
        <time>2020-10-31T12:06:43.629Z</time>
      </trkpt>
      <trkpt lat="46.85593" lon="6.54723">
        <ele>1539.12</ele>
        <time>2020-10-31T12:06:47.043Z</time>
      </trkpt>
      <trkpt lat="46.85591" lon="6.5472">
        <ele>1539.27</ele>
        <time>2020-10-31T12:06:51.547Z</time>
      </trkpt>
      <trkpt lat="46.85587" lon="6.54714">
        <ele>1539.66</ele>
        <time>2020-10-31T12:07:01.607Z</time>
      </trkpt>
      <trkpt lat="46.85582" lon="6.54706">
        <ele>1540.45</ele>
        <time>2020-10-31T12:07:19.840Z</time>
      </trkpt>
      <trkpt lat="46.85577" lon="6.54701">
        <ele>1541.04</ele>
        <time>2020-10-31T12:07:33.439Z</time>
      </trkpt>
      <trkpt lat="46.85571" lon="6.54698">
        <ele>1541.04</ele>
        <time>2020-10-31T12:07:39.052Z</time>
      </trkpt>
      <trkpt lat="46.85566" lon="6.54694">
        <ele>1541.34</ele>
        <time>2020-10-31T12:07:48.029Z</time>
      </trkpt>
      <trkpt lat="46.8556" lon="6.54686">
        <ele>1541.73</ele>
        <time>2020-10-31T12:08:00.437Z</time>
      </trkpt>
      <trkpt lat="46.85552" lon="6.54677">
        <ele>1541.93</ele>
        <time>2020-10-31T12:08:11.353Z</time>
      </trkpt>
      <trkpt lat="46.85546" lon="6.54667">
        <ele>1541.73</ele>
        <time>2020-10-31T12:08:13.956Z</time>
      </trkpt>
      <trkpt lat="46.85535" lon="6.54649">
        <ele>1541.83</ele>
        <time>2020-10-31T12:08:29.428Z</time>
      </trkpt>
      <trkpt lat="46.85531" lon="6.54644">
        <ele>1541.73</ele>
        <time>2020-10-31T12:08:30.987Z</time>
      </trkpt>
      <trkpt lat="46.85529" lon="6.54643">
        <ele>1541.64</ele>
        <time>2020-10-31T12:08:31.476Z</time>
      </trkpt>
      <trkpt lat="46.85523" lon="6.54635">
        <ele>1541.54</ele>
        <time>2020-10-31T12:08:34.089Z</time>
      </trkpt>
      <trkpt lat="46.85519" lon="6.54632">
        <ele>1541.44</ele>
        <time>2020-10-31T12:08:35.371Z</time>
      </trkpt>
      <trkpt lat="46.85517" lon="6.54625">
        <ele>1541.93</ele>
        <time>2020-10-31T12:08:46.701Z</time>
      </trkpt>
      <trkpt lat="46.85514" lon="6.54621">
        <ele>1542.72</ele>
        <time>2020-10-31T12:09:00.563Z</time>
      </trkpt>
      <trkpt lat="46.85513" lon="6.54618">
        <ele>1543.31</ele>
        <time>2020-10-31T12:09:08.356Z</time>
      </trkpt>
      <trkpt lat="46.85512" lon="6.54617">
        <ele>1543.31</ele>
        <time>2020-10-31T12:09:09.428Z</time>
      </trkpt>
      <trkpt lat="46.85512" lon="6.54614">
        <ele>1543.81</ele>
        <time>2020-10-31T12:09:16.433Z</time>
      </trkpt>
      <trkpt lat="46.8551" lon="6.54609">
        <ele>1544</ele>
        <time>2020-10-31T12:09:22.483Z</time>
      </trkpt>
      <trkpt lat="46.85503" lon="6.54602">
        <ele>1544.79</ele>
        <time>2020-10-31T12:09:40.785Z</time>
      </trkpt>
      <trkpt lat="46.85499" lon="6.54596">
        <ele>1545.29</ele>
        <time>2020-10-31T12:09:52.519Z</time>
      </trkpt>
      <trkpt lat="46.85491" lon="6.54589">
        <ele>1546.67</ele>
        <time>2020-10-31T12:10:24.350Z</time>
      </trkpt>
      <trkpt lat="46.85486" lon="6.54583">
        <ele>1546.96</ele>
        <time>2020-10-31T12:10:34.034Z</time>
      </trkpt>
      <trkpt lat="46.8548" lon="6.54573">
        <ele>1547.95</ele>
        <time>2020-10-31T12:10:56.946Z</time>
      </trkpt>
      <trkpt lat="46.85472" lon="6.5456">
        <ele>1548.74</ele>
        <time>2020-10-31T12:11:17.634Z</time>
      </trkpt>
      <trkpt lat="46.85464" lon="6.54552">
        <ele>1549.23</ele>
        <time>2020-10-31T12:11:32.690Z</time>
      </trkpt>
      <trkpt lat="46.85457" lon="6.54546">
        <ele>1550.81</ele>
        <time>2020-10-31T12:12:00.394Z</time>
      </trkpt>
      <trkpt lat="46.85453" lon="6.54541">
        <ele>1551.3</ele>
        <time>2020-10-31T12:12:11.747Z</time>
      </trkpt>
      <trkpt lat="46.85447" lon="6.54532">
        <ele>1552.39</ele>
        <time>2020-10-31T12:12:38.531Z</time>
      </trkpt>
      <trkpt lat="46.85441" lon="6.54526">
        <ele>1553.28</ele>
        <time>2020-10-31T12:12:59.947Z</time>
      </trkpt>
      <trkpt lat="46.85438" lon="6.54521">
        <ele>1553.57</ele>
        <time>2020-10-31T12:13:07.685Z</time>
      </trkpt>
      <trkpt lat="46.85435" lon="6.54515">
        <ele>1554.16</ele>
        <time>2020-10-31T12:13:21.559Z</time>
      </trkpt>
      <trkpt lat="46.85431" lon="6.54511">
        <ele>1554.36</ele>
        <time>2020-10-31T12:13:28.456Z</time>
      </trkpt>
      <trkpt lat="46.85427" lon="6.54505">
        <ele>1554.76</ele>
        <time>2020-10-31T12:13:38.649Z</time>
      </trkpt>
      <trkpt lat="46.85424" lon="6.545">
        <ele>1555.45</ele>
        <time>2020-10-31T12:13:54.180Z</time>
      </trkpt>
      <trkpt lat="46.85421" lon="6.54496">
        <ele>1555.35</ele>
        <time>2020-10-31T12:13:55.307Z</time>
      </trkpt>
      <trkpt lat="46.85419" lon="6.54489">
        <ele>1555.64</ele>
        <time>2020-10-31T12:14:03.660Z</time>
      </trkpt>
      <trkpt lat="46.85417" lon="6.54466">
        <ele>1555.84</ele>
        <time>2020-10-31T12:14:19.529Z</time>
      </trkpt>
      <trkpt lat="46.85415" lon="6.54459">
        <ele>1555.35</ele>
        <time>2020-10-31T12:14:20.601Z</time>
      </trkpt>
      <trkpt lat="46.85411" lon="6.54449">
        <ele>1555.35</ele>
        <time>2020-10-31T12:14:27.614Z</time>
      </trkpt>
      <trkpt lat="46.85407" lon="6.54442">
        <ele>1555.15</ele>
        <time>2020-10-31T12:14:29.214Z</time>
      </trkpt>
      <trkpt lat="46.85399" lon="6.54424">
        <ele>1554.76</ele>
        <time>2020-10-31T12:14:33.205Z</time>
      </trkpt>
      <trkpt lat="46.85392" lon="6.54404">
        <ele>1553.67</ele>
        <time>2020-10-31T12:14:36.379Z</time>
      </trkpt>
      <trkpt lat="46.85388" lon="6.54396">
        <ele>1553.47</ele>
        <time>2020-10-31T12:14:38.164Z</time>
      </trkpt>
      <trkpt lat="46.85385" lon="6.54388">
        <ele>1553.47</ele>
        <time>2020-10-31T12:14:43.687Z</time>
      </trkpt>
      <trkpt lat="46.85382" lon="6.54376">
        <ele>1553.47</ele>
        <time>2020-10-31T12:14:51.421Z</time>
      </trkpt>
      <trkpt lat="46.85377" lon="6.5434">
        <ele>1552.09</ele>
        <time>2020-10-31T12:14:56.639Z</time>
      </trkpt>
      <trkpt lat="46.85375" lon="6.54332">
        <ele>1551.89</ele>
        <time>2020-10-31T12:14:58.099Z</time>
      </trkpt>
      <trkpt lat="46.85372" lon="6.5432">
        <ele>1551.8</ele>
        <time>2020-10-31T12:15:00.986Z</time>
      </trkpt>
      <trkpt lat="46.8537" lon="6.54313">
        <ele>1551.8</ele>
        <time>2020-10-31T12:15:05.578Z</time>
      </trkpt>
      <trkpt lat="46.85368" lon="6.54305">
        <ele>1551.7</ele>
        <time>2020-10-31T12:15:07.342Z</time>
      </trkpt>
      <trkpt lat="46.85366" lon="6.54298">
        <ele>1551.8</ele>
        <time>2020-10-31T12:15:12.920Z</time>
      </trkpt>
      <trkpt lat="46.85364" lon="6.54295">
        <ele>1551.99</ele>
        <time>2020-10-31T12:15:17.885Z</time>
      </trkpt>
      <trkpt lat="46.8536" lon="6.54275">
        <ele>1552.29</ele>
        <time>2020-10-31T12:15:33.513Z</time>
      </trkpt>
      <trkpt lat="46.8536" lon="6.54265">
        <ele>1551.99</ele>
        <time>2020-10-31T12:15:35.078Z</time>
      </trkpt>
      <trkpt lat="46.85358" lon="6.54257">
        <ele>1551.8</ele>
        <time>2020-10-31T12:15:36.563Z</time>
      </trkpt>
      <trkpt lat="46.85357" lon="6.54254">
        <ele>1551.8</ele>
        <time>2020-10-31T12:15:38.584Z</time>
      </trkpt>
      <trkpt lat="46.85356" lon="6.54248">
        <ele>1551.7</ele>
        <time>2020-10-31T12:15:39.769Z</time>
      </trkpt>
      <trkpt lat="46.85353" lon="6.54235">
        <ele>1551.7</ele>
        <time>2020-10-31T12:15:48.075Z</time>
      </trkpt>
      <trkpt lat="46.85349" lon="6.54214">
        <ele>1551.4</ele>
        <time>2020-10-31T12:15:52.433Z</time>
      </trkpt>
      <trkpt lat="46.85347" lon="6.5419">
        <ele>1551.2</ele>
        <time>2020-10-31T12:15:57.769Z</time>
      </trkpt>
      <trkpt lat="46.85344" lon="6.54156">
        <ele>1552.19</ele>
        <time>2020-10-31T12:16:31.612Z</time>
      </trkpt>
      <trkpt lat="46.85343" lon="6.54156">
        <ele>1552.48</ele>
        <time>2020-10-31T12:16:35.027Z</time>
      </trkpt>
      <trkpt lat="46.85342" lon="6.54156">
        <ele>1552.88</ele>
        <time>2020-10-31T12:16:38.441Z</time>
      </trkpt>
      <trkpt lat="46.85339" lon="6.54154">
        <ele>1553.28</ele>
        <time>2020-10-31T12:16:48.021Z</time>
      </trkpt>
      <trkpt lat="46.85337" lon="6.54152">
        <ele>1554.06</ele>
        <time>2020-10-31T12:16:56.294Z</time>
      </trkpt>
      <trkpt lat="46.85336" lon="6.54148">
        <ele>1554.85</ele>
        <time>2020-10-31T12:17:06.239Z</time>
      </trkpt>
      <trkpt lat="46.85333" lon="6.54145">
        <ele>1555.74</ele>
        <time>2020-10-31T12:17:18.648Z</time>
      </trkpt>
      <trkpt lat="46.85331" lon="6.54141">
        <ele>1556.43</ele>
        <time>2020-10-31T12:17:30.218Z</time>
      </trkpt>
      <trkpt lat="46.85325" lon="6.54131">
        <ele>1557.91</ele>
        <time>2020-10-31T12:18:01.281Z</time>
      </trkpt>
      <trkpt lat="46.85322" lon="6.5413">
        <ele>1558.8</ele>
        <time>2020-10-31T12:18:11.787Z</time>
      </trkpt>
      <trkpt lat="46.85319" lon="6.54128">
        <ele>1559.49</ele>
        <time>2020-10-31T12:18:23.045Z</time>
      </trkpt>
      <trkpt lat="46.85317" lon="6.54123">
        <ele>1560.48</ele>
        <time>2020-10-31T12:18:36.570Z</time>
      </trkpt>
      <trkpt lat="46.85313" lon="6.54119">
        <ele>1561.46</ele>
        <time>2020-10-31T12:18:53.116Z</time>
      </trkpt>
      <trkpt lat="46.85312" lon="6.54117">
        <ele>1562.06</ele>
        <time>2020-10-31T12:18:58.901Z</time>
      </trkpt>
      <trkpt lat="46.8531" lon="6.54114">
        <ele>1562.65</ele>
        <time>2020-10-31T12:19:08.684Z</time>
      </trkpt>
      <trkpt lat="46.85308" lon="6.5411">
        <ele>1563.44</ele>
        <time>2020-10-31T12:19:20.254Z</time>
      </trkpt>
      <trkpt lat="46.85305" lon="6.5411">
        <ele>1564.13</ele>
        <time>2020-10-31T12:19:30.497Z</time>
      </trkpt>
      <trkpt lat="46.85303" lon="6.54109">
        <ele>1564.42</ele>
        <time>2020-10-31T12:19:37.714Z</time>
      </trkpt>
      <trkpt lat="46.85298" lon="6.541">
        <ele>1566.27</ele>
        <time>2020-10-31T12:20:04.790Z</time>
      </trkpt>
      <trkpt lat="46.85297" lon="6.54099">
        <ele>1566.52</ele>
        <time>2020-10-31T12:20:08.926Z</time>
      </trkpt>
      <trkpt lat="46.85294" lon="6.54094">
        <ele>1567.68</ele>
        <time>2020-10-31T12:20:24.458Z</time>
      </trkpt>
      <trkpt lat="46.85294" lon="6.54094">
        <ele>1567.72</ele>
        <time>2020-10-31T12:20:24.458Z</time>
      </trkpt>
      <trkpt lat="46.85294" lon="6.54092">
        <ele>1567.97</ele>
        <time>2020-10-31T12:20:29.128Z</time>
      </trkpt>
      <trkpt lat="46.8529" lon="6.54087">
        <ele>1569.45</ele>
        <time>2020-10-31T12:20:47.095Z</time>
      </trkpt>
      <trkpt lat="46.85289" lon="6.54084">
        <ele>1570.05</ele>
        <time>2020-10-31T12:20:54.888Z</time>
      </trkpt>
      <trkpt lat="46.85287" lon="6.54081">
        <ele>1570.44</ele>
        <time>2020-10-31T12:21:04.671Z</time>
      </trkpt>
      <trkpt lat="46.85287" lon="6.5408">
        <ele>1570.58</ele>
        <time>2020-10-31T12:21:07.006Z</time>
      </trkpt>
      <trkpt lat="46.85286" lon="6.54078">
        <ele>1570.93</ele>
        <time>2020-10-31T12:21:12.791Z</time>
      </trkpt>
      <trkpt lat="46.85285" lon="6.54075">
        <ele>1571.31</ele>
        <time>2020-10-31T12:21:20.584Z</time>
      </trkpt>
      <trkpt lat="46.85284" lon="6.54073">
        <ele>1571.62</ele>
        <time>2020-10-31T12:21:26.369Z</time>
      </trkpt>
      <trkpt lat="46.85281" lon="6.54067">
        <ele>1572.71</ele>
        <time>2020-10-31T12:21:43.724Z</time>
      </trkpt>
      <trkpt lat="46.8528" lon="6.54063">
        <ele>1573.2</ele>
        <time>2020-10-31T12:21:53.669Z</time>
      </trkpt>
      <trkpt lat="46.85278" lon="6.54056">
        <ele>1573.6</ele>
        <time>2020-10-31T12:22:03.433Z</time>
      </trkpt>
      <trkpt lat="46.85276" lon="6.54049">
        <ele>1574.29</ele>
        <time>2020-10-31T12:22:21.036Z</time>
      </trkpt>
      <trkpt lat="46.85273" lon="6.5404">
        <ele>1574.68</ele>
        <time>2020-10-31T12:22:32.141Z</time>
      </trkpt>
      <trkpt lat="46.85272" lon="6.54036">
        <ele>1574.83</ele>
        <time>2020-10-31T12:22:36.694Z</time>
      </trkpt>
      <trkpt lat="46.85267" lon="6.54017">
        <ele>1575.63</ele>
        <time>2020-10-31T12:22:59.351Z</time>
      </trkpt>
      <trkpt lat="46.85266" lon="6.54012">
        <ele>1575.86</ele>
        <time>2020-10-31T12:23:05.447Z</time>
      </trkpt>
      <trkpt lat="46.85265" lon="6.54009">
        <ele>1576.46</ele>
        <time>2020-10-31T12:23:13.240Z</time>
      </trkpt>
      <trkpt lat="46.85264" lon="6.54004">
        <ele>1577.05</ele>
        <time>2020-10-31T12:23:25.404Z</time>
      </trkpt>
      <trkpt lat="46.85264" lon="6.54">
        <ele>1577.64</ele>
        <time>2020-10-31T12:23:34.744Z</time>
      </trkpt>
      <trkpt lat="46.85261" lon="6.53994">
        <ele>1578.92</ele>
        <time>2020-10-31T12:23:52.099Z</time>
      </trkpt>
      <trkpt lat="46.85259" lon="6.53988">
        <ele>1580.01</ele>
        <time>2020-10-31T12:24:07.685Z</time>
      </trkpt>
      <trkpt lat="46.85254" lon="6.53981">
        <ele>1580.3</ele>
        <time>2020-10-31T12:24:17.628Z</time>
      </trkpt>
      <trkpt lat="46.85252" lon="6.53975">
        <ele>1580.5</ele>
        <time>2020-10-31T12:24:24.378Z</time>
      </trkpt>
      <trkpt lat="46.8525" lon="6.53971">
        <ele>1581.42</ele>
        <time>2020-10-31T12:24:35.948Z</time>
      </trkpt>
      <trkpt lat="46.85249" lon="6.53969">
        <ele>1582.09</ele>
        <time>2020-10-31T12:24:41.733Z</time>
      </trkpt>
      <trkpt lat="46.85246" lon="6.53964">
        <ele>1582.77</ele>
        <time>2020-10-31T12:24:57.265Z</time>
      </trkpt>
      <trkpt lat="46.8524" lon="6.53959">
        <ele>1584.15</ele>
        <time>2020-10-31T12:25:20.845Z</time>
      </trkpt>
      <trkpt lat="46.85238" lon="6.53954">
        <ele>1584.74</ele>
        <time>2020-10-31T12:25:34.370Z</time>
      </trkpt>
      <trkpt lat="46.85234" lon="6.53947">
        <ele>1586.13</ele>
        <time>2020-10-31T12:25:55.670Z</time>
      </trkpt>
      <trkpt lat="46.85216" lon="6.53916">
        <ele>1587.01</ele>
        <time>2020-10-31T12:26:30.336Z</time>
      </trkpt>
      <trkpt lat="46.85209" lon="6.53904">
        <ele>1587.7</ele>
        <time>2020-10-31T12:26:48.714Z</time>
      </trkpt>
      <trkpt lat="46.85206" lon="6.539">
        <ele>1588</ele>
        <time>2020-10-31T12:26:56.165Z</time>
      </trkpt>
      <trkpt lat="46.85203" lon="6.53899">
        <ele>1588.79</ele>
        <time>2020-10-31T12:27:06.671Z</time>
      </trkpt>
      <trkpt lat="46.85202" lon="6.53897">
        <ele>1589.38</ele>
        <time>2020-10-31T12:27:12.456Z</time>
      </trkpt>
      <trkpt lat="46.85201" lon="6.53894">
        <ele>1589.97</ele>
        <time>2020-10-31T12:27:20.249Z</time>
      </trkpt>
      <trkpt lat="46.85197" lon="6.53889">
        <ele>1591.84</ele>
        <time>2020-10-31T12:27:38.217Z</time>
      </trkpt>
      <trkpt lat="46.85196" lon="6.53886">
        <ele>1592.64</ele>
        <time>2020-10-31T12:27:46.010Z</time>
      </trkpt>
      <trkpt lat="46.85192" lon="6.53882">
        <ele>1594.31</ele>
        <time>2020-10-31T12:28:02.556Z</time>
      </trkpt>
      <trkpt lat="46.85188" lon="6.53873">
        <ele>1596.38</ele>
        <time>2020-10-31T12:28:27.619Z</time>
      </trkpt>
      <trkpt lat="46.85182" lon="6.5386">
        <ele>1598.75</ele>
        <time>2020-10-31T12:29:04.241Z</time>
      </trkpt>
      <trkpt lat="46.85179" lon="6.53853">
        <ele>1601.05</ele>
        <time>2020-10-31T12:29:23.531Z</time>
      </trkpt>
      <trkpt lat="46.85178" lon="6.53848">
        <ele>1602.26</ele>
        <time>2020-10-31T12:29:35.695Z</time>
      </trkpt>
      <trkpt lat="46.85177" lon="6.53837">
        <ele>1604.68</ele>
        <time>2020-10-31T12:30:01.607Z</time>
      </trkpt>
      <trkpt lat="46.85175" lon="6.53832">
        <ele>1605.57</ele>
        <time>2020-10-31T12:30:15.133Z</time>
      </trkpt>
      <trkpt lat="46.85172" lon="6.53833">
        <ele>1605.15</ele>
        <time>2020-10-31T12:30:15.768Z</time>
      </trkpt>
      <trkpt lat="46.85172" lon="6.53833">
        <ele>1605.15</ele>
        <time>2020-10-31T12:30:15.768Z</time>
      </trkpt>
      <trkpt lat="46.85166" lon="6.53835">
        <ele>1604.73</ele>
        <time>2020-10-31T12:30:17.039Z</time>
      </trkpt>
      <trkpt lat="46.85161" lon="6.53838">
        <ele>1604.11</ele>
        <time>2020-10-31T12:30:18.155Z</time>
      </trkpt>
      <trkpt lat="46.85154" lon="6.53836">
        <ele>1604.19</ele>
        <time>2020-10-31T12:30:25.192Z</time>
      </trkpt>
      <trkpt lat="46.85142" lon="6.53833">
        <ele>1603.5</ele>
        <time>2020-10-31T12:30:27.684Z</time>
      </trkpt>
      <trkpt lat="46.85133" lon="6.53835">
        <ele>1602.37</ele>
        <time>2020-10-31T12:30:29.565Z</time>
      </trkpt>
      <trkpt lat="46.85127" lon="6.53838">
        <ele>1601.52</ele>
        <time>2020-10-31T12:30:30.874Z</time>
      </trkpt>
      <trkpt lat="46.85122" lon="6.53842">
        <ele>1600.59</ele>
        <time>2020-10-31T12:30:32.052Z</time>
      </trkpt>
      <trkpt lat="46.85118" lon="6.53843">
        <ele>1600.3</ele>
        <time>2020-10-31T12:30:32.890Z</time>
      </trkpt>
      <trkpt lat="46.85113" lon="6.53842">
        <ele>1599.98</ele>
        <time>2020-10-31T12:30:33.869Z</time>
      </trkpt>
      <trkpt lat="46.85106" lon="6.5384">
        <ele>1599.71</ele>
        <time>2020-10-31T12:30:35.596Z</time>
      </trkpt>
      <trkpt lat="46.85094" lon="6.53836">
        <ele>1598.47</ele>
        <time>2020-10-31T12:30:38.138Z</time>
      </trkpt>
      <trkpt lat="46.85088" lon="6.53834">
        <ele>1597.59</ele>
        <time>2020-10-31T12:30:39.409Z</time>
      </trkpt>
      <trkpt lat="46.85073" lon="6.53832">
        <ele>1595.66</ele>
        <time>2020-10-31T12:30:42.520Z</time>
      </trkpt>
      <trkpt lat="46.85065" lon="6.53832">
        <ele>1594.71</ele>
        <time>2020-10-31T12:30:44.173Z</time>
      </trkpt>
      <trkpt lat="46.85063" lon="6.5383">
        <ele>1595.31</ele>
        <time>2020-10-31T12:30:52.446Z</time>
      </trkpt>
      <trkpt lat="46.85061" lon="6.53827">
        <ele>1595.61</ele>
        <time>2020-10-31T12:30:59.358Z</time>
      </trkpt>
      <trkpt lat="46.85057" lon="6.53824">
        <ele>1596.21</ele>
        <time>2020-10-31T12:31:14.708Z</time>
      </trkpt>
      <trkpt lat="46.85054" lon="6.53821">
        <ele>1596.42</ele>
        <time>2020-10-31T12:31:20.635Z</time>
      </trkpt>
      <trkpt lat="46.85052" lon="6.53818">
        <ele>1596.61</ele>
        <time>2020-10-31T12:31:25.601Z</time>
      </trkpt>
      <trkpt lat="46.85049" lon="6.53816">
        <ele>1596.81</ele>
        <time>2020-10-31T12:31:31.088Z</time>
      </trkpt>
      <trkpt lat="46.85046" lon="6.53812">
        <ele>1596.91</ele>
        <time>2020-10-31T12:31:35.729Z</time>
      </trkpt>
      <trkpt lat="46.85044" lon="6.53814">
        <ele>1596.71</ele>
        <time>2020-10-31T12:31:36.229Z</time>
      </trkpt>
      <trkpt lat="46.85044" lon="6.53814">
        <ele>1596.64</ele>
        <time>2020-10-31T12:31:36.229Z</time>
      </trkpt>
      <trkpt lat="46.85043" lon="6.53815">
        <ele>1596.57</ele>
        <time>2020-10-31T12:31:36.475Z</time>
      </trkpt>
      <trkpt lat="46.85043" lon="6.53817">
        <ele>1596.21</ele>
        <time>2020-10-31T12:31:36.757Z</time>
      </trkpt>
      <trkpt lat="46.85042" lon="6.53818">
        <ele>1596.1</ele>
        <time>2020-10-31T12:31:37.008Z</time>
      </trkpt>
      <trkpt lat="46.85042" lon="6.53822">
        <ele>1595.77</ele>
        <time>2020-10-31T12:31:37.573Z</time>
      </trkpt>
      <trkpt lat="46.85043" lon="6.53825">
        <ele>1595.51</ele>
        <time>2020-10-31T12:31:38.044Z</time>
      </trkpt>
      <trkpt lat="46.85045" lon="6.53829">
        <ele>1594.84</ele>
        <time>2020-10-31T12:31:38.744Z</time>
      </trkpt>
      <trkpt lat="46.8505" lon="6.53834">
        <ele>1593.84</ele>
        <time>2020-10-31T12:31:39.995Z</time>
      </trkpt>
      <trkpt lat="46.85059" lon="6.53846">
        <ele>1591.18</ele>
        <time>2020-10-31T12:31:42.511Z</time>
      </trkpt>
      <trkpt lat="46.85063" lon="6.53852">
        <ele>1590.44</ele>
        <time>2020-10-31T12:31:43.695Z</time>
      </trkpt>
      <trkpt lat="46.85065" lon="6.53859">
        <ele>1589.45</ele>
        <time>2020-10-31T12:31:44.766Z</time>
      </trkpt>
      <trkpt lat="46.85067" lon="6.53866">
        <ele>1589.08</ele>
        <time>2020-10-31T12:31:45.838Z</time>
      </trkpt>
      <trkpt lat="46.85068" lon="6.53872">
        <ele>1588.42</ele>
        <time>2020-10-31T12:31:46.710Z</time>
      </trkpt>
      <trkpt lat="46.85068" lon="6.53878">
        <ele>1587.89</ele>
        <time>2020-10-31T12:31:47.558Z</time>
      </trkpt>
      <trkpt lat="46.85068" lon="6.5388">
        <ele>1587.35</ele>
        <time>2020-10-31T12:31:47.840Z</time>
      </trkpt>
      <trkpt lat="46.85068" lon="6.53882">
        <ele>1586.92</ele>
        <time>2020-10-31T12:31:48.123Z</time>
      </trkpt>
      <trkpt lat="46.85067" lon="6.53884">
        <ele>1586.89</ele>
        <time>2020-10-31T12:31:48.633Z</time>
      </trkpt>
      <trkpt lat="46.85067" lon="6.53885">
        <ele>1586.87</ele>
        <time>2020-10-31T12:31:48.813Z</time>
      </trkpt>
      <trkpt lat="46.85065" lon="6.53889">
        <ele>1586.3</ele>
        <time>2020-10-31T12:31:49.513Z</time>
      </trkpt>
      <trkpt lat="46.85064" lon="6.53893">
        <ele>1585.76</ele>
        <time>2020-10-31T12:31:50.115Z</time>
      </trkpt>
      <trkpt lat="46.85063" lon="6.53896">
        <ele>1585.35</ele>
        <time>2020-10-31T12:31:50.586Z</time>
      </trkpt>
      <trkpt lat="46.85063" lon="6.53905">
        <ele>1584.35</ele>
        <time>2020-10-31T12:31:51.858Z</time>
      </trkpt>
      <trkpt lat="46.85064" lon="6.53921">
        <ele>1582.73</ele>
        <time>2020-10-31T12:31:54.127Z</time>
      </trkpt>
      <trkpt lat="46.85065" lon="6.53926">
        <ele>1582.15</ele>
        <time>2020-10-31T12:31:54.863Z</time>
      </trkpt>
      <trkpt lat="46.85065" lon="6.53928">
        <ele>1581.95</ele>
        <time>2020-10-31T12:31:55.146Z</time>
      </trkpt>
      <trkpt lat="46.85063" lon="6.5393">
        <ele>1581.66</ele>
        <time>2020-10-31T12:31:55.646Z</time>
      </trkpt>
      <trkpt lat="46.85061" lon="6.53932">
        <ele>1581.35</ele>
        <time>2020-10-31T12:31:56.147Z</time>
      </trkpt>
      <trkpt lat="46.85058" lon="6.53933">
        <ele>1581.06</ele>
        <time>2020-10-31T12:31:56.782Z</time>
      </trkpt>
      <trkpt lat="46.85055" lon="6.53932">
        <ele>1580.45</ele>
        <time>2020-10-31T12:31:57.418Z</time>
      </trkpt>
      <trkpt lat="46.85048" lon="6.5393">
        <ele>1579.66</ele>
        <time>2020-10-31T12:31:58.891Z</time>
      </trkpt>
      <trkpt lat="46.85031" lon="6.53924">
        <ele>1577.26</ele>
        <time>2020-10-31T12:32:02.503Z</time>
      </trkpt>
      <trkpt lat="46.85024" lon="6.53922">
        <ele>1575.86</ele>
        <time>2020-10-31T12:32:03.977Z</time>
      </trkpt>
      <trkpt lat="46.85017" lon="6.53921">
        <ele>1574.66</ele>
        <time>2020-10-31T12:32:05.429Z</time>
      </trkpt>
      <trkpt lat="46.8501" lon="6.53919">
        <ele>1572.86</ele>
        <time>2020-10-31T12:32:06.902Z</time>
      </trkpt>
      <trkpt lat="46.85002" lon="6.53916">
        <ele>1570.96</ele>
        <time>2020-10-31T12:32:08.608Z</time>
      </trkpt>
      <trkpt lat="46.84992" lon="6.53913">
        <ele>1568.46</ele>
        <time>2020-10-31T12:32:10.717Z</time>
      </trkpt>
      <trkpt lat="46.84983" lon="6.5391">
        <ele>1566.37</ele>
        <time>2020-10-31T12:32:12.624Z</time>
      </trkpt>
      <trkpt lat="46.84978" lon="6.53909">
        <ele>1565.27</ele>
        <time>2020-10-31T12:32:13.666Z</time>
      </trkpt>
      <trkpt lat="46.84974" lon="6.53909">
        <ele>1564.67</ele>
        <time>2020-10-31T12:32:14.492Z</time>
      </trkpt>
      <trkpt lat="46.84971" lon="6.5391">
        <ele>1564.37</ele>
        <time>2020-10-31T12:32:15.128Z</time>
      </trkpt>
      <trkpt lat="46.8497" lon="6.53911">
        <ele>1564.07</ele>
        <time>2020-10-31T12:32:15.378Z</time>
      </trkpt>
      <trkpt lat="46.84969" lon="6.53914">
        <ele>1563.47</ele>
        <time>2020-10-31T12:32:15.849Z</time>
      </trkpt>
      <trkpt lat="46.84968" lon="6.53919">
        <ele>1563.47</ele>
        <time>2020-10-31T12:32:19.003Z</time>
      </trkpt>
      <trkpt lat="46.84969" lon="6.53925">
        <ele>1563.27</ele>
        <time>2020-10-31T12:32:19.939Z</time>
      </trkpt>
      <trkpt lat="46.84972" lon="6.53931">
        <ele>1563.17</ele>
        <time>2020-10-31T12:32:21.433Z</time>
      </trkpt>
      <trkpt lat="46.84973" lon="6.53937">
        <ele>1562.77</ele>
        <time>2020-10-31T12:32:22.306Z</time>
      </trkpt>
      <trkpt lat="46.84973" lon="6.53945">
        <ele>1562.17</ele>
        <time>2020-10-31T12:32:23.436Z</time>
      </trkpt>
      <trkpt lat="46.84973" lon="6.53955">
        <ele>1560.67</ele>
        <time>2020-10-31T12:32:24.849Z</time>
      </trkpt>
      <trkpt lat="46.84973" lon="6.53967">
        <ele>1559.72</ele>
        <time>2020-10-31T12:32:26.544Z</time>
      </trkpt>
      <trkpt lat="46.84973" lon="6.53967">
        <ele>1559.72</ele>
        <time>2020-10-31T12:32:26.544Z</time>
      </trkpt>
      <trkpt lat="46.84973" lon="6.53969">
        <ele>1558.78</ele>
        <time>2020-10-31T12:32:26.826Z</time>
      </trkpt>
      <trkpt lat="46.84974" lon="6.53978">
        <ele>1557.66</ele>
        <time>2020-10-31T12:32:28.114Z</time>
      </trkpt>
      <trkpt lat="46.84974" lon="6.53983">
        <ele>1557.06</ele>
        <time>2020-10-31T12:32:28.821Z</time>
      </trkpt>
      <trkpt lat="46.84976" lon="6.53991">
        <ele>1556.08</ele>
        <time>2020-10-31T12:32:30.024Z</time>
      </trkpt>
      <trkpt lat="46.8498" lon="6.53999">
        <ele>1555.29</ele>
        <time>2020-10-31T12:32:31.424Z</time>
      </trkpt>
      <trkpt lat="46.84983" lon="6.54005">
        <ele>1554.91</ele>
        <time>2020-10-31T12:32:32.474Z</time>
      </trkpt>
      <trkpt lat="46.84996" lon="6.5402">
        <ele>1553.51</ele>
        <time>2020-10-31T12:32:35.894Z</time>
      </trkpt>
      <trkpt lat="46.84999" lon="6.54026">
        <ele>1552.87</ele>
        <time>2020-10-31T12:32:36.944Z</time>
      </trkpt>
      <trkpt lat="46.85002" lon="6.54032">
        <ele>1552.36</ele>
        <time>2020-10-31T12:32:37.994Z</time>
      </trkpt>
      <trkpt lat="46.85003" lon="6.54039">
        <ele>1551.5</ele>
        <time>2020-10-31T12:32:39.004Z</time>
      </trkpt>
      <trkpt lat="46.85004" lon="6.54046">
        <ele>1550.38</ele>
        <time>2020-10-31T12:32:40.015Z</time>
      </trkpt>
      <trkpt lat="46.85004" lon="6.54053">
        <ele>1549.36</ele>
        <time>2020-10-31T12:32:41.003Z</time>
      </trkpt>
      <trkpt lat="46.85003" lon="6.54057">
        <ele>1548.5</ele>
        <time>2020-10-31T12:32:41.605Z</time>
      </trkpt>
      <trkpt lat="46.85001" lon="6.54062">
        <ele>1547.81</ele>
        <time>2020-10-31T12:32:42.423Z</time>
      </trkpt>
      <trkpt lat="46.84998" lon="6.54066">
        <ele>1546.62</ele>
        <time>2020-10-31T12:32:43.262Z</time>
      </trkpt>
      <trkpt lat="46.84994" lon="6.54069">
        <ele>1545.59</ele>
        <time>2020-10-31T12:32:44.190Z</time>
      </trkpt>
      <trkpt lat="46.8499" lon="6.54071">
        <ele>1544.64</ele>
        <time>2020-10-31T12:32:45.064Z</time>
      </trkpt>
      <trkpt lat="46.84982" lon="6.54076">
        <ele>1542.59</ele>
        <time>2020-10-31T12:32:46.861Z</time>
      </trkpt>
      <trkpt lat="46.84975" lon="6.54079">
        <ele>1541.39</ele>
        <time>2020-10-31T12:32:48.367Z</time>
      </trkpt>
      <trkpt lat="46.84971" lon="6.54081">
        <ele>1540.67</ele>
        <time>2020-10-31T12:32:49.241Z</time>
      </trkpt>
      <trkpt lat="46.84967" lon="6.54084">
        <ele>1540.21</ele>
        <time>2020-10-31T12:32:50.169Z</time>
      </trkpt>
      <trkpt lat="46.84965" lon="6.54089">
        <ele>1539.43</ele>
        <time>2020-10-31T12:32:50.987Z</time>
      </trkpt>
      <trkpt lat="46.84963" lon="6.54095">
        <ele>1538.77</ele>
        <time>2020-10-31T12:32:51.930Z</time>
      </trkpt>
      <trkpt lat="46.84963" lon="6.54103">
        <ele>1538.21</ele>
        <time>2020-10-31T12:32:53.060Z</time>
      </trkpt>
      <trkpt lat="46.84964" lon="6.5411">
        <ele>1537.41</ele>
        <time>2020-10-31T12:32:54.071Z</time>
      </trkpt>
      <trkpt lat="46.84967" lon="6.54121">
        <ele>1536.57</ele>
        <time>2020-10-31T12:32:55.743Z</time>
      </trkpt>
      <trkpt lat="46.84974" lon="6.54136">
        <ele>1535.29</ele>
        <time>2020-10-31T12:32:58.309Z</time>
      </trkpt>
      <trkpt lat="46.84978" lon="6.54147">
        <ele>1534.15</ele>
        <time>2020-10-31T12:33:00.069Z</time>
      </trkpt>
      <trkpt lat="46.84978" lon="6.54146">
        <ele>1534.15</ele>
        <time>2020-10-31T12:33:00.674Z</time>
      </trkpt>
      <trkpt lat="46.84988" lon="6.5417">
        <ele>1533</ele>
        <time>2020-10-31T12:33:04.510Z</time>
      </trkpt>
      <trkpt lat="46.84994" lon="6.54188">
        <ele>1532.1</ele>
        <time>2020-10-31T12:33:07.120Z</time>
      </trkpt>
      <trkpt lat="46.84996" lon="6.54195">
        <ele>1531.81</ele>
        <time>2020-10-31T12:33:08.189Z</time>
      </trkpt>
      <trkpt lat="46.84997" lon="6.54203">
        <ele>1531.35</ele>
        <time>2020-10-31T12:33:09.337Z</time>
      </trkpt>
      <trkpt lat="46.84997" lon="6.54211">
        <ele>1530.91</ele>
        <time>2020-10-31T12:33:10.468Z</time>
      </trkpt>
      <trkpt lat="46.84997" lon="6.54218">
        <ele>1530.56</ele>
        <time>2020-10-31T12:33:11.456Z</time>
      </trkpt>
      <trkpt lat="46.84996" lon="6.54222">
        <ele>1530.22</ele>
        <time>2020-10-31T12:33:12.058Z</time>
      </trkpt>
      <trkpt lat="46.84994" lon="6.54226">
        <ele>1529.7</ele>
        <time>2020-10-31T12:33:12.758Z</time>
      </trkpt>
      <trkpt lat="46.8499" lon="6.54235">
        <ele>1529.03</ele>
        <time>2020-10-31T12:33:14.274Z</time>
      </trkpt>
      <trkpt lat="46.84983" lon="6.54245">
        <ele>1527.67</ele>
        <time>2020-10-31T12:33:16.296Z</time>
      </trkpt>
      <trkpt lat="46.84979" lon="6.54251">
        <ele>1527.1</ele>
        <time>2020-10-31T12:33:17.479Z</time>
      </trkpt>
      <trkpt lat="46.84977" lon="6.54255">
        <ele>1526.66</ele>
        <time>2020-10-31T12:33:18.179Z</time>
      </trkpt>
      <trkpt lat="46.84974" lon="6.54262">
        <ele>1526.26</ele>
        <time>2020-10-31T12:33:19.346Z</time>
      </trkpt>
      <trkpt lat="46.84973" lon="6.54267">
        <ele>1525.72</ele>
        <time>2020-10-31T12:33:20.082Z</time>
      </trkpt>
      <trkpt lat="46.84973" lon="6.54273">
        <ele>1525.17</ele>
        <time>2020-10-31T12:33:20.930Z</time>
      </trkpt>
      <trkpt lat="46.84973" lon="6.5428">
        <ele>1524.6</ele>
        <time>2020-10-31T12:33:21.919Z</time>
      </trkpt>
      <trkpt lat="46.84974" lon="6.54287">
        <ele>1523.99</ele>
        <time>2020-10-31T12:33:22.929Z</time>
      </trkpt>
      <trkpt lat="46.84977" lon="6.54305">
        <ele>1522.34</ele>
        <time>2020-10-31T12:33:25.546Z</time>
      </trkpt>
      <trkpt lat="46.84978" lon="6.54312">
        <ele>1521.47</ele>
        <time>2020-10-31T12:33:26.556Z</time>
      </trkpt>
      <trkpt lat="46.84979" lon="6.5432">
        <ele>1520.81</ele>
        <time>2020-10-31T12:33:27.705Z</time>
      </trkpt>
      <trkpt lat="46.84979" lon="6.54329">
        <ele>1518.49</ele>
        <time>2020-10-31T12:33:28.976Z</time>
      </trkpt>
      <trkpt lat="46.84979" lon="6.54328">
        <ele>1518.49</ele>
        <time>2020-10-31T12:33:29.582Z</time>
      </trkpt>
      <trkpt lat="46.84981" lon="6.54375">
        <ele>1516.17</ele>
        <time>2020-10-31T12:33:36.234Z</time>
      </trkpt>
      <trkpt lat="46.84981" lon="6.54383">
        <ele>1515.43</ele>
        <time>2020-10-31T12:33:37.364Z</time>
      </trkpt>
      <trkpt lat="46.8498" lon="6.54389">
        <ele>1514.44</ele>
        <time>2020-10-31T12:33:38.236Z</time>
      </trkpt>
      <trkpt lat="46.84975" lon="6.54411">
        <ele>1512.26</ele>
        <time>2020-10-31T12:33:41.511Z</time>
      </trkpt>
      <trkpt lat="46.84973" lon="6.54419">
        <ele>1511.7</ele>
        <time>2020-10-31T12:33:42.715Z</time>
      </trkpt>
      <trkpt lat="46.84972" lon="6.54427">
        <ele>1511.04</ele>
        <time>2020-10-31T12:33:43.863Z</time>
      </trkpt>
      <trkpt lat="46.84971" lon="6.54435">
        <ele>1510.39</ele>
        <time>2020-10-31T12:33:45.012Z</time>
      </trkpt>
      <trkpt lat="46.84969" lon="6.5444">
        <ele>1510.01</ele>
        <time>2020-10-31T12:33:45.830Z</time>
      </trkpt>
      <trkpt lat="46.84966" lon="6.54444">
        <ele>1509.6</ele>
        <time>2020-10-31T12:33:46.669Z</time>
      </trkpt>
      <trkpt lat="46.84963" lon="6.54445">
        <ele>1509.19</ele>
        <time>2020-10-31T12:33:47.305Z</time>
      </trkpt>
      <trkpt lat="46.84959" lon="6.54445">
        <ele>1508.86</ele>
        <time>2020-10-31T12:33:48.131Z</time>
      </trkpt>
      <trkpt lat="46.84954" lon="6.54443">
        <ele>1507.75</ele>
        <time>2020-10-31T12:33:49.202Z</time>
      </trkpt>
      <trkpt lat="46.84945" lon="6.54438">
        <ele>1505.75</ele>
        <time>2020-10-31T12:33:51.190Z</time>
      </trkpt>
      <trkpt lat="46.84932" lon="6.54433">
        <ele>1503.57</ele>
        <time>2020-10-31T12:33:53.967Z</time>
      </trkpt>
      <trkpt lat="46.84919" lon="6.54426">
        <ele>1500.96</ele>
        <time>2020-10-31T12:33:56.828Z</time>
      </trkpt>
      <trkpt lat="46.84909" lon="6.54421">
        <ele>1499.11</ele>
        <time>2020-10-31T12:33:59.011Z</time>
      </trkpt>
      <trkpt lat="46.84897" lon="6.54413">
        <ele>1497.57</ele>
        <time>2020-10-31T12:34:01.735Z</time>
      </trkpt>
      <trkpt lat="46.84897" lon="6.54412">
        <ele>1497.57</ele>
        <time>2020-10-31T12:34:02.341Z</time>
      </trkpt>
      <trkpt lat="46.84885" lon="6.54405">
        <ele>1496.02</ele>
        <time>2020-10-31T12:34:05.009Z</time>
      </trkpt>
      <trkpt lat="46.84863" lon="6.54388">
        <ele>1494.37</ele>
        <time>2020-10-31T12:34:09.730Z</time>
      </trkpt>
      <trkpt lat="46.84843" lon="6.54371">
        <ele>1493.45</ele>
        <time>2020-10-31T12:34:15.229Z</time>
      </trkpt>
      <trkpt lat="46.84829" lon="6.54359">
        <ele>1492.53</ele>
        <time>2020-10-31T12:34:18.551Z</time>
      </trkpt>
      <trkpt lat="46.84805" lon="6.54337">
        <ele>1491.12</ele>
        <time>2020-10-31T12:34:24.698Z</time>
      </trkpt>
      <trkpt lat="46.84773" lon="6.5431">
        <ele>1488.83</ele>
        <time>2020-10-31T12:34:31.946Z</time>
      </trkpt>
      <trkpt lat="46.84763" lon="6.54302">
        <ele>1486.49</ele>
        <time>2020-10-31T12:34:34.301Z</time>
      </trkpt>
      <trkpt lat="46.84723" lon="6.54273">
        <ele>1479.58</ele>
        <time>2020-10-31T12:34:43.523Z</time>
      </trkpt>
      <trkpt lat="46.84714" lon="6.54267">
        <ele>1478.57</ele>
        <time>2020-10-31T12:34:45.566Z</time>
      </trkpt>
      <trkpt lat="46.84706" lon="6.54263">
        <ele>1477.65</ele>
        <time>2020-10-31T12:34:47.312Z</time>
      </trkpt>
      <trkpt lat="46.84705" lon="6.54263">
        <ele>1477.65</ele>
        <time>2020-10-31T12:34:48.197Z</time>
      </trkpt>
      <trkpt lat="46.84697" lon="6.54259">
        <ele>1476.74</ele>
        <time>2020-10-31T12:34:49.944Z</time>
      </trkpt>
      <trkpt lat="46.8469" lon="6.54254">
        <ele>1476.38</ele>
        <time>2020-10-31T12:34:51.688Z</time>
      </trkpt>
      <trkpt lat="46.84684" lon="6.5425">
        <ele>1476.04</ele>
        <time>2020-10-31T12:34:53.098Z</time>
      </trkpt>
      <trkpt lat="46.84677" lon="6.54244">
        <ele>1475.64</ele>
        <time>2020-10-31T12:34:54.866Z</time>
      </trkpt>
      <trkpt lat="46.84669" lon="6.54235">
        <ele>1475.32</ele>
        <time>2020-10-31T12:34:57.465Z</time>
      </trkpt>
      <trkpt lat="46.8466" lon="6.54223">
        <ele>1474.84</ele>
        <time>2020-10-31T12:35:00.370Z</time>
      </trkpt>
      <trkpt lat="46.84647" lon="6.54206">
        <ele>1474.99</ele>
        <time>2020-10-31T12:35:17.129Z</time>
      </trkpt>
      <trkpt lat="46.84642" lon="6.54201">
        <ele>1474.89</ele>
        <time>2020-10-31T12:35:18.978Z</time>
      </trkpt>
      <trkpt lat="46.84637" lon="6.54197">
        <ele>1474.38</ele>
        <time>2020-10-31T12:35:20.155Z</time>
      </trkpt>
      <trkpt lat="46.8463" lon="6.54193">
        <ele>1473.45</ele>
        <time>2020-10-31T12:35:21.708Z</time>
      </trkpt>
      <trkpt lat="46.84622" lon="6.54189">
        <ele>1472.73</ele>
        <time>2020-10-31T12:35:23.454Z</time>
      </trkpt>
      <trkpt lat="46.84615" lon="6.54184">
        <ele>1471.78</ele>
        <time>2020-10-31T12:35:25.063Z</time>
      </trkpt>
      <trkpt lat="46.84608" lon="6.54178">
        <ele>1471.16</ele>
        <time>2020-10-31T12:35:26.739Z</time>
      </trkpt>
      <trkpt lat="46.84597" lon="6.54165">
        <ele>1470.22</ele>
        <time>2020-10-31T12:35:29.420Z</time>
      </trkpt>
      <trkpt lat="46.8459" lon="6.54158">
        <ele>1469.53</ele>
        <time>2020-10-31T12:35:31.172Z</time>
      </trkpt>
      <trkpt lat="46.84582" lon="6.54151">
        <ele>1468.67</ele>
        <time>2020-10-31T12:35:33.097Z</time>
      </trkpt>
      <trkpt lat="46.84581" lon="6.54151">
        <ele>1468.67</ele>
        <time>2020-10-31T12:35:33.983Z</time>
      </trkpt>
      <trkpt lat="46.84576" lon="6.54146">
        <ele>1467.81</ele>
        <time>2020-10-31T12:35:35.234Z</time>
      </trkpt>
      <trkpt lat="46.84566" lon="6.54136">
        <ele>1466.58</ele>
        <time>2020-10-31T12:35:37.736Z</time>
      </trkpt>
      <trkpt lat="46.8456" lon="6.54131">
        <ele>1465.64</ele>
        <time>2020-10-31T12:35:39.163Z</time>
      </trkpt>
      <trkpt lat="46.84555" lon="6.54128">
        <ele>1465.03</ele>
        <time>2020-10-31T12:35:40.279Z</time>
      </trkpt>
      <trkpt lat="46.8455" lon="6.54126">
        <ele>1464.13</ele>
        <time>2020-10-31T12:35:41.350Z</time>
      </trkpt>
      <trkpt lat="46.84544" lon="6.54124">
        <ele>1463.51</ele>
        <time>2020-10-31T12:35:42.621Z</time>
      </trkpt>
      <trkpt lat="46.84526" lon="6.54118">
        <ele>1461.24</ele>
        <time>2020-10-31T12:35:46.434Z</time>
      </trkpt>
      <trkpt lat="46.8452" lon="6.54117">
        <ele>1460.46</ele>
        <time>2020-10-31T12:35:47.682Z</time>
      </trkpt>
      <trkpt lat="46.84511" lon="6.54117">
        <ele>1459.65</ele>
        <time>2020-10-31T12:35:49.541Z</time>
      </trkpt>
      <trkpt lat="46.84502" lon="6.54117">
        <ele>1458.48</ele>
        <time>2020-10-31T12:35:51.400Z</time>
      </trkpt>
      <trkpt lat="46.84486" lon="6.54119">
        <ele>1457.06</ele>
        <time>2020-10-31T12:35:54.717Z</time>
      </trkpt>
      <trkpt lat="46.84469" lon="6.54119">
        <ele>1455.8</ele>
        <time>2020-10-31T12:35:58.228Z</time>
      </trkpt>
      <trkpt lat="46.84459" lon="6.54119">
        <ele>1455.39</ele>
        <time>2020-10-31T12:36:00.577Z</time>
      </trkpt>
      <trkpt lat="46.84447" lon="6.54118">
        <ele>1453.85</ele>
        <time>2020-10-31T12:36:03.060Z</time>
      </trkpt>
      <trkpt lat="46.84447" lon="6.54118">
        <ele>1452.67</ele>
        <time>2020-10-31T12:36:03.060Z</time>
      </trkpt>
      <trkpt lat="46.84446" lon="6.54118">
        <ele>1452.67</ele>
        <time>2020-10-31T12:36:03.945Z</time>
      </trkpt>
      <trkpt lat="46.84424" lon="6.54113">
        <ele>1451.48</ele>
        <time>2020-10-31T12:36:08.627Z</time>
      </trkpt>
      <trkpt lat="46.84419" lon="6.54112">
        <ele>1451.15</ele>
        <time>2020-10-31T12:36:09.591Z</time>
      </trkpt>
      <trkpt lat="46.84412" lon="6.54112">
        <ele>1450.67</ele>
        <time>2020-10-31T12:36:11.037Z</time>
      </trkpt>
      <trkpt lat="46.84381" lon="6.54106">
        <ele>1448.42</ele>
        <time>2020-10-31T12:36:17.496Z</time>
      </trkpt>
      <trkpt lat="46.8437" lon="6.54103">
        <ele>1446.77</ele>
        <time>2020-10-31T12:36:19.807Z</time>
      </trkpt>
      <trkpt lat="46.84361" lon="6.54101">
        <ele>1445.67</ele>
        <time>2020-10-31T12:36:21.688Z</time>
      </trkpt>
      <trkpt lat="46.84352" lon="6.54097">
        <ele>1444.87</ele>
        <time>2020-10-31T12:36:23.631Z</time>
      </trkpt>
      <trkpt lat="46.84341" lon="6.54092">
        <ele>1443.77</ele>
        <time>2020-10-31T12:36:26.010Z</time>
      </trkpt>
      <trkpt lat="46.84333" lon="6.54087">
        <ele>1442.97</ele>
        <time>2020-10-31T12:36:27.807Z</time>
      </trkpt>
      <trkpt lat="46.84333" lon="6.541">
        <ele>1443.14</ele>
        <time>2020-10-31T12:36:37.349Z</time>
      </trkpt>
      <trkpt lat="46.8433" lon="6.54111">
        <ele>1442.13</ele>
        <time>2020-10-31T12:36:39.022Z</time>
      </trkpt>
      <trkpt lat="46.84327" lon="6.54115">
        <ele>1441.53</ele>
        <time>2020-10-31T12:36:39.861Z</time>
      </trkpt>
      <trkpt lat="46.84325" lon="6.5412">
        <ele>1440.94</ele>
        <time>2020-10-31T12:36:40.679Z</time>
      </trkpt>
      <trkpt lat="46.84313" lon="6.54141">
        <ele>1438.68</ele>
        <time>2020-10-31T12:36:44.545Z</time>
      </trkpt>
      <trkpt lat="46.84299" lon="6.54157">
        <ele>1435.98</ele>
        <time>2020-10-31T12:36:48.216Z</time>
      </trkpt>
      <trkpt lat="46.84284" lon="6.54169">
        <ele>1432.25</ele>
        <time>2020-10-31T12:36:51.748Z</time>
      </trkpt>
      <trkpt lat="46.84275" lon="6.54177">
        <ele>1428.79</ele>
        <time>2020-10-31T12:36:53.923Z</time>
      </trkpt>
      <trkpt lat="46.84271" lon="6.5418">
        <ele>1428.3</ele>
        <time>2020-10-31T12:36:54.852Z</time>
      </trkpt>
      <trkpt lat="46.84266" lon="6.54179">
        <ele>1427.82</ele>
        <time>2020-10-31T12:36:55.894Z</time>
      </trkpt>
      <trkpt lat="46.84258" lon="6.54184">
        <ele>1426.05</ele>
        <time>2020-10-31T12:36:57.691Z</time>
      </trkpt>
      <trkpt lat="46.84252" lon="6.54193">
        <ele>1423.34</ele>
        <time>2020-10-31T12:36:59.467Z</time>
      </trkpt>
      <trkpt lat="46.84248" lon="6.54196">
        <ele>1422.41</ele>
        <time>2020-10-31T12:37:00.395Z</time>
      </trkpt>
      <trkpt lat="46.84242" lon="6.54209">
        <ele>1419.63</ele>
        <time>2020-10-31T12:37:02.611Z</time>
      </trkpt>
      <trkpt lat="46.84236" lon="6.54214">
        <ele>1417.55</ele>
        <time>2020-10-31T12:37:04.038Z</time>
      </trkpt>
      <trkpt lat="46.8423" lon="6.54218">
        <ele>1416.32</ele>
        <time>2020-10-31T12:37:05.400Z</time>
      </trkpt>
      <trkpt lat="46.8423" lon="6.54218">
        <ele>1416.32</ele>
        <time>2020-10-31T12:37:05.400Z</time>
      </trkpt>
      <trkpt lat="46.84227" lon="6.54219">
        <ele>1415.09</ele>
        <time>2020-10-31T12:37:06.035Z</time>
      </trkpt>
      <trkpt lat="46.84219" lon="6.54226">
        <ele>1412.36</ele>
        <time>2020-10-31T12:37:07.961Z</time>
      </trkpt>
      <trkpt lat="46.84204" lon="6.5423">
        <ele>1409.03</ele>
        <time>2020-10-31T12:37:11.110Z</time>
      </trkpt>
      <trkpt lat="46.84199" lon="6.54234">
        <ele>1408.25</ele>
        <time>2020-10-31T12:37:12.288Z</time>
      </trkpt>
      <trkpt lat="46.84187" lon="6.54253">
        <ele>1403.86</ele>
        <time>2020-10-31T12:37:15.941Z</time>
      </trkpt>
      <trkpt lat="46.84182" lon="6.54263">
        <ele>1401.71</ele>
        <time>2020-10-31T12:37:17.691Z</time>
      </trkpt>
      <trkpt lat="46.8418" lon="6.54266">
        <ele>1400.73</ele>
        <time>2020-10-31T12:37:18.283Z</time>
      </trkpt>
      <trkpt lat="46.84179" lon="6.54267">
        <ele>1400.25</ele>
        <time>2020-10-31T12:37:18.534Z</time>
      </trkpt>
      <trkpt lat="46.84176" lon="6.54275">
        <ele>1398.84</ele>
        <time>2020-10-31T12:37:19.823Z</time>
      </trkpt>
      <trkpt lat="46.84174" lon="6.54278">
        <ele>1397.91</ele>
        <time>2020-10-31T12:37:20.414Z</time>
      </trkpt>
      <trkpt lat="46.84172" lon="6.5428">
        <ele>1397.29</ele>
        <time>2020-10-31T12:37:20.915Z</time>
      </trkpt>
      <trkpt lat="46.8417" lon="6.54281">
        <ele>1396.86</ele>
        <time>2020-10-31T12:37:21.351Z</time>
      </trkpt>
      <trkpt lat="46.84167" lon="6.54282">
        <ele>1395.89</ele>
        <time>2020-10-31T12:37:21.987Z</time>
      </trkpt>
      <trkpt lat="46.84162" lon="6.54284">
        <ele>1394.93</ele>
        <time>2020-10-31T12:37:23.058Z</time>
      </trkpt>
      <trkpt lat="46.8416" lon="6.54287">
        <ele>1394.41</ele>
        <time>2020-10-31T12:37:23.650Z</time>
      </trkpt>
      <trkpt lat="46.84151" lon="6.54298">
        <ele>1392.43</ele>
        <time>2020-10-31T12:37:26.073Z</time>
      </trkpt>
      <trkpt lat="46.84149" lon="6.543">
        <ele>1391.92</ele>
        <time>2020-10-31T12:37:26.573Z</time>
      </trkpt>
      <trkpt lat="46.84146" lon="6.54304">
        <ele>1391.32</ele>
        <time>2020-10-31T12:37:27.412Z</time>
      </trkpt>
      <trkpt lat="46.84144" lon="6.54308">
        <ele>1391.08</ele>
        <time>2020-10-31T12:37:28.112Z</time>
      </trkpt>
      <trkpt lat="46.84142" lon="6.54313">
        <ele>1390.73</ele>
        <time>2020-10-31T12:37:28.930Z</time>
      </trkpt>
      <trkpt lat="46.84137" lon="6.54318">
        <ele>1388.7</ele>
        <time>2020-10-31T12:37:30.181Z</time>
      </trkpt>
      <trkpt lat="46.84128" lon="6.54323">
        <ele>1387.32</ele>
        <time>2020-10-31T12:37:32.170Z</time>
      </trkpt>
      <trkpt lat="46.84128" lon="6.54324">
        <ele>1387.32</ele>
        <time>2020-10-31T12:37:32.776Z</time>
      </trkpt>
      <trkpt lat="46.84128" lon="6.54324">
        <ele>1385.94</ele>
        <time>2020-10-31T12:37:32.776Z</time>
      </trkpt>
      <trkpt lat="46.84125" lon="6.54327">
        <ele>1385.37</ele>
        <time>2020-10-31T12:37:33.526Z</time>
      </trkpt>
      <trkpt lat="46.84122" lon="6.5433">
        <ele>1385.3</ele>
        <time>2020-10-31T12:37:34.600Z</time>
      </trkpt>
      <trkpt lat="46.84116" lon="6.54331">
        <ele>1384.1</ele>
        <time>2020-10-31T12:37:35.847Z</time>
      </trkpt>
      <trkpt lat="46.84112" lon="6.54336">
        <ele>1383.03</ele>
        <time>2020-10-31T12:37:36.934Z</time>
      </trkpt>
      <trkpt lat="46.84106" lon="6.54341">
        <ele>1381.57</ele>
        <time>2020-10-31T12:37:38.361Z</time>
      </trkpt>
      <trkpt lat="46.84104" lon="6.54341">
        <ele>1381.26</ele>
        <time>2020-10-31T12:37:38.774Z</time>
      </trkpt>
      <trkpt lat="46.84092" lon="6.54336">
        <ele>1378.59</ele>
        <time>2020-10-31T12:37:41.351Z</time>
      </trkpt>
      <trkpt lat="46.84097" lon="6.5435">
        <ele>1379.09</ele>
        <time>2020-10-31T12:37:57.675Z</time>
      </trkpt>
      <trkpt lat="46.84101" lon="6.54359">
        <ele>1379.35</ele>
        <time>2020-10-31T12:38:07.294Z</time>
      </trkpt>
      <trkpt lat="46.84105" lon="6.54366">
        <ele>1379.61</ele>
        <time>2020-10-31T12:38:16.227Z</time>
      </trkpt>
      <trkpt lat="46.84109" lon="6.54372">
        <ele>1379.86</ele>
        <time>2020-10-31T12:38:24.676Z</time>
      </trkpt>
      <trkpt lat="46.84112" lon="6.54377">
        <ele>1379.94</ele>
        <time>2020-10-31T12:38:29.477Z</time>
      </trkpt>
      <trkpt lat="46.84123" lon="6.54387">
        <ele>1380.42</ele>
        <time>2020-10-31T12:38:46.835Z</time>
      </trkpt>
      <trkpt lat="46.84128" lon="6.54391">
        <ele>1380.67</ele>
        <time>2020-10-31T12:38:55.269Z</time>
      </trkpt>
      <trkpt lat="46.84132" lon="6.54394">
        <ele>1380.9</ele>
        <time>2020-10-31T12:39:02.281Z</time>
      </trkpt>
      <trkpt lat="46.84127" lon="6.54401">
        <ele>1379.63</ele>
        <time>2020-10-31T12:39:03.711Z</time>
      </trkpt>
      <trkpt lat="46.84124" lon="6.54406">
        <ele>1378.46</ele>
        <time>2020-10-31T12:39:04.650Z</time>
      </trkpt>
      <trkpt lat="46.84124" lon="6.54411">
        <ele>1377.45</ele>
        <time>2020-10-31T12:39:05.357Z</time>
      </trkpt>
      <trkpt lat="46.84124" lon="6.54416">
        <ele>1376.83</ele>
        <time>2020-10-31T12:39:06.063Z</time>
      </trkpt>
      <trkpt lat="46.84125" lon="6.54418">
        <ele>1376.66</ele>
        <time>2020-10-31T12:39:06.413Z</time>
      </trkpt>
      <trkpt lat="46.84128" lon="6.54428">
        <ele>1375.44</ele>
        <time>2020-10-31T12:39:07.956Z</time>
      </trkpt>
      <trkpt lat="46.8413" lon="6.54434">
        <ele>1374.88</ele>
        <time>2020-10-31T12:39:08.899Z</time>
      </trkpt>
      <trkpt lat="46.84133" lon="6.54443">
        <ele>1373.98</ele>
        <time>2020-10-31T12:39:10.314Z</time>
      </trkpt>
      <trkpt lat="46.84137" lon="6.54453">
        <ele>1372.68</ele>
        <time>2020-10-31T12:39:11.950Z</time>
      </trkpt>
      <trkpt lat="46.8414" lon="6.54464">
        <ele>1371.89</ele>
        <time>2020-10-31T12:39:13.623Z</time>
      </trkpt>
      <trkpt lat="46.84142" lon="6.54483">
        <ele>1370.6</ele>
        <time>2020-10-31T12:39:16.339Z</time>
      </trkpt>
      <trkpt lat="46.84142" lon="6.54482">
        <ele>1370.6</ele>
        <time>2020-10-31T12:39:16.945Z</time>
      </trkpt>
      <trkpt lat="46.84143" lon="6.5449">
        <ele>1369.3</ele>
        <time>2020-10-31T12:39:18.094Z</time>
      </trkpt>
      <trkpt lat="46.84146" lon="6.54511">
        <ele>1367.32</ele>
        <time>2020-10-31T12:39:21.125Z</time>
      </trkpt>
      <trkpt lat="46.84147" lon="6.54518">
        <ele>1366.47</ele>
        <time>2020-10-31T12:39:22.135Z</time>
      </trkpt>
      <trkpt lat="46.84148" lon="6.54524">
        <ele>1365.44</ele>
        <time>2020-10-31T12:39:23.008Z</time>
      </trkpt>
      <trkpt lat="46.84151" lon="6.54534">
        <ele>1364.05</ele>
        <time>2020-10-31T12:39:24.551Z</time>
      </trkpt>
      <trkpt lat="46.84151" lon="6.54544">
        <ele>1362.88</ele>
        <time>2020-10-31T12:39:25.963Z</time>
      </trkpt>
      <trkpt lat="46.8415" lon="6.5455">
        <ele>1362.16</ele>
        <time>2020-10-31T12:39:26.836Z</time>
      </trkpt>
      <trkpt lat="46.8415" lon="6.54552">
        <ele>1361.7</ele>
        <time>2020-10-31T12:39:27.118Z</time>
      </trkpt>
      <trkpt lat="46.84151" lon="6.54555">
        <ele>1361.28</ele>
        <time>2020-10-31T12:39:27.590Z</time>
      </trkpt>
      <trkpt lat="46.84155" lon="6.54562">
        <ele>1360.87</ele>
        <time>2020-10-31T12:39:28.779Z</time>
      </trkpt>
      <trkpt lat="46.84156" lon="6.54569">
        <ele>1360.08</ele>
        <time>2020-10-31T12:39:29.789Z</time>
      </trkpt>
      <trkpt lat="46.84158" lon="6.54575">
        <ele>1359.64</ele>
        <time>2020-10-31T12:39:30.732Z</time>
      </trkpt>
      <trkpt lat="46.84159" lon="6.5458">
        <ele>1359.9</ele>
        <time>2020-10-31T12:39:37.225Z</time>
      </trkpt>
      <trkpt lat="46.84158" lon="6.54584">
        <ele>1359.35</ele>
        <time>2020-10-31T12:39:37.827Z</time>
      </trkpt>
      <trkpt lat="46.84158" lon="6.5459">
        <ele>1358.84</ele>
        <time>2020-10-31T12:39:38.674Z</time>
      </trkpt>
      <trkpt lat="46.8416" lon="6.54595">
        <ele>1358.7</ele>
        <time>2020-10-31T12:39:39.657Z</time>
      </trkpt>
      <trkpt lat="46.8416" lon="6.54601">
        <ele>1358.54</ele>
        <time>2020-10-31T12:39:40.640Z</time>
      </trkpt>
      <trkpt lat="46.84158" lon="6.5461">
        <ele>1357.45</ele>
        <time>2020-10-31T12:39:41.977Z</time>
      </trkpt>
      <trkpt lat="46.84157" lon="6.54617">
        <ele>1357.06</ele>
        <time>2020-10-31T12:39:42.988Z</time>
      </trkpt>
      <trkpt lat="46.84155" lon="6.54628">
        <ele>1356.01</ele>
        <time>2020-10-31T12:39:44.596Z</time>
      </trkpt>
      <trkpt lat="46.84154" lon="6.54638">
        <ele>1354.49</ele>
        <time>2020-10-31T12:39:46.024Z</time>
      </trkpt>
      <trkpt lat="46.8415" lon="6.54649">
        <ele>1352.13</ele>
        <time>2020-10-31T12:39:47.784Z</time>
      </trkpt>
      <trkpt lat="46.84144" lon="6.5467">
        <ele>1349.14</ele>
        <time>2020-10-31T12:39:50.999Z</time>
      </trkpt>
      <trkpt lat="46.8414" lon="6.5468">
        <ele>1347.08</ele>
        <time>2020-10-31T12:39:52.636Z</time>
      </trkpt>
      <trkpt lat="46.84137" lon="6.54691">
        <ele>1345.58</ele>
        <time>2020-10-31T12:39:54.309Z</time>
      </trkpt>
      <trkpt lat="46.84136" lon="6.54705">
        <ele>1344.96</ele>
        <time>2020-10-31T12:39:56.163Z</time>
      </trkpt>
      <trkpt lat="46.84133" lon="6.54726">
        <ele>1343.71</ele>
        <time>2020-10-31T12:39:59.194Z</time>
      </trkpt>
      <trkpt lat="46.8413" lon="6.54732">
        <ele>1343.14</ele>
        <time>2020-10-31T12:40:00.244Z</time>
      </trkpt>
      <trkpt lat="46.84127" lon="6.54749">
        <ele>1342.28</ele>
        <time>2020-10-31T12:40:02.724Z</time>
      </trkpt>
      <trkpt lat="46.84117" lon="6.54781">
        <ele>1340.07</ele>
        <time>2020-10-31T12:40:07.695Z</time>
      </trkpt>
      <trkpt lat="46.84113" lon="6.54792">
        <ele>1339.69</ele>
        <time>2020-10-31T12:40:09.631Z</time>
      </trkpt>
      <trkpt lat="46.84107" lon="6.54803">
        <ele>1338.83</ele>
        <time>2020-10-31T12:40:11.619Z</time>
      </trkpt>
      <trkpt lat="46.84108" lon="6.54811">
        <ele>1339.35</ele>
        <time>2020-10-31T12:40:23.659Z</time>
      </trkpt>
      <trkpt lat="46.84108" lon="6.54818">
        <ele>1339.32</ele>
        <time>2020-10-31T12:40:27.527Z</time>
      </trkpt>
      <trkpt lat="46.8411" lon="6.54829">
        <ele>1339</ele>
        <time>2020-10-31T12:40:29.354Z</time>
      </trkpt>
      <trkpt lat="46.84112" lon="6.54843">
        <ele>1338.26</ele>
        <time>2020-10-31T12:40:31.375Z</time>
      </trkpt>
      <trkpt lat="46.84118" lon="6.54855">
        <ele>1336.73</ele>
        <time>2020-10-31T12:40:33.475Z</time>
      </trkpt>
      <trkpt lat="46.84121" lon="6.54862">
        <ele>1336.17</ele>
        <time>2020-10-31T12:40:34.642Z</time>
      </trkpt>
      <trkpt lat="46.84123" lon="6.54868">
        <ele>1335.85</ele>
        <time>2020-10-31T12:40:35.585Z</time>
      </trkpt>
      <trkpt lat="46.84123" lon="6.54876">
        <ele>1335.55</ele>
        <time>2020-10-31T12:40:36.722Z</time>
      </trkpt>
      <trkpt lat="46.84123" lon="6.54875">
        <ele>1335.55</ele>
        <time>2020-10-31T12:40:37.328Z</time>
      </trkpt>
      <trkpt lat="46.84123" lon="6.54877">
        <ele>1335.26</ele>
        <time>2020-10-31T12:40:37.611Z</time>
      </trkpt>
      <trkpt lat="46.84123" lon="6.54913">
        <ele>1332.86</ele>
        <time>2020-10-31T12:40:42.697Z</time>
      </trkpt>
      <trkpt lat="46.84125" lon="6.54928">
        <ele>1332.21</ele>
        <time>2020-10-31T12:40:44.744Z</time>
      </trkpt>
      <trkpt lat="46.84125" lon="6.54937">
        <ele>1331.96</ele>
        <time>2020-10-31T12:40:46.196Z</time>
      </trkpt>
      <trkpt lat="46.84125" lon="6.5494">
        <ele>1331.8</ele>
        <time>2020-10-31T12:40:46.620Z</time>
      </trkpt>
      <trkpt lat="46.84118" lon="6.54954">
        <ele>1329.51</ele>
        <time>2020-10-31T12:40:49.070Z</time>
      </trkpt>
      <trkpt lat="46.84115" lon="6.54959">
        <ele>1328.71</ele>
        <time>2020-10-31T12:40:50.010Z</time>
      </trkpt>
      <trkpt lat="46.84116" lon="6.54965">
        <ele>1327.96</ele>
        <time>2020-10-31T12:40:50.882Z</time>
      </trkpt>
      <trkpt lat="46.84118" lon="6.54979">
        <ele>1327.43</ele>
        <time>2020-10-31T12:40:52.927Z</time>
      </trkpt>
      <trkpt lat="46.84119" lon="6.54991">
        <ele>1327.09</ele>
        <time>2020-10-31T12:40:54.867Z</time>
      </trkpt>
      <trkpt lat="46.8412" lon="6.55001">
        <ele>1326.68</ele>
        <time>2020-10-31T12:40:56.253Z</time>
      </trkpt>
      <trkpt lat="46.84124" lon="6.55013">
        <ele>1326.42</ele>
        <time>2020-10-31T12:40:58.684Z</time>
      </trkpt>
      <trkpt lat="46.8413" lon="6.55028">
        <ele>1325.84</ele>
        <time>2020-10-31T12:41:01.286Z</time>
      </trkpt>
      <trkpt lat="46.84133" lon="6.55042">
        <ele>1324.59</ele>
        <time>2020-10-31T12:41:03.359Z</time>
      </trkpt>
      <trkpt lat="46.84137" lon="6.55059">
        <ele>1323.42</ele>
        <time>2020-10-31T12:41:05.899Z</time>
      </trkpt>
      <trkpt lat="46.84138" lon="6.55067">
        <ele>1322.71</ele>
        <time>2020-10-31T12:41:07.048Z</time>
      </trkpt>
      <trkpt lat="46.84136" lon="6.5508">
        <ele>1320.96</ele>
        <time>2020-10-31T12:41:08.930Z</time>
      </trkpt>
      <trkpt lat="46.84137" lon="6.55091">
        <ele>1319.62</ele>
        <time>2020-10-31T12:41:10.498Z</time>
      </trkpt>
      <trkpt lat="46.8414" lon="6.55106">
        <ele>1318.45</ele>
        <time>2020-10-31T12:41:12.706Z</time>
      </trkpt>
      <trkpt lat="46.84144" lon="6.55119">
        <ele>1318.12</ele>
        <time>2020-10-31T12:41:15.162Z</time>
      </trkpt>
      <trkpt lat="46.84149" lon="6.55126">
        <ele>1318.32</ele>
        <time>2020-10-31T12:41:23.496Z</time>
      </trkpt>
      <trkpt lat="46.84155" lon="6.55145">
        <ele>1317.28</ele>
        <time>2020-10-31T12:41:26.452Z</time>
      </trkpt>
      <trkpt lat="46.8416" lon="6.55155">
        <ele>1316.45</ele>
        <time>2020-10-31T12:41:28.202Z</time>
      </trkpt>
      <trkpt lat="46.84165" lon="6.55165">
        <ele>1315.67</ele>
        <time>2020-10-31T12:41:29.952Z</time>
      </trkpt>
      <trkpt lat="46.84167" lon="6.55174">
        <ele>1315.53</ele>
        <time>2020-10-31T12:41:31.812Z</time>
      </trkpt>
      <trkpt lat="46.84179" lon="6.55186">
        <ele>1315.35</ele>
        <time>2020-10-31T12:41:36.486Z</time>
      </trkpt>
      <trkpt lat="46.84181" lon="6.55197">
        <ele>1314.5</ele>
        <time>2020-10-31T12:41:38.095Z</time>
      </trkpt>
      <trkpt lat="46.84183" lon="6.55212">
        <ele>1312.65</ele>
        <time>2020-10-31T12:41:40.254Z</time>
      </trkpt>
      <trkpt lat="46.84184" lon="6.55225">
        <ele>1310.36</ele>
        <time>2020-10-31T12:41:42.102Z</time>
      </trkpt>
      <trkpt lat="46.84184" lon="6.55236">
        <ele>1308.43</ele>
        <time>2020-10-31T12:41:43.656Z</time>
      </trkpt>
      <trkpt lat="46.84185" lon="6.55244">
        <ele>1307.49</ele>
        <time>2020-10-31T12:41:44.805Z</time>
      </trkpt>
      <trkpt lat="46.84188" lon="6.55252">
        <ele>1306.83</ele>
        <time>2020-10-31T12:41:46.094Z</time>
      </trkpt>
      <trkpt lat="46.84192" lon="6.55271">
        <ele>1304.56</ele>
        <time>2020-10-31T12:41:48.903Z</time>
      </trkpt>
      <trkpt lat="46.84195" lon="6.55282">
        <ele>1303.16</ele>
        <time>2020-10-31T12:41:50.576Z</time>
      </trkpt>
      <trkpt lat="46.842" lon="6.55295">
        <ele>1301.91</ele>
        <time>2020-10-31T12:41:52.683Z</time>
      </trkpt>
      <trkpt lat="46.84205" lon="6.55311">
        <ele>1299.86</ele>
        <time>2020-10-31T12:41:55.168Z</time>
      </trkpt>
      <trkpt lat="46.84208" lon="6.55318">
        <ele>1299.37</ele>
        <time>2020-10-31T12:41:56.335Z</time>
      </trkpt>
      <trkpt lat="46.84219" lon="6.55331">
        <ele>1297.86</ele>
        <time>2020-10-31T12:41:59.257Z</time>
      </trkpt>
      <trkpt lat="46.84224" lon="6.5534">
        <ele>1297.26</ele>
        <time>2020-10-31T12:42:00.895Z</time>
      </trkpt>
      <trkpt lat="46.84224" lon="6.55339">
        <ele>1297.26</ele>
        <time>2020-10-31T12:42:01.501Z</time>
      </trkpt>
      <trkpt lat="46.84225" lon="6.55341">
        <ele>1296.67</ele>
        <time>2020-10-31T12:42:01.851Z</time>
      </trkpt>
      <trkpt lat="46.8423" lon="6.55346">
        <ele>1296.19</ele>
        <time>2020-10-31T12:42:03.102Z</time>
      </trkpt>
      <trkpt lat="46.84235" lon="6.55352">
        <ele>1295.87</ele>
        <time>2020-10-31T12:42:04.509Z</time>
      </trkpt>
      <trkpt lat="46.84256" lon="6.55397">
        <ele>1290.17</ele>
        <time>2020-10-31T12:42:12.206Z</time>
      </trkpt>
      <trkpt lat="46.84258" lon="6.55406">
        <ele>1288.6</ele>
        <time>2020-10-31T12:42:13.543Z</time>
      </trkpt>
      <trkpt lat="46.84266" lon="6.55424">
        <ele>1285.26</ele>
        <time>2020-10-31T12:42:16.575Z</time>
      </trkpt>
      <trkpt lat="46.8427" lon="6.55438">
        <ele>1282.5</ele>
        <time>2020-10-31T12:42:18.719Z</time>
      </trkpt>
      <trkpt lat="46.84275" lon="6.55455">
        <ele>1278.4</ele>
        <time>2020-10-31T12:42:21.333Z</time>
      </trkpt>
      <trkpt lat="46.84278" lon="6.55472">
        <ele>1275.71</ele>
        <time>2020-10-31T12:42:23.814Z</time>
      </trkpt>
      <trkpt lat="46.84281" lon="6.55485">
        <ele>1273.76</ele>
        <time>2020-10-31T12:42:25.752Z</time>
      </trkpt>
      <trkpt lat="46.84283" lon="6.55496">
        <ele>1272.58</ele>
        <time>2020-10-31T12:42:27.360Z</time>
      </trkpt>
      <trkpt lat="46.84285" lon="6.55506">
        <ele>1271.43</ele>
        <time>2020-10-31T12:42:28.832Z</time>
      </trkpt>
      <trkpt lat="46.84287" lon="6.55515">
        <ele>1270.71</ele>
        <time>2020-10-31T12:42:30.169Z</time>
      </trkpt>
      <trkpt lat="46.84289" lon="6.55522">
        <ele>1270.12</ele>
        <time>2020-10-31T12:42:31.241Z</time>
      </trkpt>
      <trkpt lat="46.84301" lon="6.5554">
        <ele>1267.36</ele>
        <time>2020-10-31T12:42:34.792Z</time>
      </trkpt>
      <trkpt lat="46.84304" lon="6.55546">
        <ele>1266.26</ele>
        <time>2020-10-31T12:42:35.842Z</time>
      </trkpt>
      <trkpt lat="46.84308" lon="6.5556">
        <ele>1264.71</ele>
        <time>2020-10-31T12:42:37.986Z</time>
      </trkpt>
      <trkpt lat="46.8431" lon="6.55572">
        <ele>1264.12</ele>
        <time>2020-10-31T12:42:39.731Z</time>
      </trkpt>
      <trkpt lat="46.8431" lon="6.55577">
        <ele>1263.97</ele>
        <time>2020-10-31T12:42:40.513Z</time>
      </trkpt>
      <trkpt lat="46.84314" lon="6.55598">
        <ele>1262.4</ele>
        <time>2020-10-31T12:42:43.593Z</time>
      </trkpt>
      <trkpt lat="46.84315" lon="6.55608">
        <ele>1261.1</ele>
        <time>2020-10-31T12:42:45.021Z</time>
      </trkpt>
      <trkpt lat="46.84315" lon="6.55618">
        <ele>1259.97</ele>
        <time>2020-10-31T12:42:46.434Z</time>
      </trkpt>
      <trkpt lat="46.84313" lon="6.55628">
        <ele>1258.64</ele>
        <time>2020-10-31T12:42:47.906Z</time>
      </trkpt>
      <trkpt lat="46.84313" lon="6.55632">
        <ele>1258.33</ele>
        <time>2020-10-31T12:42:48.471Z</time>
      </trkpt>
      <trkpt lat="46.84311" lon="6.55646">
        <ele>1257.1</ele>
        <time>2020-10-31T12:42:50.491Z</time>
      </trkpt>
      <trkpt lat="46.84312" lon="6.55655">
        <ele>1256.05</ele>
        <time>2020-10-31T12:42:51.780Z</time>
      </trkpt>
      <trkpt lat="46.84312" lon="6.55665">
        <ele>1254.25</ele>
        <time>2020-10-31T12:42:53.192Z</time>
      </trkpt>
      <trkpt lat="46.84312" lon="6.55671">
        <ele>1253.39</ele>
        <time>2020-10-31T12:42:54.040Z</time>
      </trkpt>
      <trkpt lat="46.84314" lon="6.55677">
        <ele>1252.75</ele>
        <time>2020-10-31T12:42:54.983Z</time>
      </trkpt>
      <trkpt lat="46.84313" lon="6.55687">
        <ele>1251.46</ele>
        <time>2020-10-31T12:42:56.411Z</time>
      </trkpt>
      <trkpt lat="46.84312" lon="6.55701">
        <ele>1250.42</ele>
        <time>2020-10-31T12:42:58.400Z</time>
      </trkpt>
      <trkpt lat="46.84312" lon="6.55728">
        <ele>1247.66</ele>
        <time>2020-10-31T12:43:02.214Z</time>
      </trkpt>
      <trkpt lat="46.84314" lon="6.55758">
        <ele>1243.6</ele>
        <time>2020-10-31T12:43:06.473Z</time>
      </trkpt>
      <trkpt lat="46.84314" lon="6.55757">
        <ele>1243.6</ele>
        <time>2020-10-31T12:43:07.078Z</time>
      </trkpt>
      <trkpt lat="46.84317" lon="6.55792">
        <ele>1239.54</ele>
        <time>2020-10-31T12:43:12.062Z</time>
      </trkpt>
      <trkpt lat="46.84321" lon="6.55822">
        <ele>1235.66</ele>
        <time>2020-10-31T12:43:16.380Z</time>
      </trkpt>
      <trkpt lat="46.84323" lon="6.55833">
        <ele>1234.01</ele>
        <time>2020-10-31T12:43:17.988Z</time>
      </trkpt>
      <trkpt lat="46.84323" lon="6.55838">
        <ele>1233.16</ele>
        <time>2020-10-31T12:43:18.694Z</time>
      </trkpt>
      <trkpt lat="46.84321" lon="6.55845">
        <ele>1232.29</ele>
        <time>2020-10-31T12:43:19.766Z</time>
      </trkpt>
      <trkpt lat="46.84318" lon="6.55851">
        <ele>1230.81</ele>
        <time>2020-10-31T12:43:20.816Z</time>
      </trkpt>
      <trkpt lat="46.84314" lon="6.55862">
        <ele>1228.26</ele>
        <time>2020-10-31T12:43:22.576Z</time>
      </trkpt>
      <trkpt lat="46.84312" lon="6.55873">
        <ele>1226.46</ele>
        <time>2020-10-31T12:43:24.184Z</time>
      </trkpt>
      <trkpt lat="46.8431" lon="6.55889">
        <ele>1224.13</ele>
        <time>2020-10-31T12:43:26.482Z</time>
      </trkpt>
      <trkpt lat="46.8431" lon="6.55897">
        <ele>1222.76</ele>
        <time>2020-10-31T12:43:27.612Z</time>
      </trkpt>
      <trkpt lat="46.84309" lon="6.559">
        <ele>1221.97</ele>
        <time>2020-10-31T12:43:28.084Z</time>
      </trkpt>
      <trkpt lat="46.84308" lon="6.55907">
        <ele>1221.06</ele>
        <time>2020-10-31T12:43:29.094Z</time>
      </trkpt>
      <trkpt lat="46.84307" lon="6.55912">
        <ele>1220.14</ele>
        <time>2020-10-31T12:43:29.830Z</time>
      </trkpt>
      <trkpt lat="46.84305" lon="6.55929">
        <ele>1218.14</ele>
        <time>2020-10-31T12:43:32.267Z</time>
      </trkpt>
      <trkpt lat="46.843" lon="6.55942">
        <ele>1216.45</ele>
        <time>2020-10-31T12:43:34.374Z</time>
      </trkpt>
      <trkpt lat="46.84293" lon="6.55955">
        <ele>1214.49</ele>
        <time>2020-10-31T12:43:36.712Z</time>
      </trkpt>
      <trkpt lat="46.84282" lon="6.55966">
        <ele>1212.45</ele>
        <time>2020-10-31T12:43:39.465Z</time>
      </trkpt>
      <trkpt lat="46.84276" lon="6.5597">
        <ele>1211.48</ele>
        <time>2020-10-31T12:43:40.827Z</time>
      </trkpt>
      <trkpt lat="46.8427" lon="6.55972">
        <ele>1210.78</ele>
        <time>2020-10-31T12:43:42.098Z</time>
      </trkpt>
      <trkpt lat="46.84266" lon="6.55974">
        <ele>1210.44</ele>
        <time>2020-10-31T12:43:42.971Z</time>
      </trkpt>
      <trkpt lat="46.84262" lon="6.55979">
        <ele>1210.11</ele>
        <time>2020-10-31T12:43:43.998Z</time>
      </trkpt>
      <trkpt lat="46.8426" lon="6.55986">
        <ele>1209.74</ele>
        <time>2020-10-31T12:43:45.069Z</time>
      </trkpt>
      <trkpt lat="46.84259" lon="6.55991">
        <ele>1209.48</ele>
        <time>2020-10-31T12:43:45.805Z</time>
      </trkpt>
      <trkpt lat="46.84253" lon="6.55999">
        <ele>1209.16</ele>
        <time>2020-10-31T12:43:47.742Z</time>
      </trkpt>
      <trkpt lat="46.84282" lon="6.56041">
        <ele>1209.29</ele>
        <time>2020-10-31T12:44:24.963Z</time>
      </trkpt>
      <trkpt lat="46.84339" lon="6.56115">
        <ele>1210.21</ele>
        <time>2020-10-31T12:45:40.829Z</time>
      </trkpt>
      <trkpt lat="46.84358" lon="6.56139">
        <ele>1210.64</ele>
        <time>2020-10-31T12:46:07.191Z</time>
      </trkpt>
      <trkpt lat="46.84357" lon="6.56139">
        <ele>1210.64</ele>
        <time>2020-10-31T12:46:08.077Z</time>
      </trkpt>
      <trkpt lat="46.8438" lon="6.56169">
        <ele>1211.07</ele>
        <time>2020-10-31T12:46:39.359Z</time>
      </trkpt>
      <trkpt lat="46.84382" lon="6.56173">
        <ele>1211.1</ele>
        <time>2020-10-31T12:46:42.624Z</time>
      </trkpt>
      <trkpt lat="46.84383" lon="6.56176">
        <ele>1211.01</ele>
        <time>2020-10-31T12:46:43.168Z</time>
      </trkpt>
      <trkpt lat="46.84383" lon="6.56179">
        <ele>1210.95</ele>
        <time>2020-10-31T12:46:43.710Z</time>
      </trkpt>
      <trkpt lat="46.84398" lon="6.56177">
        <ele>1211.5</ele>
        <time>2020-10-31T12:47:03.744Z</time>
      </trkpt>
      <trkpt lat="46.84402" lon="6.56177">
        <ele>1211.62</ele>
        <time>2020-10-31T12:47:08.627Z</time>
      </trkpt>
      <trkpt lat="46.84406" lon="6.56177">
        <ele>1211.68</ele>
        <time>2020-10-31T12:47:12.731Z</time>
      </trkpt>
      <trkpt lat="46.84412" lon="6.56179">
        <ele>1211.83</ele>
        <time>2020-10-31T12:47:19.745Z</time>
      </trkpt>
      <trkpt lat="46.84422" lon="6.56187">
        <ele>1212.04</ele>
        <time>2020-10-31T12:47:31.884Z</time>
      </trkpt>
      <trkpt lat="46.84451" lon="6.56212">
        <ele>1212.69</ele>
        <time>2020-10-31T12:48:08.088Z</time>
      </trkpt>
      <trkpt lat="46.84456" lon="6.56215">
        <ele>1212.91</ele>
        <time>2020-10-31T12:48:15.717Z</time>
      </trkpt>
      <trkpt lat="46.84463" lon="6.56218">
        <ele>1213.25</ele>
        <time>2020-10-31T12:48:26.762Z</time>
      </trkpt>
      <trkpt lat="46.84473" lon="6.56222">
        <ele>1213.75</ele>
        <time>2020-10-31T12:48:42.625Z</time>
      </trkpt>
      <trkpt lat="46.8449" lon="6.56227">
        <ele>1214.95</ele>
        <time>2020-10-31T12:49:13.329Z</time>
      </trkpt>
      <trkpt lat="46.84498" lon="6.56227">
        <ele>1215.59</ele>
        <time>2020-10-31T12:49:28.741Z</time>
      </trkpt>
      <trkpt lat="46.84507" lon="6.56228">
        <ele>1216.37</ele>
        <time>2020-10-31T12:49:47.090Z</time>
      </trkpt>
      <trkpt lat="46.84543" lon="6.56226">
        <ele>1219.82</ele>
        <time>2020-10-31T12:51:06.734Z</time>
      </trkpt>
      <trkpt lat="46.84556" lon="6.56225">
        <ele>1221.12</ele>
        <time>2020-10-31T12:51:36.661Z</time>
      </trkpt>
      <trkpt lat="46.84568" lon="6.56225">
        <ele>1222.28</ele>
        <time>2020-10-31T12:52:03.416Z</time>
      </trkpt>
      <trkpt lat="46.84577" lon="6.56226">
        <ele>1223.14</ele>
        <time>2020-10-31T12:52:23.281Z</time>
      </trkpt>
      <trkpt lat="46.84586" lon="6.56227">
        <ele>1224.05</ele>
        <time>2020-10-31T12:52:44.226Z</time>
      </trkpt>
      <trkpt lat="46.84598" lon="6.56232">
        <ele>1225.28</ele>
        <time>2020-10-31T12:53:12.556Z</time>
      </trkpt>
      <trkpt lat="46.84624" lon="6.56243">
        <ele>1227.91</ele>
        <time>2020-10-31T12:54:13.190Z</time>
      </trkpt>
      <trkpt lat="46.84634" lon="6.56248">
        <ele>1228.89</ele>
        <time>2020-10-31T12:54:35.909Z</time>
      </trkpt>
      <trkpt lat="46.84643" lon="6.56251">
        <ele>1229.83</ele>
        <time>2020-10-31T12:54:57.544Z</time>
      </trkpt>
      <trkpt lat="46.84653" lon="6.56253">
        <ele>1230.83</ele>
        <time>2020-10-31T12:55:20.572Z</time>
      </trkpt>
      <trkpt lat="46.84656" lon="6.56254">
        <ele>1231.75</ele>
        <time>2020-10-31T12:55:31.078Z</time>
      </trkpt>
      <trkpt lat="46.84656" lon="6.56253">
        <ele>1231.75</ele>
        <time>2020-10-31T12:55:31.683Z</time>
      </trkpt>
      <trkpt lat="46.84671" lon="6.56258">
        <ele>1232.66</ele>
        <time>2020-10-31T12:55:57.015Z</time>
      </trkpt>
      <trkpt lat="46.84679" lon="6.56261">
        <ele>1233.41</ele>
        <time>2020-10-31T12:56:14.465Z</time>
      </trkpt>
      <trkpt lat="46.84684" lon="6.56264">
        <ele>1233.89</ele>
        <time>2020-10-31T12:56:25.683Z</time>
      </trkpt>
      <trkpt lat="46.84706" lon="6.5629">
        <ele>1235.61</ele>
        <time>2020-10-31T12:57:12.804Z</time>
      </trkpt>
      <trkpt lat="46.84711" lon="6.56294">
        <ele>1235.86</ele>
        <time>2020-10-31T12:57:21.238Z</time>
      </trkpt>
      <trkpt lat="46.84718" lon="6.56299">
        <ele>1235.95</ele>
        <time>2020-10-31T12:57:28.950Z</time>
      </trkpt>
      <trkpt lat="46.84723" lon="6.56303">
        <ele>1235.76</ele>
        <time>2020-10-31T12:57:30.393Z</time>
      </trkpt>
      <trkpt lat="46.84726" lon="6.56308">
        <ele>1235.52</ele>
        <time>2020-10-31T12:57:31.356Z</time>
      </trkpt>
      <trkpt lat="46.84735" lon="6.56323">
        <ele>1235.13</ele>
        <time>2020-10-31T12:57:34.986Z</time>
      </trkpt>
      <trkpt lat="46.84739" lon="6.5633">
        <ele>1234.97</ele>
        <time>2020-10-31T12:57:36.699Z</time>
      </trkpt>
      <trkpt lat="46.84744" lon="6.56334">
        <ele>1234.8</ele>
        <time>2020-10-31T12:57:38.196Z</time>
      </trkpt>
      <trkpt lat="46.84753" lon="6.56343">
        <ele>1234.14</ele>
        <time>2020-10-31T12:57:40.359Z</time>
      </trkpt>
      <trkpt lat="46.84764" lon="6.56355">
        <ele>1233.58</ele>
        <time>2020-10-31T12:57:43.590Z</time>
      </trkpt>
      <trkpt lat="46.84774" lon="6.56368">
        <ele>1233.21</ele>
        <time>2020-10-31T12:57:47.185Z</time>
      </trkpt>
      <trkpt lat="46.84783" lon="6.56381">
        <ele>1233.03</ele>
        <time>2020-10-31T12:57:51.158Z</time>
      </trkpt>
      <trkpt lat="46.84792" lon="6.56398">
        <ele>1232.96</ele>
        <time>2020-10-31T12:58:03.288Z</time>
      </trkpt>
      <trkpt lat="46.84796" lon="6.56406">
        <ele>1233.05</ele>
        <time>2020-10-31T12:58:10.119Z</time>
      </trkpt>
      <trkpt lat="46.848" lon="6.56411">
        <ele>1233.17</ele>
        <time>2020-10-31T12:58:16.007Z</time>
      </trkpt>
      <trkpt lat="46.84805" lon="6.56416">
        <ele>1233.15</ele>
        <time>2020-10-31T12:58:21.111Z</time>
      </trkpt>
      <trkpt lat="46.84822" lon="6.5643">
        <ele>1233.21</ele>
        <time>2020-10-31T12:58:38.883Z</time>
      </trkpt>
      <trkpt lat="46.84831" lon="6.56439">
        <ele>1233.29</ele>
        <time>2020-10-31T12:58:49.231Z</time>
      </trkpt>
      <trkpt lat="46.84842" lon="6.5645">
        <ele>1233.53</ele>
        <time>2020-10-31T12:59:03.358Z</time>
      </trkpt>
      <trkpt lat="46.84855" lon="6.56467">
        <ele>1233.94</ele>
        <time>2020-10-31T12:59:23.034Z</time>
      </trkpt>
      <trkpt lat="46.84876" lon="6.56491">
        <ele>1235.32</ele>
        <time>2020-10-31T13:00:04.775Z</time>
      </trkpt>
      <trkpt lat="46.84888" lon="6.56503">
        <ele>1236.26</ele>
        <time>2020-10-31T13:00:29.669Z</time>
      </trkpt>
      <trkpt lat="46.849" lon="6.56514">
        <ele>1237.29</ele>
        <time>2020-10-31T13:00:55.426Z</time>
      </trkpt>
      <trkpt lat="46.84916" lon="6.56524">
        <ele>1238.08</ele>
        <time>2020-10-31T13:01:21.571Z</time>
      </trkpt>
      <trkpt lat="46.84936" lon="6.56538">
        <ele>1238.86</ele>
        <time>2020-10-31T13:01:50.531Z</time>
      </trkpt>
      <trkpt lat="46.84957" lon="6.56551">
        <ele>1240.18</ele>
        <time>2020-10-31T13:02:27.751Z</time>
      </trkpt>
      <trkpt lat="46.84967" lon="6.56556">
        <ele>1240.81</ele>
        <time>2020-10-31T13:02:45.209Z</time>
      </trkpt>
      <trkpt lat="46.84972" lon="6.56558">
        <ele>1241.22</ele>
        <time>2020-10-31T13:02:55.123Z</time>
      </trkpt>
      <trkpt lat="46.84972" lon="6.56557">
        <ele>1241.22</ele>
        <time>2020-10-31T13:02:55.728Z</time>
      </trkpt>
      <trkpt lat="46.84981" lon="6.5656">
        <ele>1241.62</ele>
        <time>2020-10-31T13:03:09.277Z</time>
      </trkpt>
      <trkpt lat="46.84988" lon="6.56561">
        <ele>1242.01</ele>
        <time>2020-10-31T13:03:20.567Z</time>
      </trkpt>
      <trkpt lat="46.84993" lon="6.56561">
        <ele>1242.36</ele>
        <time>2020-10-31T13:03:29.473Z</time>
      </trkpt>
      <trkpt lat="46.84998" lon="6.56558">
        <ele>1242.75</ele>
        <time>2020-10-31T13:03:39.260Z</time>
      </trkpt>
      <trkpt lat="46.8501" lon="6.5655">
        <ele>1243.39</ele>
        <time>2020-10-31T13:03:59.478Z</time>
      </trkpt>
      <trkpt lat="46.85014" lon="6.56548">
        <ele>1243.5</ele>
        <time>2020-10-31T13:04:04.391Z</time>
      </trkpt>
      <trkpt lat="46.85027" lon="6.56548">
        <ele>1243.66</ele>
        <time>2020-10-31T13:04:17.361Z</time>
      </trkpt>
      <trkpt lat="46.85034" lon="6.56546">
        <ele>1243.75</ele>
        <time>2020-10-31T13:04:24.500Z</time>
      </trkpt>
      <trkpt lat="46.85049" lon="6.5654">
        <ele>1244.22</ele>
        <time>2020-10-31T13:04:43.536Z</time>
      </trkpt>
      <trkpt lat="46.85054" lon="6.56547">
        <ele>1243.84</ele>
        <time>2020-10-31T13:04:44.974Z</time>
      </trkpt>
      <trkpt lat="46.85069" lon="6.56564">
        <ele>1242.55</ele>
        <time>2020-10-31T13:04:48.894Z</time>
      </trkpt>
      <trkpt lat="46.85078" lon="6.56573">
        <ele>1242.17</ele>
        <time>2020-10-31T13:04:51.613Z</time>
      </trkpt>
      <trkpt lat="46.85089" lon="6.56585">
        <ele>1241.92</ele>
        <time>2020-10-31T13:04:55.717Z</time>
      </trkpt>
      <trkpt lat="46.85096" lon="6.56594">
        <ele>1242.09</ele>
        <time>2020-10-31T13:05:05.623Z</time>
      </trkpt>
      <trkpt lat="46.85102" lon="6.566">
        <ele>1242.45</ele>
        <time>2020-10-31T13:05:16.840Z</time>
      </trkpt>
      <trkpt lat="46.85105" lon="6.56602">
        <ele>1242.55</ele>
        <time>2020-10-31T13:05:20.881Z</time>
      </trkpt>
      <trkpt lat="46.85109" lon="6.56604">
        <ele>1242.61</ele>
        <time>2020-10-31T13:05:25.182Z</time>
      </trkpt>
      <trkpt lat="46.85124" lon="6.56609">
        <ele>1242.68</ele>
        <time>2020-10-31T13:05:39.393Z</time>
      </trkpt>
      <trkpt lat="46.85137" lon="6.56613">
        <ele>1241.71</ele>
        <time>2020-10-31T13:05:42.137Z</time>
      </trkpt>
      <trkpt lat="46.85143" lon="6.56616">
        <ele>1241.49</ele>
        <time>2020-10-31T13:05:43.721Z</time>
      </trkpt>
      <trkpt lat="46.85145" lon="6.56618">
        <ele>1241.46</ele>
        <time>2020-10-31T13:05:44.500Z</time>
      </trkpt>
      <trkpt lat="46.85146" lon="6.56622">
        <ele>1241.35</ele>
        <time>2020-10-31T13:05:45.206Z</time>
      </trkpt>
      <trkpt lat="46.85146" lon="6.56628">
        <ele>1241.21</ele>
        <time>2020-10-31T13:05:46.236Z</time>
      </trkpt>
      <trkpt lat="46.85146" lon="6.5664">
        <ele>1241.21</ele>
        <time>2020-10-31T13:05:53.501Z</time>
      </trkpt>
      <trkpt lat="46.85146" lon="6.56651">
        <ele>1240.95</ele>
        <time>2020-10-31T13:05:55.382Z</time>
      </trkpt>
      <trkpt lat="46.85151" lon="6.56681">
        <ele>1240.72</ele>
        <time>2020-10-31T13:06:02.305Z</time>
      </trkpt>
      <trkpt lat="46.85155" lon="6.56701">
        <ele>1239.87</ele>
        <time>2020-10-31T13:06:05.153Z</time>
      </trkpt>
      <trkpt lat="46.85157" lon="6.56718">
        <ele>1238.68</ele>
        <time>2020-10-31T13:06:07.589Z</time>
      </trkpt>
      <trkpt lat="46.85158" lon="6.56727">
        <ele>1238.27</ele>
        <time>2020-10-31T13:06:08.778Z</time>
      </trkpt>
      <trkpt lat="46.8516" lon="6.56751">
        <ele>1236.99</ele>
        <time>2020-10-31T13:06:12.193Z</time>
      </trkpt>
      <trkpt lat="46.85162" lon="6.56768">
        <ele>1236.7</ele>
        <time>2020-10-31T13:06:15.471Z</time>
      </trkpt>
      <trkpt lat="46.85164" lon="6.56778">
        <ele>1236.56</ele>
        <time>2020-10-31T13:06:17.566Z</time>
      </trkpt>
      <trkpt lat="46.85167" lon="6.56806">
        <ele>1235.87</ele>
        <time>2020-10-31T13:06:22.363Z</time>
      </trkpt>
      <trkpt lat="46.8517" lon="6.56818">
        <ele>1235.58</ele>
        <time>2020-10-31T13:06:24.578Z</time>
      </trkpt>
      <trkpt lat="46.85175" lon="6.5683">
        <ele>1235.05</ele>
        <time>2020-10-31T13:06:26.571Z</time>
      </trkpt>
      <trkpt lat="46.85183" lon="6.56847">
        <ele>1234.75</ele>
        <time>2020-10-31T13:06:30.643Z</time>
      </trkpt>
      <trkpt lat="46.8519" lon="6.56859">
        <ele>1234.48</ele>
        <time>2020-10-31T13:06:33.625Z</time>
      </trkpt>
      <trkpt lat="46.85195" lon="6.5687">
        <ele>1234.32</ele>
        <time>2020-10-31T13:06:36.342Z</time>
      </trkpt>
      <trkpt lat="46.852" lon="6.56885">
        <ele>1233.74</ele>
        <time>2020-10-31T13:06:38.796Z</time>
      </trkpt>
      <trkpt lat="46.85201" lon="6.56892">
        <ele>1233.83</ele>
        <time>2020-10-31T13:06:44.003Z</time>
      </trkpt>
      <trkpt lat="46.85208" lon="6.56907">
        <ele>1233.55</ele>
        <time>2020-10-31T13:06:47.534Z</time>
      </trkpt>
      <trkpt lat="46.85212" lon="6.56919">
        <ele>1232.83</ele>
        <time>2020-10-31T13:06:49.420Z</time>
      </trkpt>
      <trkpt lat="46.85214" lon="6.56936">
        <ele>1231.03</ele>
        <time>2020-10-31T13:06:51.856Z</time>
      </trkpt>
      <trkpt lat="46.85218" lon="6.56951">
        <ele>1229.71</ele>
        <time>2020-10-31T13:06:54.130Z</time>
      </trkpt>
      <trkpt lat="46.85226" lon="6.5697">
        <ele>1228.66</ele>
        <time>2020-10-31T13:06:57.282Z</time>
      </trkpt>
      <trkpt lat="46.85233" lon="6.56987">
        <ele>1226.88</ele>
        <time>2020-10-31T13:07:00.085Z</time>
      </trkpt>
      <trkpt lat="46.85238" lon="6.57003">
        <ele>1225</ele>
        <time>2020-10-31T13:07:02.570Z</time>
      </trkpt>
      <trkpt lat="46.85239" lon="6.57014">
        <ele>1223.83</ele>
        <time>2020-10-31T13:07:04.138Z</time>
      </trkpt>
      <trkpt lat="46.85241" lon="6.57019">
        <ele>1223.37</ele>
        <time>2020-10-31T13:07:04.956Z</time>
      </trkpt>
      <trkpt lat="46.85257" lon="6.57038">
        <ele>1222.05</ele>
        <time>2020-10-31T13:07:08.935Z</time>
      </trkpt>
      <trkpt lat="46.85265" lon="6.57046">
        <ele>1222.13</ele>
        <time>2020-10-31T13:07:18.216Z</time>
      </trkpt>
      <trkpt lat="46.85274" lon="6.57058">
        <ele>1221.94</ele>
        <time>2020-10-31T13:07:21.976Z</time>
      </trkpt>
      <trkpt lat="46.85291" lon="6.57075">
        <ele>1220.43</ele>
        <time>2020-10-31T13:07:26.230Z</time>
      </trkpt>
      <trkpt lat="46.85298" lon="6.5708">
        <ele>1220.53</ele>
        <time>2020-10-31T13:07:34.045Z</time>
      </trkpt>
      <trkpt lat="46.85309" lon="6.57089">
        <ele>1220.63</ele>
        <time>2020-10-31T13:07:46.078Z</time>
      </trkpt>
      <trkpt lat="46.85344" lon="6.57125">
        <ele>1219.92</ele>
        <time>2020-10-31T13:07:59.128Z</time>
      </trkpt>
      <trkpt lat="46.85344" lon="6.57124">
        <ele>1219.92</ele>
        <time>2020-10-31T13:07:59.733Z</time>
      </trkpt>
      <trkpt lat="46.85347" lon="6.57128">
        <ele>1219.22</ele>
        <time>2020-10-31T13:08:00.572Z</time>
      </trkpt>
      <trkpt lat="46.85358" lon="6.5714">
        <ele>1219.87</ele>
        <time>2020-10-31T13:08:21.454Z</time>
      </trkpt>
      <trkpt lat="46.85378" lon="6.57161">
        <ele>1219.95</ele>
        <time>2020-10-31T13:08:43.918Z</time>
      </trkpt>
      <trkpt lat="46.85385" lon="6.57168">
        <ele>1220.52</ele>
        <time>2020-10-31T13:08:58.713Z</time>
      </trkpt>
      <trkpt lat="46.85391" lon="6.57174">
        <ele>1221.43</ele>
        <time>2020-10-31T13:09:20.890Z</time>
      </trkpt>
      <trkpt lat="46.85398" lon="6.57185">
        <ele>1221.52</ele>
        <time>2020-10-31T13:09:30.779Z</time>
      </trkpt>
      <trkpt lat="46.8541" lon="6.57206">
        <ele>1221.15</ele>
        <time>2020-10-31T13:09:36.273Z</time>
      </trkpt>
      <trkpt lat="46.85423" lon="6.57233">
        <ele>1220.31</ele>
        <time>2020-10-31T13:09:41.775Z</time>
      </trkpt>
      <trkpt lat="46.85431" lon="6.57244">
        <ele>1220.7</ele>
        <time>2020-10-31T13:09:56.183Z</time>
      </trkpt>
      <trkpt lat="46.85443" lon="6.5726">
        <ele>1220.87</ele>
        <time>2020-10-31T13:10:12.083Z</time>
      </trkpt>
      <trkpt lat="46.85461" lon="6.57295">
        <ele>1219.78</ele>
        <time>2020-10-31T13:10:19.437Z</time>
      </trkpt>
      <trkpt lat="46.85474" lon="6.57326">
        <ele>1218.94</ele>
        <time>2020-10-31T13:10:25.705Z</time>
      </trkpt>
      <trkpt lat="46.85482" lon="6.57335">
        <ele>1219.85</ele>
        <time>2020-10-31T13:10:46.907Z</time>
      </trkpt>
      <trkpt lat="46.85491" lon="6.57351">
        <ele>1218</ele>
        <time>2020-10-31T13:10:49.833Z</time>
      </trkpt>
      <trkpt lat="46.85497" lon="6.57363">
        <ele>1217.56</ele>
        <time>2020-10-31T13:10:52.171Z</time>
      </trkpt>
      <trkpt lat="46.85536" lon="6.57405">
        <ele>1222.91</ele>
        <time>2020-10-31T13:12:56.319Z</time>
      </trkpt>
      <trkpt lat="46.85551" lon="6.57431">
        <ele>1223.11</ele>
        <time>2020-10-31T13:13:18.671Z</time>
      </trkpt>
      <trkpt lat="46.85563" lon="6.57453">
        <ele>1224.47</ele>
        <time>2020-10-31T13:13:53.124Z</time>
      </trkpt>
      <trkpt lat="46.85574" lon="6.57475">
        <ele>1224.71</ele>
        <time>2020-10-31T13:14:11.828Z</time>
      </trkpt>
      <trkpt lat="46.85585" lon="6.57494">
        <ele>1224.86</ele>
        <time>2020-10-31T13:14:28.221Z</time>
      </trkpt>
      <trkpt lat="46.85598" lon="6.57513">
        <ele>1226.31</ele>
        <time>2020-10-31T13:15:03.313Z</time>
      </trkpt>
      <trkpt lat="46.85609" lon="6.57529">
        <ele>1227.14</ele>
        <time>2020-10-31T13:15:27.891Z</time>
      </trkpt>
      <trkpt lat="46.85617" lon="6.57547">
        <ele>1227.62</ele>
        <time>2020-10-31T13:15:46.442Z</time>
      </trkpt>
      <trkpt lat="46.85631" lon="6.57582">
        <ele>1226.1</ele>
        <time>2020-10-31T13:15:52.206Z</time>
      </trkpt>
      <trkpt lat="46.8564" lon="6.576">
        <ele>1226.44</ele>
        <time>2020-10-31T13:16:09.169Z</time>
      </trkpt>
      <trkpt lat="46.85648" lon="6.57617">
        <ele>1226.19</ele>
        <time>2020-10-31T13:16:13.414Z</time>
      </trkpt>
      <trkpt lat="46.85654" lon="6.57631">
        <ele>1225.92</ele>
        <time>2020-10-31T13:16:16.577Z</time>
      </trkpt>
      <trkpt lat="46.85665" lon="6.5765">
        <ele>1226.23</ele>
        <time>2020-10-31T13:16:34.664Z</time>
      </trkpt>
      <trkpt lat="46.85669" lon="6.57662">
        <ele>1225.45</ele>
        <time>2020-10-31T13:16:36.550Z</time>
      </trkpt>
      <trkpt lat="46.85672" lon="6.57674">
        <ele>1224.66</ele>
        <time>2020-10-31T13:16:38.354Z</time>
      </trkpt>
      <trkpt lat="46.85673" lon="6.57678">
        <ele>1224.52</ele>
        <time>2020-10-31T13:16:38.996Z</time>
      </trkpt>
      <trkpt lat="46.85673" lon="6.57677">
        <ele>1224.52</ele>
        <time>2020-10-31T13:16:39.601Z</time>
      </trkpt>
      <trkpt lat="46.85675" lon="6.57684">
        <ele>1224.38</ele>
        <time>2020-10-31T13:16:41.005Z</time>
      </trkpt>
      <trkpt lat="46.85681" lon="6.57693">
        <ele>1224.53</ele>
        <time>2020-10-31T13:16:50.061Z</time>
      </trkpt>
      <trkpt lat="46.85689" lon="6.57701">
        <ele>1226.28</ele>
        <time>2020-10-31T13:17:23.152Z</time>
      </trkpt>
      <trkpt lat="46.85694" lon="6.57707">
        <ele>1226.93</ele>
        <time>2020-10-31T13:17:38.114Z</time>
      </trkpt>
      <trkpt lat="46.85697" lon="6.57715">
        <ele>1226.49</ele>
        <time>2020-10-31T13:17:39.402Z</time>
      </trkpt>
      <trkpt lat="46.85702" lon="6.57729">
        <ele>1225.81</ele>
        <time>2020-10-31T13:17:41.505Z</time>
      </trkpt>
      <trkpt lat="46.85706" lon="6.5774">
        <ele>1224.39</ele>
        <time>2020-10-31T13:17:43.265Z</time>
      </trkpt>
      <trkpt lat="46.85706" lon="6.57749">
        <ele>1224.26</ele>
        <time>2020-10-31T13:17:45.043Z</time>
      </trkpt>
      <trkpt lat="46.85707" lon="6.57762">
        <ele>1223.85</ele>
        <time>2020-10-31T13:17:47.053Z</time>
      </trkpt>
      <trkpt lat="46.85706" lon="6.57775">
        <ele>1223.21</ele>
        <time>2020-10-31T13:17:48.901Z</time>
      </trkpt>
      <trkpt lat="46.85704" lon="6.57785">
        <ele>1221.8</ele>
        <time>2020-10-31T13:17:50.373Z</time>
      </trkpt>
      <trkpt lat="46.85699" lon="6.57797">
        <ele>1219.6</ele>
        <time>2020-10-31T13:17:52.358Z</time>
      </trkpt>
      <trkpt lat="46.85695" lon="6.57806">
        <ele>1217.81</ele>
        <time>2020-10-31T13:17:53.874Z</time>
      </trkpt>
      <trkpt lat="46.8569" lon="6.57812">
        <ele>1216.35</ele>
        <time>2020-10-31T13:17:55.210Z</time>
      </trkpt>
      <trkpt lat="46.8568" lon="6.57825">
        <ele>1214.08</ele>
        <time>2020-10-31T13:17:57.973Z</time>
      </trkpt>
      <trkpt lat="46.85677" lon="6.5783">
        <ele>1213.26</ele>
        <time>2020-10-31T13:17:58.913Z</time>
      </trkpt>
      <trkpt lat="46.85676" lon="6.57836">
        <ele>1213.22</ele>
        <time>2020-10-31T13:18:00.323Z</time>
      </trkpt>
      <trkpt lat="46.85678" lon="6.57852">
        <ele>1212.86</ele>
        <time>2020-10-31T13:18:03.167Z</time>
      </trkpt>
      <trkpt lat="46.85684" lon="6.57873">
        <ele>1213.65</ele>
        <time>2020-10-31T13:18:27.378Z</time>
      </trkpt>
      <trkpt lat="46.85688" lon="6.57888">
        <ele>1213.68</ele>
        <time>2020-10-31T13:18:37.373Z</time>
      </trkpt>
      <trkpt lat="46.85692" lon="6.57897">
        <ele>1213.31</ele>
        <time>2020-10-31T13:18:38.957Z</time>
      </trkpt>
      <trkpt lat="46.85692" lon="6.57902">
        <ele>1213.05</ele>
        <time>2020-10-31T13:18:39.663Z</time>
      </trkpt>
      <trkpt lat="46.85693" lon="6.5791">
        <ele>1212.58</ele>
        <time>2020-10-31T13:18:40.812Z</time>
      </trkpt>
      <trkpt lat="46.85695" lon="6.57926">
        <ele>1212.88</ele>
        <time>2020-10-31T13:18:53.889Z</time>
      </trkpt>
      <trkpt lat="46.85696" lon="6.57933">
        <ele>1213.45</ele>
        <time>2020-10-31T13:19:07.312Z</time>
      </trkpt>
      <trkpt lat="46.85698" lon="6.5794">
        <ele>1213.95</ele>
        <time>2020-10-31T13:19:18.847Z</time>
      </trkpt>
      <trkpt lat="46.857" lon="6.57945">
        <ele>1214.3</ele>
        <time>2020-10-31T13:19:27.037Z</time>
      </trkpt>
      <trkpt lat="46.85703" lon="6.57951">
        <ele>1214.77</ele>
        <time>2020-10-31T13:19:37.937Z</time>
      </trkpt>
      <trkpt lat="46.85707" lon="6.57958">
        <ele>1215.39</ele>
        <time>2020-10-31T13:19:52.212Z</time>
      </trkpt>
      <trkpt lat="46.85711" lon="6.57964">
        <ele>1216.16</ele>
        <time>2020-10-31T13:20:11.777Z</time>
      </trkpt>
      <trkpt lat="46.85713" lon="6.57968">
        <ele>1216.47</ele>
        <time>2020-10-31T13:20:18.980Z</time>
      </trkpt>
      <trkpt lat="46.85715" lon="6.57974">
        <ele>1216.85</ele>
        <time>2020-10-31T13:20:28.013Z</time>
      </trkpt>
      <trkpt lat="46.85717" lon="6.57984">
        <ele>1217.05</ele>
        <time>2020-10-31T13:20:36.503Z</time>
      </trkpt>
      <trkpt lat="46.8572" lon="6.57994">
        <ele>1217.13</ele>
        <time>2020-10-31T13:20:43.832Z</time>
      </trkpt>
      <trkpt lat="46.8572" lon="6.57993">
        <ele>1217.13</ele>
        <time>2020-10-31T13:20:44.438Z</time>
      </trkpt>
      <trkpt lat="46.85721" lon="6.57995">
        <ele>1217.21</ele>
        <time>2020-10-31T13:20:47.013Z</time>
      </trkpt>
      <trkpt lat="46.85723" lon="6.58002">
        <ele>1217.69</ele>
        <time>2020-10-31T13:20:58.144Z</time>
      </trkpt>
      <trkpt lat="46.85725" lon="6.58012">
        <ele>1217.85</ele>
        <time>2020-10-31T13:21:06.085Z</time>
      </trkpt>
      <trkpt lat="46.85726" lon="6.58018">
        <ele>1217.81</ele>
        <time>2020-10-31T13:21:07.495Z</time>
      </trkpt>
      <trkpt lat="46.85727" lon="6.58023">
        <ele>1217.85</ele>
        <time>2020-10-31T13:21:11.010Z</time>
      </trkpt>
      <trkpt lat="46.85729" lon="6.58031">
        <ele>1218.14</ele>
        <time>2020-10-31T13:21:20.013Z</time>
      </trkpt>
      <trkpt lat="46.85731" lon="6.5804">
        <ele>1218</ele>
        <time>2020-10-31T13:21:21.872Z</time>
      </trkpt>
      <trkpt lat="46.85733" lon="6.58044">
        <ele>1218.18</ele>
        <time>2020-10-31T13:21:27.227Z</time>
      </trkpt>
      <trkpt lat="46.85734" lon="6.58054">
        <ele>1218.31</ele>
        <time>2020-10-31T13:21:34.618Z</time>
      </trkpt>
      <trkpt lat="46.85739" lon="6.58064">
        <ele>1218.33</ele>
        <time>2020-10-31T13:21:42.282Z</time>
      </trkpt>
      <trkpt lat="46.85741" lon="6.58072">
        <ele>1218.51</ele>
        <time>2020-10-31T13:21:49.474Z</time>
      </trkpt>
      <trkpt lat="46.85744" lon="6.5808">
        <ele>1218.68</ele>
        <time>2020-10-31T13:21:56.834Z</time>
      </trkpt>
      <trkpt lat="46.85746" lon="6.58086">
        <ele>1218.97</ele>
        <time>2020-10-31T13:22:04.587Z</time>
      </trkpt>
      <trkpt lat="46.85749" lon="6.5809">
        <ele>1219.18</ele>
        <time>2020-10-31T13:22:10.942Z</time>
      </trkpt>
      <trkpt lat="46.85751" lon="6.58094">
        <ele>1219.31</ele>
        <time>2020-10-31T13:22:15.567Z</time>
      </trkpt>
      <trkpt lat="46.85755" lon="6.58103">
        <ele>1219.72</ele>
        <time>2020-10-31T13:22:27.382Z</time>
      </trkpt>
      <trkpt lat="46.85759" lon="6.58113">
        <ele>1220.08</ele>
        <time>2020-10-31T13:22:39.288Z</time>
      </trkpt>
      <trkpt lat="46.8577" lon="6.5814">
        <ele>1220.92</ele>
        <time>2020-10-31T13:23:08.922Z</time>
      </trkpt>
      <trkpt lat="46.8577" lon="6.58138">
        <ele>1220.92</ele>
        <time>2020-10-31T13:23:10.133Z</time>
      </trkpt>
      <trkpt lat="46.85774" lon="6.58148">
        <ele>1221.77</ele>
        <time>2020-10-31T13:23:29.765Z</time>
      </trkpt>
      <trkpt lat="46.85777" lon="6.58155">
        <ele>1222.17</ele>
        <time>2020-10-31T13:23:39.889Z</time>
      </trkpt>
      <trkpt lat="46.85781" lon="6.58161">
        <ele>1222.53</ele>
        <time>2020-10-31T13:23:49.572Z</time>
      </trkpt>
      <trkpt lat="46.85782" lon="6.58163">
        <ele>1222.67</ele>
        <time>2020-10-31T13:23:52.908Z</time>
      </trkpt>
      <trkpt lat="46.85784" lon="6.58165">
        <ele>1222.84</ele>
        <time>2020-10-31T13:23:57.229Z</time>
      </trkpt>
      <trkpt lat="46.85786" lon="6.58168">
        <ele>1223.05</ele>
        <time>2020-10-31T13:24:02.462Z</time>
      </trkpt>
      <trkpt lat="46.85789" lon="6.58173">
        <ele>1223.07</ele>
        <time>2020-10-31T13:24:06.658Z</time>
      </trkpt>
      <trkpt lat="46.85791" lon="6.58176">
        <ele>1223.29</ele>
        <time>2020-10-31T13:24:12.037Z</time>
      </trkpt>
      <trkpt lat="46.85793" lon="6.5818">
        <ele>1223.6</ele>
        <time>2020-10-31T13:24:19.239Z</time>
      </trkpt>
      <trkpt lat="46.85794" lon="6.58183">
        <ele>1223.7</ele>
        <time>2020-10-31T13:24:22.614Z</time>
      </trkpt>
      <trkpt lat="46.85796" lon="6.58186">
        <ele>1223.65</ele>
        <time>2020-10-31T13:24:23.479Z</time>
      </trkpt>
      <trkpt lat="46.85798" lon="6.58191">
        <ele>1223.7</ele>
        <time>2020-10-31T13:24:27.443Z</time>
      </trkpt>
      <trkpt lat="46.85799" lon="6.58193">
        <ele>1223.65</ele>
        <time>2020-10-31T13:24:27.890Z</time>
      </trkpt>
      <trkpt lat="46.85801" lon="6.58199">
        <ele>1223.73</ele>
        <time>2020-10-31T13:24:32.703Z</time>
      </trkpt>
      <trkpt lat="46.85803" lon="6.58205">
        <ele>1223.96</ele>
        <time>2020-10-31T13:24:39.786Z</time>
      </trkpt>
      <trkpt lat="46.85806" lon="6.58215">
        <ele>1223.98</ele>
        <time>2020-10-31T13:24:46.562Z</time>
      </trkpt>
      <trkpt lat="46.85808" lon="6.5822">
        <ele>1224.02</ele>
        <time>2020-10-31T13:24:50.426Z</time>
      </trkpt>
      <trkpt lat="46.85811" lon="6.58225">
        <ele>1224.24</ele>
        <time>2020-10-31T13:24:57.392Z</time>
      </trkpt>
      <trkpt lat="46.85815" lon="6.58228">
        <ele>1224.16</ele>
        <time>2020-10-31T13:24:58.743Z</time>
      </trkpt>
      <trkpt lat="46.85818" lon="6.58232">
        <ele>1224.16</ele>
        <time>2020-10-31T13:25:02.337Z</time>
      </trkpt>
      <trkpt lat="46.85827" lon="6.58253">
        <ele>1224.2</ele>
        <time>2020-10-31T13:25:17.670Z</time>
      </trkpt>
      <trkpt lat="46.85835" lon="6.58272">
        <ele>1223.48</ele>
        <time>2020-10-31T13:25:21.057Z</time>
      </trkpt>
      <trkpt lat="46.85836" lon="6.58276">
        <ele>1223.57</ele>
        <time>2020-10-31T13:25:24.653Z</time>
      </trkpt>
      <trkpt lat="46.85839" lon="6.58288">
        <ele>1222.75</ele>
        <time>2020-10-31T13:25:26.458Z</time>
      </trkpt>
      <trkpt lat="46.85841" lon="6.583">
        <ele>1221.85</ele>
        <time>2020-10-31T13:25:28.202Z</time>
      </trkpt>
      <trkpt lat="46.85843" lon="6.58309">
        <ele>1221.11</ele>
        <time>2020-10-31T13:25:29.539Z</time>
      </trkpt>
      <trkpt lat="46.85845" lon="6.58322">
        <ele>1219.97</ele>
        <time>2020-10-31T13:25:31.421Z</time>
      </trkpt>
      <trkpt lat="46.85846" lon="6.58335">
        <ele>1218.89</ele>
        <time>2020-10-31T13:25:33.269Z</time>
      </trkpt>
      <trkpt lat="46.85849" lon="6.58345">
        <ele>1217.76</ele>
        <time>2020-10-31T13:25:34.811Z</time>
      </trkpt>
      <trkpt lat="46.85851" lon="6.58352">
        <ele>1217.03</ele>
        <time>2020-10-31T13:25:35.883Z</time>
      </trkpt>
      <trkpt lat="46.85854" lon="6.58358">
        <ele>1216.29</ele>
        <time>2020-10-31T13:25:36.932Z</time>
      </trkpt>
      <trkpt lat="46.85861" lon="6.58381">
        <ele>1214.22</ele>
        <time>2020-10-31T13:25:40.488Z</time>
      </trkpt>
      <trkpt lat="46.85869" lon="6.58395">
        <ele>1212.43</ele>
        <time>2020-10-31T13:25:43.065Z</time>
      </trkpt>
      <trkpt lat="46.85884" lon="6.58418">
        <ele>1209.73</ele>
        <time>2020-10-31T13:25:47.554Z</time>
      </trkpt>
      <trkpt lat="46.85888" lon="6.58426">
        <ele>1209.07</ele>
        <time>2020-10-31T13:25:48.954Z</time>
      </trkpt>
      <trkpt lat="46.85893" lon="6.58441">
        <ele>1207.43</ele>
        <time>2020-10-31T13:25:51.311Z</time>
      </trkpt>
      <trkpt lat="46.85895" lon="6.5845">
        <ele>1206.87</ele>
        <time>2020-10-31T13:25:52.647Z</time>
      </trkpt>
      <trkpt lat="46.85898" lon="6.58462">
        <ele>1206.25</ele>
        <time>2020-10-31T13:25:54.452Z</time>
      </trkpt>
      <trkpt lat="46.85903" lon="6.58482">
        <ele>1204.61</ele>
        <time>2020-10-31T13:25:57.460Z</time>
      </trkpt>
      <trkpt lat="46.85905" lon="6.58497">
        <ele>1203.24</ele>
        <time>2020-10-31T13:25:59.618Z</time>
      </trkpt>
      <trkpt lat="46.85907" lon="6.58507">
        <ele>1202.27</ele>
        <time>2020-10-31T13:26:01.090Z</time>
      </trkpt>
      <trkpt lat="46.8591" lon="6.58519">
        <ele>1201.26</ele>
        <time>2020-10-31T13:26:02.894Z</time>
      </trkpt>
      <trkpt lat="46.85913" lon="6.58531">
        <ele>1200.39</ele>
        <time>2020-10-31T13:26:04.699Z</time>
      </trkpt>
      <trkpt lat="46.85919" lon="6.58553">
        <ele>1198.28</ele>
        <time>2020-10-31T13:26:08.044Z</time>
      </trkpt>
      <trkpt lat="46.85919" lon="6.58557">
        <ele>1197.99</ele>
        <time>2020-10-31T13:26:08.609Z</time>
      </trkpt>
      <trkpt lat="46.85927" lon="6.58584">
        <ele>1196.96</ele>
        <time>2020-10-31T13:26:12.922Z</time>
      </trkpt>
      <trkpt lat="46.85926" lon="6.58583">
        <ele>1197.47</ele>
        <time>2020-10-31T13:26:17.059Z</time>
      </trkpt>
      <trkpt lat="46.85927" lon="6.58584">
        <ele>1196.96</ele>
        <time>2020-10-31T13:26:17.309Z</time>
      </trkpt>
      <trkpt lat="46.85933" lon="6.58605">
        <ele>1196.61</ele>
        <time>2020-10-31T13:26:21.736Z</time>
      </trkpt>
      <trkpt lat="46.85939" lon="6.58621">
        <ele>1196.47</ele>
        <time>2020-10-31T13:26:25.809Z</time>
      </trkpt>
      <trkpt lat="46.85943" lon="6.58635">
        <ele>1196.76</ele>
        <time>2020-10-31T13:26:38.154Z</time>
      </trkpt>
      <trkpt lat="46.85947" lon="6.58648">
        <ele>1197.14</ele>
        <time>2020-10-31T13:26:51.575Z</time>
      </trkpt>
      <trkpt lat="46.85952" lon="6.58664">
        <ele>1197.6</ele>
        <time>2020-10-31T13:27:07.964Z</time>
      </trkpt>
      <trkpt lat="46.85956" lon="6.58675">
        <ele>1197.85</ele>
        <time>2020-10-31T13:27:18.278Z</time>
      </trkpt>
      <trkpt lat="46.85961" lon="6.58689">
        <ele>1198.04</ele>
        <time>2020-10-31T13:27:29.674Z</time>
      </trkpt>
      <trkpt lat="46.85979" lon="6.58739">
        <ele>1199.51</ele>
        <time>2020-10-31T13:28:22.172Z</time>
      </trkpt>
      <trkpt lat="46.85981" lon="6.58743">
        <ele>1199.67</ele>
        <time>2020-10-31T13:28:27.323Z</time>
      </trkpt>
      <trkpt lat="46.85985" lon="6.58754">
        <ele>1200.22</ele>
        <time>2020-10-31T13:28:41.900Z</time>
      </trkpt>
      <trkpt lat="46.85988" lon="6.58764">
        <ele>1200.14</ele>
        <time>2020-10-31T13:28:44.353Z</time>
      </trkpt>
      <trkpt lat="46.85991" lon="6.58776">
        <ele>1199.95</ele>
        <time>2020-10-31T13:28:46.860Z</time>
      </trkpt>
      <trkpt lat="46.85991" lon="6.58781">
        <ele>1199.78</ele>
        <time>2020-10-31T13:28:47.602Z</time>
      </trkpt>
      <trkpt lat="46.85994" lon="6.58789">
        <ele>1200.01</ele>
        <time>2020-10-31T13:28:55.941Z</time>
      </trkpt>
      <trkpt lat="46.85999" lon="6.58797">
        <ele>1200.59</ele>
        <time>2020-10-31T13:29:10.019Z</time>
      </trkpt>
      <trkpt lat="46.8601" lon="6.5881">
        <ele>1201.76</ele>
        <time>2020-10-31T13:29:37.885Z</time>
      </trkpt>
      <trkpt lat="46.86013" lon="6.58817">
        <ele>1201.87</ele>
        <time>2020-10-31T13:29:43.971Z</time>
      </trkpt>
      <trkpt lat="46.86014" lon="6.58823">
        <ele>1201.8</ele>
        <time>2020-10-31T13:29:45.259Z</time>
      </trkpt>
      <trkpt lat="46.86014" lon="6.58828">
        <ele>1201.69</ele>
        <time>2020-10-31T13:29:46.135Z</time>
      </trkpt>
      <trkpt lat="46.86017" lon="6.58833">
        <ele>1201.73</ele>
        <time>2020-10-31T13:29:50.514Z</time>
      </trkpt>
      <trkpt lat="46.86025" lon="6.58839">
        <ele>1202.64</ele>
        <time>2020-10-31T13:30:11.459Z</time>
      </trkpt>
      <trkpt lat="46.86031" lon="6.58845">
        <ele>1203.68</ele>
        <time>2020-10-31T13:30:36.277Z</time>
      </trkpt>
      <trkpt lat="46.86036" lon="6.58849">
        <ele>1204.36</ele>
        <time>2020-10-31T13:30:52.438Z</time>
      </trkpt>
      <trkpt lat="46.8604" lon="6.58851">
        <ele>1204.92</ele>
        <time>2020-10-31T13:31:06.674Z</time>
      </trkpt>
      <trkpt lat="46.86042" lon="6.58854">
        <ele>1205.3</ele>
        <time>2020-10-31T13:31:16.345Z</time>
      </trkpt>
      <trkpt lat="46.86049" lon="6.58866">
        <ele>1206.53</ele>
        <time>2020-10-31T13:31:45.109Z</time>
      </trkpt>
      <trkpt lat="46.86055" lon="6.58875">
        <ele>1207.15</ele>
        <time>2020-10-31T13:32:00.669Z</time>
      </trkpt>
      <trkpt lat="46.86059" lon="6.58884">
        <ele>1207.53</ele>
        <time>2020-10-31T13:32:12.163Z</time>
      </trkpt>
      <trkpt lat="46.86065" lon="6.58894">
        <ele>1208.35</ele>
        <time>2020-10-31T13:32:31.269Z</time>
      </trkpt>
      <trkpt lat="46.86068" lon="6.589">
        <ele>1208.32</ele>
        <time>2020-10-31T13:32:35.395Z</time>
      </trkpt>
      <trkpt lat="46.8607" lon="6.58904">
        <ele>1208.57</ele>
        <time>2020-10-31T13:32:41.607Z</time>
      </trkpt>
      <trkpt lat="46.86074" lon="6.58909">
        <ele>1208.84</ele>
        <time>2020-10-31T13:32:49.823Z</time>
      </trkpt>
      <trkpt lat="46.86079" lon="6.58916">
        <ele>1209.27</ele>
        <time>2020-10-31T13:33:01.461Z</time>
      </trkpt>
      <trkpt lat="46.86084" lon="6.5892">
        <ele>1209.5</ele>
        <time>2020-10-31T13:33:09.464Z</time>
      </trkpt>
      <trkpt lat="46.86088" lon="6.58926">
        <ele>1209.67</ele>
        <time>2020-10-31T13:33:16.429Z</time>
      </trkpt>
      <trkpt lat="46.86091" lon="6.58931">
        <ele>1209.86</ele>
        <time>2020-10-31T13:33:22.951Z</time>
      </trkpt>
      <trkpt lat="46.86099" lon="6.5894">
        <ele>1210.16</ele>
        <time>2020-10-31T13:33:35.228Z</time>
      </trkpt>
      <trkpt lat="46.86106" lon="6.58951">
        <ele>1210.58</ele>
        <time>2020-10-31T13:33:49.767Z</time>
      </trkpt>
      <trkpt lat="46.8611" lon="6.58956">
        <ele>1210.74</ele>
        <time>2020-10-31T13:33:56.224Z</time>
      </trkpt>
      <trkpt lat="46.86115" lon="6.58961">
        <ele>1211.11</ele>
        <time>2020-10-31T13:34:06.333Z</time>
      </trkpt>
      <trkpt lat="46.8612" lon="6.58965">
        <ele>1211.62</ele>
        <time>2020-10-31T13:34:18.234Z</time>
      </trkpt>
      <trkpt lat="46.86126" lon="6.58969">
        <ele>1212.24</ele>
        <time>2020-10-31T13:34:32.578Z</time>
      </trkpt>
      <trkpt lat="46.86132" lon="6.58974">
        <ele>1212.86</ele>
        <time>2020-10-31T13:34:47.035Z</time>
      </trkpt>
      <trkpt lat="46.86138" lon="6.58976">
        <ele>1213.85</ele>
        <time>2020-10-31T13:35:08.047Z</time>
      </trkpt>
      <trkpt lat="46.8614" lon="6.58979">
        <ele>1214.03</ele>
        <time>2020-10-31T13:35:12.888Z</time>
      </trkpt>
      <trkpt lat="46.86142" lon="6.58982">
        <ele>1214.36</ele>
        <time>2020-10-31T13:35:20.629Z</time>
      </trkpt>
      <trkpt lat="46.86149" lon="6.58988">
        <ele>1215.14</ele>
        <time>2020-10-31T13:35:38.628Z</time>
      </trkpt>
      <trkpt lat="46.86153" lon="6.5899">
        <ele>1215.43</ele>
        <time>2020-10-31T13:35:46.080Z</time>
      </trkpt>
      <trkpt lat="46.86158" lon="6.58994">
        <ele>1216.05</ele>
        <time>2020-10-31T13:36:00.428Z</time>
      </trkpt>
      <trkpt lat="46.86162" lon="6.58998">
        <ele>1216.31</ele>
        <time>2020-10-31T13:36:08.112Z</time>
      </trkpt>
      <trkpt lat="46.86165" lon="6.59">
        <ele>1216.79</ele>
        <time>2020-10-31T13:36:19.369Z</time>
      </trkpt>
      <trkpt lat="46.86169" lon="6.59002">
        <ele>1216.99</ele>
        <time>2020-10-31T13:36:25.799Z</time>
      </trkpt>
      <trkpt lat="46.86174" lon="6.59005">
        <ele>1217.68</ele>
        <time>2020-10-31T13:36:42.834Z</time>
      </trkpt>
      <trkpt lat="46.86178" lon="6.59006">
        <ele>1218.33</ele>
        <time>2020-10-31T13:36:56.689Z</time>
      </trkpt>
      <trkpt lat="46.86182" lon="6.59008">
        <ele>1218.53</ele>
        <time>2020-10-31T13:37:03.119Z</time>
      </trkpt>
      <trkpt lat="46.86192" lon="6.59036">
        <ele>1215.81</ele>
        <time>2020-10-31T13:37:07.581Z</time>
      </trkpt>
      <trkpt lat="46.86197" lon="6.59053">
        <ele>1213.83</ele>
        <time>2020-10-31T13:37:10.194Z</time>
      </trkpt>
      <trkpt lat="46.862" lon="6.59074">
        <ele>1211.9</ele>
        <time>2020-10-31T13:37:13.224Z</time>
      </trkpt>
      <trkpt lat="46.86205" lon="6.59097">
        <ele>1210.74</ele>
        <time>2020-10-31T13:37:16.633Z</time>
      </trkpt>
      <trkpt lat="46.86212" lon="6.59133">
        <ele>1209.27</ele>
        <time>2020-10-31T13:37:21.839Z</time>
      </trkpt>
      <trkpt lat="46.86218" lon="6.59142">
        <ele>1208.98</ele>
        <time>2020-10-31T13:37:24.006Z</time>
      </trkpt>
      <trkpt lat="46.86223" lon="6.59151">
        <ele>1208.7</ele>
        <time>2020-10-31T13:37:25.975Z</time>
      </trkpt>
      <trkpt lat="46.86232" lon="6.59175">
        <ele>1207.99</ele>
        <time>2020-10-31T13:37:30.502Z</time>
      </trkpt>
      <trkpt lat="46.86238" lon="6.59186">
        <ele>1207.63</ele>
        <time>2020-10-31T13:37:32.841Z</time>
      </trkpt>
      <trkpt lat="46.86249" lon="6.59201">
        <ele>1206.64</ele>
        <time>2020-10-31T13:37:35.705Z</time>
      </trkpt>
      <trkpt lat="46.86264" lon="6.59218">
        <ele>1204.72</ele>
        <time>2020-10-31T13:37:39.625Z</time>
      </trkpt>
      <trkpt lat="46.86271" lon="6.59229">
        <ele>1203.92</ele>
        <time>2020-10-31T13:37:41.747Z</time>
      </trkpt>
      <trkpt lat="46.8628" lon="6.59246">
        <ele>1203.19</ele>
        <time>2020-10-31T13:37:44.941Z</time>
      </trkpt>
      <trkpt lat="46.86288" lon="6.59263">
        <ele>1202.64</ele>
        <time>2020-10-31T13:37:48.320Z</time>
      </trkpt>
      <trkpt lat="46.86297" lon="6.59289">
        <ele>1201.71</ele>
        <time>2020-10-31T13:37:52.764Z</time>
      </trkpt>
      <trkpt lat="46.86307" lon="6.59324">
        <ele>1200.69</ele>
        <time>2020-10-31T13:37:58.954Z</time>
      </trkpt>
      <trkpt lat="46.86312" lon="6.59345">
        <ele>1200.32</ele>
        <time>2020-10-31T13:38:03.190Z</time>
      </trkpt>
      <trkpt lat="46.86315" lon="6.59359">
        <ele>1200.19</ele>
        <time>2020-10-31T13:38:06.392Z</time>
      </trkpt>
      <trkpt lat="46.86319" lon="6.59405">
        <ele>1200.28</ele>
        <time>2020-10-31T13:38:35.207Z</time>
      </trkpt>
      <trkpt lat="46.86322" lon="6.59424">
        <ele>1200.32</ele>
        <time>2020-10-31T13:38:47.343Z</time>
      </trkpt>
      <trkpt lat="46.86326" lon="6.59449">
        <ele>1200.38</ele>
        <time>2020-10-31T13:39:03.386Z</time>
      </trkpt>
      <trkpt lat="46.86332" lon="6.59477">
        <ele>1200.24</ele>
        <time>2020-10-31T13:39:19.430Z</time>
      </trkpt>
      <trkpt lat="46.86336" lon="6.59499">
        <ele>1200.07</ele>
        <time>2020-10-31T13:39:24.530Z</time>
      </trkpt>
      <trkpt lat="46.86339" lon="6.59521">
        <ele>1199.93</ele>
        <time>2020-10-31T13:39:29.678Z</time>
      </trkpt>
      <trkpt lat="46.86341" lon="6.59545">
        <ele>1199.98</ele>
        <time>2020-10-31T13:39:44.728Z</time>
      </trkpt>
      <trkpt lat="46.86342" lon="6.59559">
        <ele>1200.01</ele>
        <time>2020-10-31T13:39:53.498Z</time>
      </trkpt>
      <trkpt lat="46.86342" lon="6.59579">
        <ele>1200.23</ele>
        <time>2020-10-31T13:40:07.695Z</time>
      </trkpt>
      <trkpt lat="46.86342" lon="6.59594">
        <ele>1200.56</ele>
        <time>2020-10-31T13:40:20.568Z</time>
      </trkpt>
      <trkpt lat="46.86342" lon="6.59616">
        <ele>1200.95</ele>
        <time>2020-10-31T13:40:38.031Z</time>
      </trkpt>
      <trkpt lat="46.86343" lon="6.59659">
        <ele>1200.67</ele>
        <time>2020-10-31T13:40:47.851Z</time>
      </trkpt>
      <trkpt lat="46.86344" lon="6.59683">
        <ele>1200.28</ele>
        <time>2020-10-31T13:40:52.463Z</time>
      </trkpt>
      <trkpt lat="46.86346" lon="6.597">
        <ele>1199.8</ele>
        <time>2020-10-31T13:40:55.242Z</time>
      </trkpt>
      <trkpt lat="46.86348" lon="6.59723">
        <ele>1199.32</ele>
        <time>2020-10-31T13:40:59.384Z</time>
      </trkpt>
      <trkpt lat="46.86349" lon="6.5974">
        <ele>1199.28</ele>
        <time>2020-10-31T13:41:09.196Z</time>
      </trkpt>
      <trkpt lat="46.8635" lon="6.5976">
        <ele>1199.31</ele>
        <time>2020-10-31T13:41:21.582Z</time>
      </trkpt>
      <trkpt lat="46.86349" lon="6.59819">
        <ele>1200.09</ele>
        <time>2020-10-31T13:42:04.988Z</time>
      </trkpt>
      <trkpt lat="46.86351" lon="6.59899">
        <ele>1199.69</ele>
        <time>2020-10-31T13:42:23.816Z</time>
      </trkpt>
      <trkpt lat="46.86352" lon="6.60004">
        <ele>1198.75</ele>
        <time>2020-10-31T13:42:46.691Z</time>
      </trkpt>
      <trkpt lat="46.86352" lon="6.60003">
        <ele>1198.75</ele>
        <time>2020-10-31T13:42:47.296Z</time>
      </trkpt>
      <trkpt lat="46.86353" lon="6.6005">
        <ele>1197.8</ele>
        <time>2020-10-31T13:42:55.762Z</time>
      </trkpt>
      <trkpt lat="46.86353" lon="6.60101">
        <ele>1197.34</ele>
        <time>2020-10-31T13:43:06.857Z</time>
      </trkpt>
      <trkpt lat="46.86356" lon="6.6033">
        <ele>1197.25</ele>
        <time>2020-10-31T13:45:24.276Z</time>
      </trkpt>
      <trkpt lat="46.86355" lon="6.60371">
        <ele>1197.86</ele>
        <time>2020-10-31T13:45:55.284Z</time>
      </trkpt>
      <trkpt lat="46.86353" lon="6.60409">
        <ele>1198.66</ele>
        <time>2020-10-31T13:46:27.376Z</time>
      </trkpt>
      <trkpt lat="46.86352" lon="6.60444">
        <ele>1199.75</ele>
        <time>2020-10-31T13:47:03.389Z</time>
      </trkpt>
      <trkpt lat="46.8635" lon="6.60469">
        <ele>1200.59</ele>
        <time>2020-10-31T13:47:29.821Z</time>
      </trkpt>
      <trkpt lat="46.86347" lon="6.60496">
        <ele>1201.13</ele>
        <time>2020-10-31T13:47:52.330Z</time>
      </trkpt>
      <trkpt lat="46.86344" lon="6.6051">
        <ele>1201.41</ele>
        <time>2020-10-31T13:48:04.261Z</time>
      </trkpt>
      <trkpt lat="46.86341" lon="6.6052">
        <ele>1201.24</ele>
        <time>2020-10-31T13:48:06.378Z</time>
      </trkpt>
      <trkpt lat="46.86334" lon="6.60532">
        <ele>1201.17</ele>
        <time>2020-10-31T13:48:15.062Z</time>
      </trkpt>
      <trkpt lat="46.86326" lon="6.60532">
        <ele>1201.09</ele>
        <time>2020-10-31T13:48:17.715Z</time>
      </trkpt>
    </trkseg>
  </trk>
</gpx>